<?xml version='1.0' encoding='UTF-8'?><gpx version="1.1" creator="JPX - https://github.com/jenetics/jpx" xmlns="http://www.topografix.com/GPX/1/1"><trk><trkseg><trkpt lat="54.6947661" lon="20.2315803"><ele>8.0</ele><time>2026-05-02T16:20:38.871Z</time></trkpt><trkpt lat="54.6947115" lon="20.2316616"><ele>8.0</ele><time>2026-05-02T16:21:01.877Z</time></trkpt><trkpt lat="54.6946189" lon="20.2316234"><ele>8.0</ele><time>2026-05-02T16:21:19.844Z</time></trkpt><trkpt lat="54.6945364" lon="20.2317154"><ele>8.0</ele><time>2026-05-02T16:22:16.92Z</time></trkpt><trkpt lat="54.6944391" lon="20.231644"><ele>8.0</ele><time>2026-05-02T16:22:20.879Z</time></trkpt><trkpt lat="54.6943382" lon="20.2314999"><ele>7.833333333333333</ele><time>2026-05-02T16:22:25.91Z</time></trkpt><trkpt lat="54.6942867" lon="20.2313133"><ele>7.666666666666666</ele><time>2026-05-02T16:22:28.88Z</time></trkpt><trkpt lat="54.6942717" lon="20.2311967"><ele>7.5</ele><time>2026-05-02T16:22:31.882Z</time></trkpt><trkpt lat="54.6942467" lon="20.231075"><ele>7.333333333333334</ele><time>2026-05-02T16:22:37.88Z</time></trkpt><trkpt lat="54.6941933" lon="20.23098"><ele>7.166666666666667</ele><time>2026-05-02T16:22:41.879Z</time></trkpt><trkpt lat="54.69414" lon="20.2308633"><ele>7.0</ele><time>2026-05-02T16:22:46.881Z</time></trkpt><trkpt lat="54.69415" lon="20.23075"><ele>7.0</ele><time>2026-05-02T16:22:49.881Z</time></trkpt><trkpt lat="54.6941983" lon="20.2306667"><ele>7.0</ele><time>2026-05-02T16:22:52.881Z</time></trkpt><trkpt lat="54.6942517" lon="20.230605"><ele>7.0</ele><time>2026-05-02T16:22:54.879Z</time></trkpt><trkpt lat="54.6943233" lon="20.2305533"><ele>7.0</ele><time>2026-05-02T16:22:56.88Z</time></trkpt><trkpt lat="54.694395" lon="20.2305033"><ele>7.0</ele><time>2026-05-02T16:22:58.876Z</time></trkpt><trkpt lat="54.6944717" lon="20.23044"><ele>7.0</ele><time>2026-05-02T16:23:00.872Z</time></trkpt><trkpt lat="54.69454" lon="20.2303967"><ele>7.0</ele><time>2026-05-02T16:23:02.88Z</time></trkpt><trkpt lat="54.694625" lon="20.2303567"><ele>7.166666666666667</ele><time>2026-05-02T16:23:05.879Z</time></trkpt><trkpt lat="54.6947083" lon="20.2303233"><ele>7.333333333333334</ele><time>2026-05-02T16:23:08.88Z</time></trkpt><trkpt lat="54.6947733" lon="20.230305"><ele>7.5</ele><time>2026-05-02T16:23:10.88Z</time></trkpt><trkpt lat="54.694845" lon="20.230275"><ele>7.666666666666666</ele><time>2026-05-02T16:23:13.883Z</time></trkpt><trkpt lat="54.6949117" lon="20.2302483"><ele>7.833333333333333</ele><time>2026-05-02T16:23:16.88Z</time></trkpt><trkpt lat="54.6949817" lon="20.2302183"><ele>8.0</ele><time>2026-05-02T16:23:19.88Z</time></trkpt><trkpt lat="54.695065" lon="20.2302383"><ele>8.0</ele><time>2026-05-02T16:23:22.88Z</time></trkpt><trkpt lat="54.695145" lon="20.2302217"><ele>7.999999999999999</ele><time>2026-05-02T16:23:24.884Z</time></trkpt><trkpt lat="54.6952267" lon="20.23023"><ele>8.0</ele><time>2026-05-02T16:23:27.878Z</time></trkpt><trkpt lat="54.695285" lon="20.2302767"><ele>8.0</ele><time>2026-05-02T16:23:29.875Z</time></trkpt><trkpt lat="54.695345" lon="20.230335"><ele>7.999999999999999</ele><time>2026-05-02T16:23:31.876Z</time></trkpt><trkpt lat="54.6954083" lon="20.2303767"><ele>8.0</ele><time>2026-05-02T16:23:33.882Z</time></trkpt><trkpt lat="54.695475" lon="20.2304183"><ele>8.0</ele><time>2026-05-02T16:23:35.88Z</time></trkpt><trkpt lat="54.6955717" lon="20.230455"><ele>7.333333333333333</ele><time>2026-05-02T16:23:38.889Z</time></trkpt><trkpt lat="54.695665" lon="20.230465"><ele>6.666666666666666</ele><time>2026-05-02T16:23:40.876Z</time></trkpt><trkpt lat="54.6957617" lon="20.2304683"><ele>6.0</ele><time>2026-05-02T16:23:42.88Z</time></trkpt><trkpt lat="54.6958317" lon="20.230455"><ele>5.333333333333333</ele><time>2026-05-02T16:23:44.887Z</time></trkpt><trkpt lat="54.6959083" lon="20.23045"><ele>4.666666666666666</ele><time>2026-05-02T16:23:46.876Z</time></trkpt><trkpt lat="54.6959733" lon="20.2304383"><ele>4.0</ele><time>2026-05-02T16:23:48.881Z</time></trkpt><trkpt lat="54.696065" lon="20.2304017"><ele>3.333333333333333</ele><time>2026-05-02T16:23:51.877Z</time></trkpt><trkpt lat="54.6961367" lon="20.230415"><ele>2.6666666666666665</ele><time>2026-05-02T16:23:53.882Z</time></trkpt><trkpt lat="54.6962" lon="20.23042"><ele>2.0</ele><time>2026-05-02T16:23:55.88Z</time></trkpt><trkpt lat="54.6962783" lon="20.230435"><ele>1.3333333333333333</ele><time>2026-05-02T16:23:58.879Z</time></trkpt><trkpt lat="54.696365" lon="20.2304567"><ele>0.6666666666666666</ele><time>2026-05-02T16:24:01.881Z</time></trkpt><trkpt lat="54.69644" lon="20.2304717"><ele>0.0</ele><time>2026-05-02T16:24:03.882Z</time></trkpt><trkpt lat="54.6965217" lon="20.23048"><ele>0.0</ele><time>2026-05-02T16:24:05.887Z</time></trkpt><trkpt lat="54.6966067" lon="20.2304867"><ele>0.0</ele><time>2026-05-02T16:24:07.886Z</time></trkpt><trkpt lat="54.6966833" lon="20.23049"><ele>0.0</ele><time>2026-05-02T16:24:09.879Z</time></trkpt><trkpt lat="54.6967633" lon="20.2304933"><ele>0.0</ele><time>2026-05-02T16:24:11.88Z</time></trkpt><trkpt lat="54.6968383" lon="20.230485"><ele>0.0</ele><time>2026-05-02T16:24:13.881Z</time></trkpt><trkpt lat="54.6969217" lon="20.2304733"><ele>0.0</ele><time>2026-05-02T16:24:15.881Z</time></trkpt><trkpt lat="54.6970067" lon="20.2304633"><ele>0.16666666666666666</ele><time>2026-05-02T16:24:17.883Z</time></trkpt><trkpt lat="54.6970983" lon="20.2304367"><ele>0.3333333333333333</ele><time>2026-05-02T16:24:19.878Z</time></trkpt><trkpt lat="54.69717" lon="20.2303783"><ele>0.5</ele><time>2026-05-02T16:24:21.883Z</time></trkpt><trkpt lat="54.6972467" lon="20.2303433"><ele>0.6666666666666666</ele><time>2026-05-02T16:24:23.885Z</time></trkpt><trkpt lat="54.69734" lon="20.23033"><ele>0.8333333333333333</ele><time>2026-05-02T16:24:25.88Z</time></trkpt><trkpt lat="54.6974433" lon="20.2303367"><ele>1.0</ele><time>2026-05-02T16:24:27.879Z</time></trkpt><trkpt lat="54.6975433" lon="20.2303417"><ele>0.9999999999999999</ele><time>2026-05-02T16:24:29.883Z</time></trkpt><trkpt lat="54.69764" lon="20.230355"><ele>1.0</ele><time>2026-05-02T16:24:31.883Z</time></trkpt><trkpt lat="54.6977333" lon="20.2303767"><ele>1.0</ele><time>2026-05-02T16:24:33.882Z</time></trkpt><trkpt lat="54.6978117" lon="20.2304"><ele>1.0</ele><time>2026-05-02T16:24:35.883Z</time></trkpt><trkpt lat="54.6978833" lon="20.23045"><ele>0.9999999999999999</ele><time>2026-05-02T16:24:37.88Z</time></trkpt><trkpt lat="54.6979533" lon="20.23054"><ele>1.0</ele><time>2026-05-02T16:24:39.876Z</time></trkpt><trkpt lat="54.697995" lon="20.230635"><ele>1.0</ele><time>2026-05-02T16:24:41.885Z</time></trkpt><trkpt lat="54.69801" lon="20.230905"><ele>1.0</ele><time>2026-05-02T16:24:43.88Z</time></trkpt><trkpt lat="54.6980133" lon="20.2310917"><ele>1.0</ele><time>2026-05-02T16:24:44.884Z</time></trkpt><trkpt lat="54.6980017" lon="20.2312833"><ele>1.0</ele><time>2026-05-02T16:24:45.88Z</time></trkpt><trkpt lat="54.6979917" lon="20.2314933"><ele>1.0</ele><time>2026-05-02T16:24:46.883Z</time></trkpt><trkpt lat="54.69797" lon="20.2317167"><ele>1.0</ele><time>2026-05-02T16:24:47.884Z</time></trkpt><trkpt lat="54.6979767" lon="20.23197"><ele>1.0</ele><time>2026-05-02T16:24:48.884Z</time></trkpt><trkpt lat="54.6979583" lon="20.23222"><ele>1.0</ele><time>2026-05-02T16:24:49.873Z</time></trkpt><trkpt lat="54.6979433" lon="20.2324833"><ele>1.0</ele><time>2026-05-02T16:24:50.884Z</time></trkpt><trkpt lat="54.6979417" lon="20.23277"><ele>1.0</ele><time>2026-05-02T16:24:51.884Z</time></trkpt><trkpt lat="54.6979433" lon="20.233055"><ele>1.0</ele><time>2026-05-02T16:24:52.879Z</time></trkpt><trkpt lat="54.69795" lon="20.2333167"><ele>1.25</ele><time>2026-05-02T16:24:53.875Z</time></trkpt><trkpt lat="54.6979333" lon="20.2335633"><ele>1.5</ele><time>2026-05-02T16:24:54.879Z</time></trkpt><trkpt lat="54.6979133" lon="20.2337933"><ele>1.75</ele><time>2026-05-02T16:24:55.882Z</time></trkpt><trkpt lat="54.6978983" lon="20.234015"><ele>2.0</ele><time>2026-05-02T16:24:56.88Z</time></trkpt><trkpt lat="54.6978833" lon="20.2342183"><ele>2.0</ele><time>2026-05-02T16:24:57.877Z</time></trkpt><trkpt lat="54.6978633" lon="20.234415"><ele>2.0</ele><time>2026-05-02T16:24:58.88Z</time></trkpt><trkpt lat="54.6978383" lon="20.234625"><ele>2.0</ele><time>2026-05-02T16:24:59.88Z</time></trkpt><trkpt lat="54.697815" lon="20.2348467"><ele>2.0</ele><time>2026-05-02T16:25:00.882Z</time></trkpt><trkpt lat="54.6977933" lon="20.2350767"><ele>2.0</ele><time>2026-05-02T16:25:01.878Z</time></trkpt><trkpt lat="54.69777" lon="20.2353083"><ele>2.0</ele><time>2026-05-02T16:25:02.879Z</time></trkpt><trkpt lat="54.6977483" lon="20.2355433"><ele>2.0</ele><time>2026-05-02T16:25:03.88Z</time></trkpt><trkpt lat="54.6977283" lon="20.235775"><ele>2.0</ele><time>2026-05-02T16:25:04.877Z</time></trkpt><trkpt lat="54.6977117" lon="20.2360167"><ele>2.0</ele><time>2026-05-02T16:25:05.888Z</time></trkpt><trkpt lat="54.6976883" lon="20.2362483"><ele>2.0</ele><time>2026-05-02T16:25:06.888Z</time></trkpt><trkpt lat="54.6976683" lon="20.23648"><ele>2.0</ele><time>2026-05-02T16:25:07.881Z</time></trkpt><trkpt lat="54.6976483" lon="20.2367033"><ele>2.0</ele><time>2026-05-02T16:25:08.878Z</time></trkpt><trkpt lat="54.6976317" lon="20.2369167"><ele>2.0</ele><time>2026-05-02T16:25:09.879Z</time></trkpt><trkpt lat="54.6976167" lon="20.23712"><ele>2.0</ele><time>2026-05-02T16:25:10.885Z</time></trkpt><trkpt lat="54.6975983" lon="20.2373133"><ele>2.0</ele><time>2026-05-02T16:25:11.881Z</time></trkpt><trkpt lat="54.6975817" lon="20.237505"><ele>2.0</ele><time>2026-05-02T16:25:12.881Z</time></trkpt><trkpt lat="54.6975633" lon="20.237695"><ele>1.75</ele><time>2026-05-02T16:25:13.876Z</time></trkpt><trkpt lat="54.6975417" lon="20.2378867"><ele>1.5</ele><time>2026-05-02T16:25:14.877Z</time></trkpt><trkpt lat="54.6975217" lon="20.238085"><ele>1.25</ele><time>2026-05-02T16:25:15.884Z</time></trkpt><trkpt lat="54.6974983" lon="20.23829"><ele>1.0</ele><time>2026-05-02T16:25:16.883Z</time></trkpt><trkpt lat="54.697475" lon="20.238495"><ele>1.0</ele><time>2026-05-02T16:25:17.88Z</time></trkpt><trkpt lat="54.6974583" lon="20.238705"><ele>1.0</ele><time>2026-05-02T16:25:18.88Z</time></trkpt><trkpt lat="54.6974367" lon="20.2389067"><ele>1.0</ele><time>2026-05-02T16:25:19.882Z</time></trkpt><trkpt lat="54.697415" lon="20.2391117"><ele>1.0</ele><time>2026-05-02T16:25:20.882Z</time></trkpt><trkpt lat="54.697395" lon="20.2393167"><ele>1.0</ele><time>2026-05-02T16:25:21.884Z</time></trkpt><trkpt lat="54.69738" lon="20.2395233"><ele>1.0</ele><time>2026-05-02T16:25:22.878Z</time></trkpt><trkpt lat="54.697365" lon="20.2397317"><ele>1.0</ele><time>2026-05-02T16:25:23.877Z</time></trkpt><trkpt lat="54.69735" lon="20.2399417"><ele>1.0</ele><time>2026-05-02T16:25:24.876Z</time></trkpt><trkpt lat="54.6973233" lon="20.2401567"><ele>1.25</ele><time>2026-05-02T16:25:25.884Z</time></trkpt><trkpt lat="54.6973" lon="20.2403717"><ele>1.5</ele><time>2026-05-02T16:25:26.884Z</time></trkpt><trkpt lat="54.6972883" lon="20.240585"><ele>1.75</ele><time>2026-05-02T16:25:27.878Z</time></trkpt><trkpt lat="54.6972783" lon="20.2408033"><ele>2.0</ele><time>2026-05-02T16:25:28.876Z</time></trkpt><trkpt lat="54.6972767" lon="20.2410233"><ele>2.0</ele><time>2026-05-02T16:25:29.876Z</time></trkpt><trkpt lat="54.697275" lon="20.2412433"><ele>2.0</ele><time>2026-05-02T16:25:30.882Z</time></trkpt><trkpt lat="54.6972783" lon="20.2414533"><ele>2.0</ele><time>2026-05-02T16:25:31.88Z</time></trkpt><trkpt lat="54.697285" lon="20.2416583"><ele>2.0</ele><time>2026-05-02T16:25:32.881Z</time></trkpt><trkpt lat="54.6972867" lon="20.2418617"><ele>2.0</ele><time>2026-05-02T16:25:33.879Z</time></trkpt><trkpt lat="54.6972933" lon="20.2420617"><ele>2.0</ele><time>2026-05-02T16:25:34.883Z</time></trkpt><trkpt lat="54.6972983" lon="20.24226"><ele>2.0</ele><time>2026-05-02T16:25:35.883Z</time></trkpt><trkpt lat="54.697305" lon="20.2424567"><ele>2.0</ele><time>2026-05-02T16:25:36.877Z</time></trkpt><trkpt lat="54.69731" lon="20.2426533"><ele>2.0</ele><time>2026-05-02T16:25:37.881Z</time></trkpt><trkpt lat="54.6973117" lon="20.2428533"><ele>2.0</ele><time>2026-05-02T16:25:38.876Z</time></trkpt><trkpt lat="54.6973167" lon="20.2430533"><ele>2.0</ele><time>2026-05-02T16:25:39.876Z</time></trkpt><trkpt lat="54.6973183" lon="20.24326"><ele>2.0</ele><time>2026-05-02T16:25:40.882Z</time></trkpt><trkpt lat="54.69732" lon="20.2434683"><ele>1.75</ele><time>2026-05-02T16:25:41.876Z</time></trkpt><trkpt lat="54.6973183" lon="20.2436783"><ele>1.5</ele><time>2026-05-02T16:25:42.88Z</time></trkpt><trkpt lat="54.6973183" lon="20.2438867"><ele>1.25</ele><time>2026-05-02T16:25:43.883Z</time></trkpt><trkpt lat="54.6973217" lon="20.2440933"><ele>1.0</ele><time>2026-05-02T16:25:44.882Z</time></trkpt><trkpt lat="54.697325" lon="20.2443"><ele>1.0</ele><time>2026-05-02T16:25:45.883Z</time></trkpt><trkpt lat="54.6973367" lon="20.2444883"><ele>1.0</ele><time>2026-05-02T16:25:46.877Z</time></trkpt><trkpt lat="54.6973383" lon="20.24469"><ele>1.0</ele><time>2026-05-02T16:25:47.88Z</time></trkpt><trkpt lat="54.6973367" lon="20.2448883"><ele>1.0</ele><time>2026-05-02T16:25:48.884Z</time></trkpt><trkpt lat="54.6973367" lon="20.245085"><ele>1.25</ele><time>2026-05-02T16:25:49.883Z</time></trkpt><trkpt lat="54.6973367" lon="20.2452883"><ele>1.5</ele><time>2026-05-02T16:25:50.878Z</time></trkpt><trkpt lat="54.6973383" lon="20.245485"><ele>1.75</ele><time>2026-05-02T16:25:51.885Z</time></trkpt><trkpt lat="54.6973433" lon="20.2456833"><ele>2.0</ele><time>2026-05-02T16:25:52.88Z</time></trkpt><trkpt lat="54.6973517" lon="20.24588"><ele>2.0</ele><time>2026-05-02T16:25:53.88Z</time></trkpt><trkpt lat="54.6973617" lon="20.2460767"><ele>2.0</ele><time>2026-05-02T16:25:54.882Z</time></trkpt><trkpt lat="54.6973767" lon="20.24627"><ele>2.0</ele><time>2026-05-02T16:25:55.877Z</time></trkpt><trkpt lat="54.6973933" lon="20.2464633"><ele>2.0</ele><time>2026-05-02T16:25:56.876Z</time></trkpt><trkpt lat="54.6974133" lon="20.2466467"><ele>2.0</ele><time>2026-05-02T16:25:57.884Z</time></trkpt><trkpt lat="54.6974283" lon="20.24683"><ele>2.0</ele><time>2026-05-02T16:25:58.874Z</time></trkpt><trkpt lat="54.697445" lon="20.2470117"><ele>2.0</ele><time>2026-05-02T16:25:59.879Z</time></trkpt><trkpt lat="54.69746" lon="20.2471967"><ele>2.0</ele><time>2026-05-02T16:26:00.88Z</time></trkpt><trkpt lat="54.6974767" lon="20.2473833"><ele>2.0</ele><time>2026-05-02T16:26:01.875Z</time></trkpt><trkpt lat="54.6974867" lon="20.2475767"><ele>2.0</ele><time>2026-05-02T16:26:02.881Z</time></trkpt><trkpt lat="54.6975" lon="20.2477667"><ele>2.25</ele><time>2026-05-02T16:26:03.883Z</time></trkpt><trkpt lat="54.6975183" lon="20.2479583"><ele>2.5</ele><time>2026-05-02T16:26:04.877Z</time></trkpt><trkpt lat="54.6975317" lon="20.2481533"><ele>2.75</ele><time>2026-05-02T16:26:05.879Z</time></trkpt><trkpt lat="54.697545" lon="20.2483467"><ele>3.0</ele><time>2026-05-02T16:26:06.886Z</time></trkpt><trkpt lat="54.6975583" lon="20.24854"><ele>3.0</ele><time>2026-05-02T16:26:07.883Z</time></trkpt><trkpt lat="54.6975733" lon="20.2487333"><ele>3.0</ele><time>2026-05-02T16:26:08.882Z</time></trkpt><trkpt lat="54.697595" lon="20.24892"><ele>3.0</ele><time>2026-05-02T16:26:09.881Z</time></trkpt><trkpt lat="54.69762" lon="20.2491083"><ele>3.0</ele><time>2026-05-02T16:26:10.876Z</time></trkpt><trkpt lat="54.6976533" lon="20.2492917"><ele>3.0</ele><time>2026-05-02T16:26:11.88Z</time></trkpt><trkpt lat="54.6976933" lon="20.24947"><ele>3.0</ele><time>2026-05-02T16:26:12.886Z</time></trkpt><trkpt lat="54.6977367" lon="20.2496467"><ele>3.0</ele><time>2026-05-02T16:26:13.876Z</time></trkpt><trkpt lat="54.697785" lon="20.2498133"><ele>3.0</ele><time>2026-05-02T16:26:14.886Z</time></trkpt><trkpt lat="54.69783" lon="20.2499817"><ele>3.0</ele><time>2026-05-02T16:26:15.884Z</time></trkpt><trkpt lat="54.6978767" lon="20.2501617"><ele>3.0</ele><time>2026-05-02T16:26:16.875Z</time></trkpt><trkpt lat="54.69792" lon="20.250335"><ele>3.0</ele><time>2026-05-02T16:26:17.88Z</time></trkpt><trkpt lat="54.697965" lon="20.2505167"><ele>3.0</ele><time>2026-05-02T16:26:18.887Z</time></trkpt><trkpt lat="54.6980117" lon="20.2506917"><ele>3.0</ele><time>2026-05-02T16:26:19.875Z</time></trkpt><trkpt lat="54.6980633" lon="20.250875"><ele>3.0</ele><time>2026-05-02T16:26:20.89Z</time></trkpt><trkpt lat="54.6981133" lon="20.2510683"><ele>3.0</ele><time>2026-05-02T16:26:21.879Z</time></trkpt><trkpt lat="54.6981633" lon="20.2512583"><ele>3.0</ele><time>2026-05-02T16:26:22.875Z</time></trkpt><trkpt lat="54.698215" lon="20.2514567"><ele>3.0</ele><time>2026-05-02T16:26:23.883Z</time></trkpt><trkpt lat="54.69826" lon="20.2516533"><ele>3.0</ele><time>2026-05-02T16:26:24.879Z</time></trkpt><trkpt lat="54.6983033" lon="20.2518383"><ele>3.0</ele><time>2026-05-02T16:26:25.88Z</time></trkpt><trkpt lat="54.69835" lon="20.2520167"><ele>3.0</ele><time>2026-05-02T16:26:26.885Z</time></trkpt><trkpt lat="54.6983967" lon="20.2522"><ele>3.0</ele><time>2026-05-02T16:26:27.879Z</time></trkpt><trkpt lat="54.6984467" lon="20.252395"><ele>3.0</ele><time>2026-05-02T16:26:28.877Z</time></trkpt><trkpt lat="54.6984983" lon="20.2525933"><ele>3.0</ele><time>2026-05-02T16:26:29.88Z</time></trkpt><trkpt lat="54.69855" lon="20.2528083"><ele>3.0</ele><time>2026-05-02T16:26:30.876Z</time></trkpt><trkpt lat="54.69861" lon="20.253035"><ele>3.0</ele><time>2026-05-02T16:26:31.88Z</time></trkpt><trkpt lat="54.6986767" lon="20.253285"><ele>3.0</ele><time>2026-05-02T16:26:32.885Z</time></trkpt><trkpt lat="54.6987467" lon="20.2535533"><ele>2.6666666666666665</ele><time>2026-05-02T16:26:33.878Z</time></trkpt><trkpt lat="54.6988167" lon="20.2538333"><ele>2.333333333333333</ele><time>2026-05-02T16:26:34.883Z</time></trkpt><trkpt lat="54.698885" lon="20.2541233"><ele>2.0</ele><time>2026-05-02T16:26:35.884Z</time></trkpt><trkpt lat="54.6989583" lon="20.2544217"><ele>2.0</ele><time>2026-05-02T16:26:36.881Z</time></trkpt><trkpt lat="54.6990417" lon="20.254725"><ele>2.0</ele><time>2026-05-02T16:26:37.882Z</time></trkpt><trkpt lat="54.6991267" lon="20.2550417"><ele>2.0</ele><time>2026-05-02T16:26:38.89Z</time></trkpt><trkpt lat="54.699215" lon="20.255365"><ele>2.6666666666666665</ele><time>2026-05-02T16:26:39.887Z</time></trkpt><trkpt lat="54.699305" lon="20.2556917"><ele>3.333333333333333</ele><time>2026-05-02T16:26:40.88Z</time></trkpt><trkpt lat="54.6993883" lon="20.2560283"><ele>4.0</ele><time>2026-05-02T16:26:41.876Z</time></trkpt><trkpt lat="54.6994717" lon="20.2563767"><ele>5.0</ele><time>2026-05-02T16:26:42.882Z</time></trkpt><trkpt lat="54.6995583" lon="20.2567283"><ele>6.0</ele><time>2026-05-02T16:26:43.884Z</time></trkpt><trkpt lat="54.6996433" lon="20.25708"><ele>7.0</ele><time>2026-05-02T16:26:44.886Z</time></trkpt><trkpt lat="54.6997317" lon="20.257435"><ele>7.333333333333334</ele><time>2026-05-02T16:26:45.883Z</time></trkpt><trkpt lat="54.6998167" lon="20.2577917"><ele>7.666666666666666</ele><time>2026-05-02T16:26:46.874Z</time></trkpt><trkpt lat="54.6998983" lon="20.2581467"><ele>8.0</ele><time>2026-05-02T16:26:47.88Z</time></trkpt><trkpt lat="54.6999817" lon="20.25851"><ele>8.5</ele><time>2026-05-02T16:26:48.879Z</time></trkpt><trkpt lat="54.7000717" lon="20.25887"><ele>9.0</ele><time>2026-05-02T16:26:49.873Z</time></trkpt><trkpt lat="54.7001617" lon="20.2592233"><ele>9.5</ele><time>2026-05-02T16:26:50.874Z</time></trkpt><trkpt lat="54.70025" lon="20.25959"><ele>10.0</ele><time>2026-05-02T16:26:51.873Z</time></trkpt><trkpt lat="54.700345" lon="20.2599483"><ele>10.0</ele><time>2026-05-02T16:26:52.883Z</time></trkpt><trkpt lat="54.70044" lon="20.26031"><ele>10.0</ele><time>2026-05-02T16:26:53.878Z</time></trkpt><trkpt lat="54.7005317" lon="20.2606683"><ele>10.0</ele><time>2026-05-02T16:26:54.885Z</time></trkpt><trkpt lat="54.7006283" lon="20.2610233"><ele>10.0</ele><time>2026-05-02T16:26:55.879Z</time></trkpt><trkpt lat="54.7007217" lon="20.2613783"><ele>10.5</ele><time>2026-05-02T16:26:56.888Z</time></trkpt><trkpt lat="54.7008167" lon="20.26174"><ele>11.0</ele><time>2026-05-02T16:26:57.88Z</time></trkpt><trkpt lat="54.7009117" lon="20.2621033"><ele>11.0</ele><time>2026-05-02T16:26:58.883Z</time></trkpt><trkpt lat="54.7010083" lon="20.2624683"><ele>11.0</ele><time>2026-05-02T16:26:59.879Z</time></trkpt><trkpt lat="54.7011017" lon="20.2628233"><ele>10.0</ele><time>2026-05-02T16:27:00.884Z</time></trkpt><trkpt lat="54.7012" lon="20.263185"><ele>9.0</ele><time>2026-05-02T16:27:01.88Z</time></trkpt><trkpt lat="54.7013017" lon="20.2635433"><ele>9.0</ele><time>2026-05-02T16:27:02.88Z</time></trkpt><trkpt lat="54.7014033" lon="20.2638983"><ele>9.0</ele><time>2026-05-02T16:27:03.881Z</time></trkpt><trkpt lat="54.7015033" lon="20.2642517"><ele>9.0</ele><time>2026-05-02T16:27:04.879Z</time></trkpt><trkpt lat="54.7015983" lon="20.26462"><ele>9.0</ele><time>2026-05-02T16:27:05.881Z</time></trkpt><trkpt lat="54.7016983" lon="20.2649917"><ele>9.5</ele><time>2026-05-02T16:27:06.883Z</time></trkpt><trkpt lat="54.701795" lon="20.2653533"><ele>10.0</ele><time>2026-05-02T16:27:07.882Z</time></trkpt><trkpt lat="54.7018883" lon="20.265725"><ele>8.5</ele><time>2026-05-02T16:27:08.884Z</time></trkpt><trkpt lat="54.70198" lon="20.2661017"><ele>7.0</ele><time>2026-05-02T16:27:09.882Z</time></trkpt><trkpt lat="54.7020733" lon="20.266475"><ele>7.0</ele><time>2026-05-02T16:27:10.879Z</time></trkpt><trkpt lat="54.70217" lon="20.2668467"><ele>7.0</ele><time>2026-05-02T16:27:11.881Z</time></trkpt><trkpt lat="54.7022633" lon="20.26722"><ele>7.0</ele><time>2026-05-02T16:27:12.884Z</time></trkpt><trkpt lat="54.702375" lon="20.2675933"><ele>7.0</ele><time>2026-05-02T16:27:13.883Z</time></trkpt><trkpt lat="54.7024767" lon="20.2679633"><ele>6.0</ele><time>2026-05-02T16:27:14.887Z</time></trkpt><trkpt lat="54.7025683" lon="20.2683667"><ele>5.0</ele><time>2026-05-02T16:27:15.883Z</time></trkpt><trkpt lat="54.7026467" lon="20.2687717"><ele>5.0</ele><time>2026-05-02T16:27:16.877Z</time></trkpt><trkpt lat="54.7027183" lon="20.2691833"><ele>5.0</ele><time>2026-05-02T16:27:17.876Z</time></trkpt><trkpt lat="54.7027867" lon="20.2695833"><ele>5.5</ele><time>2026-05-02T16:27:18.885Z</time></trkpt><trkpt lat="54.7028517" lon="20.26999"><ele>6.0</ele><time>2026-05-02T16:27:19.88Z</time></trkpt><trkpt lat="54.7029167" lon="20.270395"><ele>6.5</ele><time>2026-05-02T16:27:20.886Z</time></trkpt><trkpt lat="54.7029817" lon="20.2708067"><ele>7.0</ele><time>2026-05-02T16:27:21.88Z</time></trkpt><trkpt lat="54.7030467" lon="20.2712117"><ele>8.0</ele><time>2026-05-02T16:27:22.88Z</time></trkpt><trkpt lat="54.70311" lon="20.2716133"><ele>9.0</ele><time>2026-05-02T16:27:23.888Z</time></trkpt><trkpt lat="54.7031717" lon="20.2720067"><ele>9.0</ele><time>2026-05-02T16:27:24.886Z</time></trkpt><trkpt lat="54.7032333" lon="20.2723967"><ele>9.0</ele><time>2026-05-02T16:27:25.883Z</time></trkpt><trkpt lat="54.7032933" lon="20.27278"><ele>9.5</ele><time>2026-05-02T16:27:26.875Z</time></trkpt><trkpt lat="54.7033483" lon="20.2731667"><ele>10.0</ele><time>2026-05-02T16:27:27.884Z</time></trkpt><trkpt lat="54.703405" lon="20.2735533"><ele>10.0</ele><time>2026-05-02T16:27:28.878Z</time></trkpt><trkpt lat="54.7034617" lon="20.2739383"><ele>10.0</ele><time>2026-05-02T16:27:29.874Z</time></trkpt><trkpt lat="54.7035217" lon="20.2743133"><ele>10.333333333333334</ele><time>2026-05-02T16:27:30.88Z</time></trkpt><trkpt lat="54.7035767" lon="20.2746817"><ele>10.666666666666666</ele><time>2026-05-02T16:27:31.88Z</time></trkpt><trkpt lat="54.70363" lon="20.2750367"><ele>11.0</ele><time>2026-05-02T16:27:32.885Z</time></trkpt><trkpt lat="54.7036833" lon="20.2753733"><ele>11.333333333333332</ele><time>2026-05-02T16:27:33.882Z</time></trkpt><trkpt lat="54.7037333" lon="20.27569"><ele>11.666666666666666</ele><time>2026-05-02T16:27:34.876Z</time></trkpt><trkpt lat="54.7037767" lon="20.2759833"><ele>12.0</ele><time>2026-05-02T16:27:35.882Z</time></trkpt><trkpt lat="54.703815" lon="20.2762467"><ele>12.0</ele><time>2026-05-02T16:27:36.88Z</time></trkpt><trkpt lat="54.70385" lon="20.2764867"><ele>12.0</ele><time>2026-05-02T16:27:37.884Z</time></trkpt><trkpt lat="54.703885" lon="20.2767017"><ele>12.0</ele><time>2026-05-02T16:27:38.88Z</time></trkpt><trkpt lat="54.703915" lon="20.2768867"><ele>12.0</ele><time>2026-05-02T16:27:39.881Z</time></trkpt><trkpt lat="54.7039433" lon="20.2770367"><ele>12.0</ele><time>2026-05-02T16:27:40.88Z</time></trkpt><trkpt lat="54.703965" lon="20.277175"><ele>12.0</ele><time>2026-05-02T16:27:41.88Z</time></trkpt><trkpt lat="54.703985" lon="20.2772917"><ele>12.0</ele><time>2026-05-02T16:27:42.883Z</time></trkpt><trkpt lat="54.70401" lon="20.2774133"><ele>12.0</ele><time>2026-05-02T16:27:43.883Z</time></trkpt><trkpt lat="54.70404" lon="20.2775517"><ele>12.0</ele><time>2026-05-02T16:27:44.881Z</time></trkpt><trkpt lat="54.70407" lon="20.2777167"><ele>12.0</ele><time>2026-05-02T16:27:45.878Z</time></trkpt><trkpt lat="54.7041033" lon="20.2779017"><ele>11.75</ele><time>2026-05-02T16:27:46.881Z</time></trkpt><trkpt lat="54.7041367" lon="20.2781133"><ele>11.5</ele><time>2026-05-02T16:27:47.883Z</time></trkpt><trkpt lat="54.7041717" lon="20.2783517"><ele>11.25</ele><time>2026-05-02T16:27:48.88Z</time></trkpt><trkpt lat="54.7042083" lon="20.2785883"><ele>11.0</ele><time>2026-05-02T16:27:49.88Z</time></trkpt><trkpt lat="54.70425" lon="20.2788367"><ele>11.0</ele><time>2026-05-02T16:27:50.885Z</time></trkpt><trkpt lat="54.7042883" lon="20.2790917"><ele>11.0</ele><time>2026-05-02T16:27:51.884Z</time></trkpt><trkpt lat="54.7043333" lon="20.2793433"><ele>11.0</ele><time>2026-05-02T16:27:52.878Z</time></trkpt><trkpt lat="54.7043733" lon="20.2796067"><ele>11.0</ele><time>2026-05-02T16:27:53.88Z</time></trkpt><trkpt lat="54.704425" lon="20.27987"><ele>11.0</ele><time>2026-05-02T16:27:54.883Z</time></trkpt><trkpt lat="54.7044717" lon="20.28015"><ele>11.0</ele><time>2026-05-02T16:27:55.882Z</time></trkpt><trkpt lat="54.7045183" lon="20.28044"><ele>11.666666666666666</ele><time>2026-05-02T16:27:56.884Z</time></trkpt><trkpt lat="54.704565" lon="20.280735"><ele>12.333333333333332</ele><time>2026-05-02T16:27:57.882Z</time></trkpt><trkpt lat="54.7046133" lon="20.2810267"><ele>13.0</ele><time>2026-05-02T16:27:58.883Z</time></trkpt><trkpt lat="54.7046667" lon="20.28131"><ele>13.0</ele><time>2026-05-02T16:27:59.882Z</time></trkpt><trkpt lat="54.70471" lon="20.281605"><ele>13.0</ele><time>2026-05-02T16:28:00.883Z</time></trkpt><trkpt lat="54.7047433" lon="20.281905"><ele>13.0</ele><time>2026-05-02T16:28:01.884Z</time></trkpt><trkpt lat="54.7047733" lon="20.282215"><ele>13.0</ele><time>2026-05-02T16:28:02.884Z</time></trkpt><trkpt lat="54.7047983" lon="20.2825233"><ele>13.0</ele><time>2026-05-02T16:28:03.881Z</time></trkpt><trkpt lat="54.7048083" lon="20.2828367"><ele>13.0</ele><time>2026-05-02T16:28:04.876Z</time></trkpt><trkpt lat="54.704805" lon="20.2831533"><ele>13.333333333333332</ele><time>2026-05-02T16:28:05.878Z</time></trkpt><trkpt lat="54.7047967" lon="20.2834733"><ele>13.666666666666668</ele><time>2026-05-02T16:28:06.877Z</time></trkpt><trkpt lat="54.7047867" lon="20.2837983"><ele>14.0</ele><time>2026-05-02T16:28:07.881Z</time></trkpt><trkpt lat="54.7047783" lon="20.284125"><ele>14.0</ele><time>2026-05-02T16:28:08.883Z</time></trkpt><trkpt lat="54.7047767" lon="20.2844667"><ele>14.0</ele><time>2026-05-02T16:28:09.882Z</time></trkpt><trkpt lat="54.704765" lon="20.28481"><ele>14.0</ele><time>2026-05-02T16:28:10.879Z</time></trkpt><trkpt lat="54.7047567" lon="20.2851467"><ele>13.333333333333334</ele><time>2026-05-02T16:28:11.881Z</time></trkpt><trkpt lat="54.7047583" lon="20.2854767"><ele>12.666666666666668</ele><time>2026-05-02T16:28:12.879Z</time></trkpt><trkpt lat="54.704755" lon="20.2857983"><ele>12.0</ele><time>2026-05-02T16:28:13.881Z</time></trkpt><trkpt lat="54.70475" lon="20.2861117"><ele>11.666666666666666</ele><time>2026-05-02T16:28:14.879Z</time></trkpt><trkpt lat="54.704735" lon="20.2864083"><ele>11.333333333333332</ele><time>2026-05-02T16:28:15.882Z</time></trkpt><trkpt lat="54.70472" lon="20.2867"><ele>11.0</ele><time>2026-05-02T16:28:16.877Z</time></trkpt><trkpt lat="54.7047" lon="20.2869833"><ele>12.0</ele><time>2026-05-02T16:28:17.879Z</time></trkpt><trkpt lat="54.7046933" lon="20.2872633"><ele>13.0</ele><time>2026-05-02T16:28:18.884Z</time></trkpt><trkpt lat="54.7046883" lon="20.2875383"><ele>14.0</ele><time>2026-05-02T16:28:19.882Z</time></trkpt><trkpt lat="54.7046833" lon="20.287805"><ele>14.0</ele><time>2026-05-02T16:28:20.887Z</time></trkpt><trkpt lat="54.704675" lon="20.2880533"><ele>14.0</ele><time>2026-05-02T16:28:21.88Z</time></trkpt><trkpt lat="54.704675" lon="20.2883033"><ele>14.0</ele><time>2026-05-02T16:28:22.884Z</time></trkpt><trkpt lat="54.7046733" lon="20.288535"><ele>14.0</ele><time>2026-05-02T16:28:23.875Z</time></trkpt><trkpt lat="54.70469" lon="20.28875"><ele>13.6</ele><time>2026-05-02T16:28:24.881Z</time></trkpt><trkpt lat="54.7046883" lon="20.2889333"><ele>13.2</ele><time>2026-05-02T16:28:25.884Z</time></trkpt><trkpt lat="54.7046883" lon="20.2891033"><ele>12.799999999999999</ele><time>2026-05-02T16:28:26.885Z</time></trkpt><trkpt lat="54.7047" lon="20.2892583"><ele>12.399999999999999</ele><time>2026-05-02T16:28:27.884Z</time></trkpt><trkpt lat="54.7047017" lon="20.2893833"><ele>12.0</ele><time>2026-05-02T16:28:28.88Z</time></trkpt><trkpt lat="54.704705" lon="20.28955"><ele>12.0</ele><time>2026-05-02T16:28:30.886Z</time></trkpt><trkpt lat="54.7047117" lon="20.2896867"><ele>12.0</ele><time>2026-05-02T16:28:32.883Z</time></trkpt><trkpt lat="54.7047283" lon="20.2898233"><ele>12.0</ele><time>2026-05-02T16:28:34.884Z</time></trkpt><trkpt lat="54.70473" lon="20.2900067"><ele>12.0</ele><time>2026-05-02T16:28:36.878Z</time></trkpt><trkpt lat="54.7047267" lon="20.2901333"><ele>12.0</ele><time>2026-05-02T16:28:37.879Z</time></trkpt><trkpt lat="54.70473" lon="20.2903"><ele>12.0</ele><time>2026-05-02T16:28:38.882Z</time></trkpt><trkpt lat="54.704725" lon="20.2904883"><ele>12.25</ele><time>2026-05-02T16:28:39.883Z</time></trkpt><trkpt lat="54.7047233" lon="20.290675"><ele>12.5</ele><time>2026-05-02T16:28:40.884Z</time></trkpt><trkpt lat="54.7047283" lon="20.2908533"><ele>12.75</ele><time>2026-05-02T16:28:41.885Z</time></trkpt><trkpt lat="54.7047283" lon="20.2910533"><ele>13.0</ele><time>2026-05-02T16:28:42.879Z</time></trkpt><trkpt lat="54.7047283" lon="20.2912667"><ele>12.5</ele><time>2026-05-02T16:28:43.884Z</time></trkpt><trkpt lat="54.7047283" lon="20.2914917"><ele>12.0</ele><time>2026-05-02T16:28:44.886Z</time></trkpt><trkpt lat="54.7047267" lon="20.2917267"><ele>11.5</ele><time>2026-05-02T16:28:45.882Z</time></trkpt><trkpt lat="54.7047217" lon="20.2919567"><ele>11.0</ele><time>2026-05-02T16:28:46.879Z</time></trkpt><trkpt lat="54.70472" lon="20.2921983"><ele>11.0</ele><time>2026-05-02T16:28:47.884Z</time></trkpt><trkpt lat="54.7047117" lon="20.2924567"><ele>11.0</ele><time>2026-05-02T16:28:48.882Z</time></trkpt><trkpt lat="54.7047117" lon="20.29272"><ele>11.0</ele><time>2026-05-02T16:28:49.882Z</time></trkpt><trkpt lat="54.7047117" lon="20.2929917"><ele>11.0</ele><time>2026-05-02T16:28:50.882Z</time></trkpt><trkpt lat="54.7047067" lon="20.2932833"><ele>11.0</ele><time>2026-05-02T16:28:51.885Z</time></trkpt><trkpt lat="54.7047033" lon="20.293575"><ele>11.0</ele><time>2026-05-02T16:28:52.878Z</time></trkpt><trkpt lat="54.7047033" lon="20.2938633"><ele>11.0</ele><time>2026-05-02T16:28:53.879Z</time></trkpt><trkpt lat="54.7046933" lon="20.2941617"><ele>11.0</ele><time>2026-05-02T16:28:54.887Z</time></trkpt><trkpt lat="54.7046917" lon="20.2944633"><ele>11.0</ele><time>2026-05-02T16:28:55.881Z</time></trkpt><trkpt lat="54.7046967" lon="20.294765"><ele>11.333333333333332</ele><time>2026-05-02T16:28:56.88Z</time></trkpt><trkpt lat="54.7046933" lon="20.295075"><ele>11.666666666666666</ele><time>2026-05-02T16:28:57.869Z</time></trkpt><trkpt lat="54.704695" lon="20.2953833"><ele>12.0</ele><time>2026-05-02T16:28:58.873Z</time></trkpt><trkpt lat="54.7046967" lon="20.29569"><ele>12.0</ele><time>2026-05-02T16:28:59.873Z</time></trkpt><trkpt lat="54.7047017" lon="20.2959933"><ele>12.0</ele><time>2026-05-02T16:29:00.872Z</time></trkpt><trkpt lat="54.70471" lon="20.2962983"><ele>12.0</ele><time>2026-05-02T16:29:01.879Z</time></trkpt><trkpt lat="54.7047117" lon="20.2966117"><ele>12.333333333333332</ele><time>2026-05-02T16:29:02.886Z</time></trkpt><trkpt lat="54.7047083" lon="20.29693"><ele>12.666666666666666</ele><time>2026-05-02T16:29:03.87Z</time></trkpt><trkpt lat="54.7047117" lon="20.29724"><ele>13.0</ele><time>2026-05-02T16:29:04.876Z</time></trkpt><trkpt lat="54.7047183" lon="20.2975517"><ele>13.333333333333332</ele><time>2026-05-02T16:29:05.881Z</time></trkpt><trkpt lat="54.7047217" lon="20.2978583"><ele>13.666666666666668</ele><time>2026-05-02T16:29:06.876Z</time></trkpt><trkpt lat="54.7047233" lon="20.2981517"><ele>14.0</ele><time>2026-05-02T16:29:07.877Z</time></trkpt><trkpt lat="54.7047183" lon="20.298445"><ele>14.0</ele><time>2026-05-02T16:29:08.88Z</time></trkpt><trkpt lat="54.704715" lon="20.2987483"><ele>14.0</ele><time>2026-05-02T16:29:09.88Z</time></trkpt><trkpt lat="54.7047183" lon="20.299045"><ele>14.0</ele><time>2026-05-02T16:29:10.881Z</time></trkpt><trkpt lat="54.70472" lon="20.2993467"><ele>13.666666666666668</ele><time>2026-05-02T16:29:11.884Z</time></trkpt><trkpt lat="54.70472" lon="20.299655"><ele>13.333333333333332</ele><time>2026-05-02T16:29:12.881Z</time></trkpt><trkpt lat="54.704725" lon="20.299965"><ele>13.0</ele><time>2026-05-02T16:29:13.876Z</time></trkpt><trkpt lat="54.7047183" lon="20.3002767"><ele>12.666666666666666</ele><time>2026-05-02T16:29:14.883Z</time></trkpt><trkpt lat="54.704715" lon="20.3005767"><ele>12.333333333333332</ele><time>2026-05-02T16:29:15.874Z</time></trkpt><trkpt lat="54.704715" lon="20.3008733"><ele>12.0</ele><time>2026-05-02T16:29:16.883Z</time></trkpt><trkpt lat="54.7047167" lon="20.30118"><ele>12.666666666666668</ele><time>2026-05-02T16:29:17.886Z</time></trkpt><trkpt lat="54.7047183" lon="20.3014917"><ele>13.333333333333334</ele><time>2026-05-02T16:29:18.88Z</time></trkpt><trkpt lat="54.7047283" lon="20.3018"><ele>14.0</ele><time>2026-05-02T16:29:19.881Z</time></trkpt><trkpt lat="54.7047483" lon="20.3021117"><ele>13.666666666666668</ele><time>2026-05-02T16:29:20.883Z</time></trkpt><trkpt lat="54.7048" lon="20.3024067"><ele>13.333333333333332</ele><time>2026-05-02T16:29:21.88Z</time></trkpt><trkpt lat="54.70485" lon="20.30272"><ele>13.0</ele><time>2026-05-02T16:29:22.881Z</time></trkpt><trkpt lat="54.704905" lon="20.3030283"><ele>13.0</ele><time>2026-05-02T16:29:23.88Z</time></trkpt><trkpt lat="54.7049633" lon="20.3033467"><ele>13.0</ele><time>2026-05-02T16:29:24.877Z</time></trkpt><trkpt lat="54.70502" lon="20.30367"><ele>13.0</ele><time>2026-05-02T16:29:25.878Z</time></trkpt><trkpt lat="54.7050917" lon="20.3039933"><ele>13.0</ele><time>2026-05-02T16:29:26.883Z</time></trkpt><trkpt lat="54.705165" lon="20.3043283"><ele>13.0</ele><time>2026-05-02T16:29:27.878Z</time></trkpt><trkpt lat="54.7052417" lon="20.304675"><ele>13.0</ele><time>2026-05-02T16:29:28.876Z</time></trkpt><trkpt lat="54.7053133" lon="20.3050283"><ele>13.0</ele><time>2026-05-02T16:29:29.876Z</time></trkpt><trkpt lat="54.7053883" lon="20.3053833"><ele>13.0</ele><time>2026-05-02T16:29:30.882Z</time></trkpt><trkpt lat="54.705455" lon="20.3057417"><ele>13.0</ele><time>2026-05-02T16:29:31.886Z</time></trkpt><trkpt lat="54.7055217" lon="20.306095"><ele>12.666666666666666</ele><time>2026-05-02T16:29:32.884Z</time></trkpt><trkpt lat="54.7055867" lon="20.3064533"><ele>12.333333333333332</ele><time>2026-05-02T16:29:33.882Z</time></trkpt><trkpt lat="54.705655" lon="20.3068033"><ele>12.0</ele><time>2026-05-02T16:29:34.886Z</time></trkpt><trkpt lat="54.7057167" lon="20.3071667"><ele>12.0</ele><time>2026-05-02T16:29:35.884Z</time></trkpt><trkpt lat="54.7057817" lon="20.3075167"><ele>12.0</ele><time>2026-05-02T16:29:36.88Z</time></trkpt><trkpt lat="54.705845" lon="20.3078783"><ele>12.0</ele><time>2026-05-02T16:29:37.883Z</time></trkpt><trkpt lat="54.7059133" lon="20.3082233"><ele>12.0</ele><time>2026-05-02T16:29:38.882Z</time></trkpt><trkpt lat="54.7059717" lon="20.30857"><ele>12.0</ele><time>2026-05-02T16:29:39.889Z</time></trkpt><trkpt lat="54.7060317" lon="20.3089183"><ele>12.0</ele><time>2026-05-02T16:29:40.879Z</time></trkpt><trkpt lat="54.7060883" lon="20.30926"><ele>12.333333333333332</ele><time>2026-05-02T16:29:41.879Z</time></trkpt><trkpt lat="54.7061433" lon="20.3095983"><ele>12.666666666666666</ele><time>2026-05-02T16:29:42.886Z</time></trkpt><trkpt lat="54.7062017" lon="20.30993"><ele>13.0</ele><time>2026-05-02T16:29:43.885Z</time></trkpt><trkpt lat="54.7062617" lon="20.3102567"><ele>13.0</ele><time>2026-05-02T16:29:44.887Z</time></trkpt><trkpt lat="54.7063267" lon="20.310565"><ele>13.0</ele><time>2026-05-02T16:29:45.882Z</time></trkpt><trkpt lat="54.7063833" lon="20.3108667"><ele>13.0</ele><time>2026-05-02T16:29:46.877Z</time></trkpt><trkpt lat="54.7064383" lon="20.31114"><ele>12.666666666666666</ele><time>2026-05-02T16:29:47.879Z</time></trkpt><trkpt lat="54.706495" lon="20.3114"><ele>12.333333333333332</ele><time>2026-05-02T16:29:48.879Z</time></trkpt><trkpt lat="54.7065533" lon="20.3116483"><ele>12.0</ele><time>2026-05-02T16:29:49.885Z</time></trkpt><trkpt lat="54.7066183" lon="20.3118983"><ele>12.0</ele><time>2026-05-02T16:29:50.88Z</time></trkpt><trkpt lat="54.7066767" lon="20.3121483"><ele>12.0</ele><time>2026-05-02T16:29:51.882Z</time></trkpt><trkpt lat="54.7067383" lon="20.3123967"><ele>12.0</ele><time>2026-05-02T16:29:52.885Z</time></trkpt><trkpt lat="54.7067967" lon="20.3126417"><ele>12.0</ele><time>2026-05-02T16:29:53.884Z</time></trkpt><trkpt lat="54.706845" lon="20.312905"><ele>12.0</ele><time>2026-05-02T16:29:54.882Z</time></trkpt><trkpt lat="54.706885" lon="20.3131833"><ele>12.0</ele><time>2026-05-02T16:29:55.879Z</time></trkpt><trkpt lat="54.7069067" lon="20.3134683"><ele>12.0</ele><time>2026-05-02T16:29:56.881Z</time></trkpt><trkpt lat="54.7069167" lon="20.3137483"><ele>12.0</ele><time>2026-05-02T16:29:57.884Z</time></trkpt><trkpt lat="54.70691" lon="20.31402"><ele>12.0</ele><time>2026-05-02T16:29:58.873Z</time></trkpt><trkpt lat="54.7068883" lon="20.31429"><ele>11.666666666666666</ele><time>2026-05-02T16:29:59.878Z</time></trkpt><trkpt lat="54.706875" lon="20.3145533"><ele>11.333333333333332</ele><time>2026-05-02T16:30:00.88Z</time></trkpt><trkpt lat="54.7068717" lon="20.31482"><ele>11.0</ele><time>2026-05-02T16:30:01.88Z</time></trkpt><trkpt lat="54.7068767" lon="20.3150933"><ele>11.0</ele><time>2026-05-02T16:30:02.884Z</time></trkpt><trkpt lat="54.7069017" lon="20.3153667"><ele>11.0</ele><time>2026-05-02T16:30:03.883Z</time></trkpt><trkpt lat="54.7069483" lon="20.3156317"><ele>11.0</ele><time>2026-05-02T16:30:04.883Z</time></trkpt><trkpt lat="54.7070017" lon="20.3159"><ele>11.0</ele><time>2026-05-02T16:30:05.885Z</time></trkpt><trkpt lat="54.7070717" lon="20.316145"><ele>11.0</ele><time>2026-05-02T16:30:06.88Z</time></trkpt><trkpt lat="54.707155" lon="20.31637"><ele>11.0</ele><time>2026-05-02T16:30:07.875Z</time></trkpt><trkpt lat="54.70724" lon="20.3165967"><ele>11.0</ele><time>2026-05-02T16:30:08.881Z</time></trkpt><trkpt lat="54.70732" lon="20.31682"><ele>11.0</ele><time>2026-05-02T16:30:09.883Z</time></trkpt><trkpt lat="54.7074017" lon="20.3170367"><ele>11.0</ele><time>2026-05-02T16:30:10.885Z</time></trkpt><trkpt lat="54.7074867" lon="20.3172517"><ele>11.25</ele><time>2026-05-02T16:30:11.881Z</time></trkpt><trkpt lat="54.7075683" lon="20.31745"><ele>11.5</ele><time>2026-05-02T16:30:12.883Z</time></trkpt><trkpt lat="54.7076517" lon="20.3176467"><ele>11.75</ele><time>2026-05-02T16:30:13.881Z</time></trkpt><trkpt lat="54.7077283" lon="20.3178383"><ele>12.0</ele><time>2026-05-02T16:30:14.884Z</time></trkpt><trkpt lat="54.707805" lon="20.3180283"><ele>12.5</ele><time>2026-05-02T16:30:15.88Z</time></trkpt><trkpt lat="54.70788" lon="20.318225"><ele>13.0</ele><time>2026-05-02T16:30:16.881Z</time></trkpt><trkpt lat="54.7079583" lon="20.3184167"><ele>13.5</ele><time>2026-05-02T16:30:17.878Z</time></trkpt><trkpt lat="54.7080333" lon="20.3186233"><ele>14.0</ele><time>2026-05-02T16:30:18.885Z</time></trkpt><trkpt lat="54.7081167" lon="20.3188383"><ele>14.0</ele><time>2026-05-02T16:30:19.889Z</time></trkpt><trkpt lat="54.7081983" lon="20.3190517"><ele>14.0</ele><time>2026-05-02T16:30:20.88Z</time></trkpt><trkpt lat="54.70828" lon="20.3192683"><ele>14.0</ele><time>2026-05-02T16:30:21.875Z</time></trkpt><trkpt lat="54.708365" lon="20.3194783"><ele>14.0</ele><time>2026-05-02T16:30:22.879Z</time></trkpt><trkpt lat="54.708445" lon="20.3196983"><ele>14.0</ele><time>2026-05-02T16:30:23.879Z</time></trkpt><trkpt lat="54.7085217" lon="20.3199433"><ele>14.0</ele><time>2026-05-02T16:30:24.885Z</time></trkpt><trkpt lat="54.7086033" lon="20.320175"><ele>14.0</ele><time>2026-05-02T16:30:25.881Z</time></trkpt><trkpt lat="54.70869" lon="20.3204033"><ele>13.666666666666668</ele><time>2026-05-02T16:30:26.88Z</time></trkpt><trkpt lat="54.708785" lon="20.3206567"><ele>13.333333333333332</ele><time>2026-05-02T16:30:27.876Z</time></trkpt><trkpt lat="54.70887" lon="20.3208983"><ele>13.0</ele><time>2026-05-02T16:30:28.874Z</time></trkpt><trkpt lat="54.7089583" lon="20.321125"><ele>13.0</ele><time>2026-05-02T16:30:29.879Z</time></trkpt><trkpt lat="54.709045" lon="20.32135"><ele>13.0</ele><time>2026-05-02T16:30:30.88Z</time></trkpt><trkpt lat="54.7091267" lon="20.3215817"><ele>13.0</ele><time>2026-05-02T16:30:31.878Z</time></trkpt><trkpt lat="54.7092067" lon="20.321825"><ele>12.666666666666666</ele><time>2026-05-02T16:30:32.883Z</time></trkpt><trkpt lat="54.7092817" lon="20.3220767"><ele>12.333333333333332</ele><time>2026-05-02T16:30:33.882Z</time></trkpt><trkpt lat="54.7093517" lon="20.3223267"><ele>12.0</ele><time>2026-05-02T16:30:34.881Z</time></trkpt><trkpt lat="54.7094133" lon="20.322595"><ele>11.666666666666666</ele><time>2026-05-02T16:30:35.88Z</time></trkpt><trkpt lat="54.7094633" lon="20.322865"><ele>11.333333333333332</ele><time>2026-05-02T16:30:36.878Z</time></trkpt><trkpt lat="54.7095033" lon="20.3231467"><ele>11.0</ele><time>2026-05-02T16:30:37.881Z</time></trkpt><trkpt lat="54.70954" lon="20.32342"><ele>10.5</ele><time>2026-05-02T16:30:38.877Z</time></trkpt><trkpt lat="54.709565" lon="20.3236833"><ele>10.0</ele><time>2026-05-02T16:30:39.88Z</time></trkpt><trkpt lat="54.7095817" lon="20.3239233"><ele>9.5</ele><time>2026-05-02T16:30:40.878Z</time></trkpt><trkpt lat="54.7095967" lon="20.3241533"><ele>9.0</ele><time>2026-05-02T16:30:41.88Z</time></trkpt><trkpt lat="54.7096017" lon="20.3243717"><ele>9.0</ele><time>2026-05-02T16:30:42.882Z</time></trkpt><trkpt lat="54.7096117" lon="20.3245767"><ele>9.0</ele><time>2026-05-02T16:30:43.884Z</time></trkpt><trkpt lat="54.7096233" lon="20.3247717"><ele>9.0</ele><time>2026-05-02T16:30:44.884Z</time></trkpt><trkpt lat="54.7096317" lon="20.3249567"><ele>9.0</ele><time>2026-05-02T16:30:45.88Z</time></trkpt><trkpt lat="54.7096417" lon="20.3251333"><ele>9.0</ele><time>2026-05-02T16:30:46.882Z</time></trkpt><trkpt lat="54.7096483" lon="20.3253083"><ele>8.833333333333334</ele><time>2026-05-02T16:30:47.882Z</time></trkpt><trkpt lat="54.709655" lon="20.3254683"><ele>8.666666666666666</ele><time>2026-05-02T16:30:48.882Z</time></trkpt><trkpt lat="54.709665" lon="20.3256133"><ele>8.5</ele><time>2026-05-02T16:30:49.878Z</time></trkpt><trkpt lat="54.7096783" lon="20.3257367"><ele>8.333333333333332</ele><time>2026-05-02T16:30:50.881Z</time></trkpt><trkpt lat="54.7096867" lon="20.3258533"><ele>8.166666666666666</ele><time>2026-05-02T16:30:51.884Z</time></trkpt><trkpt lat="54.70969" lon="20.3260517"><ele>8.0</ele><time>2026-05-02T16:30:53.878Z</time></trkpt><trkpt lat="54.7096967" lon="20.3262267"><ele>8.333333333333332</ele><time>2026-05-02T16:30:55.88Z</time></trkpt><trkpt lat="54.7097117" lon="20.3263733"><ele>8.666666666666666</ele><time>2026-05-02T16:30:57.882Z</time></trkpt><trkpt lat="54.7097333" lon="20.326545"><ele>9.0</ele><time>2026-05-02T16:30:59.884Z</time></trkpt><trkpt lat="54.7097433" lon="20.3266533"><ele>9.333333333333334</ele><time>2026-05-02T16:31:00.883Z</time></trkpt><trkpt lat="54.7097567" lon="20.3267833"><ele>9.666666666666668</ele><time>2026-05-02T16:31:01.885Z</time></trkpt><trkpt lat="54.7097683" lon="20.3269367"><ele>10.0</ele><time>2026-05-02T16:31:02.883Z</time></trkpt><trkpt lat="54.709785" lon="20.3271317"><ele>11.25</ele><time>2026-05-02T16:31:03.883Z</time></trkpt><trkpt lat="54.7098283" lon="20.327385"><ele>12.5</ele><time>2026-05-02T16:31:04.879Z</time></trkpt><trkpt lat="54.70986" lon="20.327625"><ele>13.75</ele><time>2026-05-02T16:31:05.883Z</time></trkpt><trkpt lat="54.7098933" lon="20.3278567"><ele>15.0</ele><time>2026-05-02T16:31:06.884Z</time></trkpt><trkpt lat="54.70993" lon="20.3280917"><ele>15.333333333333332</ele><time>2026-05-02T16:31:07.881Z</time></trkpt><trkpt lat="54.70997" lon="20.32834"><ele>15.666666666666666</ele><time>2026-05-02T16:31:08.883Z</time></trkpt><trkpt lat="54.7100033" lon="20.3285883"><ele>16.0</ele><time>2026-05-02T16:31:09.886Z</time></trkpt><trkpt lat="54.71003" lon="20.32885"><ele>17.0</ele><time>2026-05-02T16:31:10.881Z</time></trkpt><trkpt lat="54.7100617" lon="20.3291017"><ele>18.0</ele><time>2026-05-02T16:31:11.877Z</time></trkpt><trkpt lat="54.7100917" lon="20.32937"><ele>19.0</ele><time>2026-05-02T16:31:12.882Z</time></trkpt><trkpt lat="54.71012" lon="20.329625"><ele>19.0</ele><time>2026-05-02T16:31:13.882Z</time></trkpt><trkpt lat="54.7101483" lon="20.3298917"><ele>19.0</ele><time>2026-05-02T16:31:14.881Z</time></trkpt><trkpt lat="54.71018" lon="20.33017"><ele>19.0</ele><time>2026-05-02T16:31:15.883Z</time></trkpt><trkpt lat="54.7102133" lon="20.3304517"><ele>19.0</ele><time>2026-05-02T16:31:16.887Z</time></trkpt><trkpt lat="54.710245" lon="20.3307433"><ele>19.0</ele><time>2026-05-02T16:31:17.88Z</time></trkpt><trkpt lat="54.7102733" lon="20.3310417"><ele>19.0</ele><time>2026-05-02T16:31:18.885Z</time></trkpt><trkpt lat="54.710305" lon="20.33134"><ele>19.0</ele><time>2026-05-02T16:31:19.883Z</time></trkpt><trkpt lat="54.7103417" lon="20.33165"><ele>19.0</ele><time>2026-05-02T16:31:20.882Z</time></trkpt><trkpt lat="54.71039" lon="20.3319533"><ele>19.0</ele><time>2026-05-02T16:31:21.879Z</time></trkpt><trkpt lat="54.7104367" lon="20.3322567"><ele>18.0</ele><time>2026-05-02T16:31:22.883Z</time></trkpt><trkpt lat="54.710485" lon="20.33256"><ele>17.0</ele><time>2026-05-02T16:31:23.879Z</time></trkpt><trkpt lat="54.7105333" lon="20.3328667"><ele>16.0</ele><time>2026-05-02T16:31:24.888Z</time></trkpt><trkpt lat="54.710585" lon="20.33318"><ele>15.333333333333332</ele><time>2026-05-02T16:31:25.882Z</time></trkpt><trkpt lat="54.7106383" lon="20.3334867"><ele>14.666666666666668</ele><time>2026-05-02T16:31:26.882Z</time></trkpt><trkpt lat="54.7106983" lon="20.33379"><ele>14.0</ele><time>2026-05-02T16:31:27.881Z</time></trkpt><trkpt lat="54.710755" lon="20.3341033"><ele>14.0</ele><time>2026-05-02T16:31:28.884Z</time></trkpt><trkpt lat="54.71081" lon="20.3344083"><ele>14.0</ele><time>2026-05-02T16:31:29.881Z</time></trkpt><trkpt lat="54.7108617" lon="20.3347117"><ele>14.0</ele><time>2026-05-02T16:31:30.882Z</time></trkpt><trkpt lat="54.7109217" lon="20.3349933"><ele>14.0</ele><time>2026-05-02T16:31:31.881Z</time></trkpt><trkpt lat="54.7109783" lon="20.3352533"><ele>14.0</ele><time>2026-05-02T16:31:32.883Z</time></trkpt><trkpt lat="54.7110317" lon="20.3355133"><ele>14.0</ele><time>2026-05-02T16:31:33.88Z</time></trkpt><trkpt lat="54.7110767" lon="20.3357767"><ele>11.666666666666668</ele><time>2026-05-02T16:31:34.877Z</time></trkpt><trkpt lat="54.7111217" lon="20.3360317"><ele>9.333333333333334</ele><time>2026-05-02T16:31:35.879Z</time></trkpt><trkpt lat="54.7111683" lon="20.336285"><ele>7.0</ele><time>2026-05-02T16:31:36.877Z</time></trkpt><trkpt lat="54.711215" lon="20.336535"><ele>7.0</ele><time>2026-05-02T16:31:37.882Z</time></trkpt><trkpt lat="54.711265" lon="20.3367917"><ele>7.0</ele><time>2026-05-02T16:31:38.882Z</time></trkpt><trkpt lat="54.71131" lon="20.3370467"><ele>7.0</ele><time>2026-05-02T16:31:39.888Z</time></trkpt><trkpt lat="54.7113583" lon="20.3372917"><ele>8.0</ele><time>2026-05-02T16:31:40.879Z</time></trkpt><trkpt lat="54.7114083" lon="20.3375467"><ele>9.0</ele><time>2026-05-02T16:31:41.882Z</time></trkpt><trkpt lat="54.7114633" lon="20.3377917"><ele>10.0</ele><time>2026-05-02T16:31:42.882Z</time></trkpt><trkpt lat="54.7115233" lon="20.3380367"><ele>11.0</ele><time>2026-05-02T16:31:43.877Z</time></trkpt><trkpt lat="54.7115867" lon="20.3382817"><ele>12.0</ele><time>2026-05-02T16:31:44.884Z</time></trkpt><trkpt lat="54.71165" lon="20.3385267"><ele>13.0</ele><time>2026-05-02T16:31:45.876Z</time></trkpt><trkpt lat="54.7117167" lon="20.3387667"><ele>12.333333333333332</ele><time>2026-05-02T16:31:46.87Z</time></trkpt><trkpt lat="54.7117817" lon="20.339005"><ele>11.666666666666666</ele><time>2026-05-02T16:31:47.878Z</time></trkpt><trkpt lat="54.71185" lon="20.3392317"><ele>11.0</ele><time>2026-05-02T16:31:48.873Z</time></trkpt><trkpt lat="54.711925" lon="20.339465"><ele>9.666666666666666</ele><time>2026-05-02T16:31:49.883Z</time></trkpt><trkpt lat="54.711995" lon="20.33971"><ele>8.333333333333334</ele><time>2026-05-02T16:31:50.877Z</time></trkpt><trkpt lat="54.712065" lon="20.3399583"><ele>7.0</ele><time>2026-05-02T16:31:51.878Z</time></trkpt><trkpt lat="54.7121367" lon="20.3402133"><ele>7.0</ele><time>2026-05-02T16:31:52.88Z</time></trkpt><trkpt lat="54.7122083" lon="20.34047"><ele>7.0</ele><time>2026-05-02T16:31:53.878Z</time></trkpt><trkpt lat="54.71228" lon="20.3407333"><ele>7.0</ele><time>2026-05-02T16:31:54.877Z</time></trkpt><trkpt lat="54.712345" lon="20.341005"><ele>7.333333333333334</ele><time>2026-05-02T16:31:55.88Z</time></trkpt><trkpt lat="54.7124067" lon="20.34129"><ele>7.666666666666666</ele><time>2026-05-02T16:31:56.88Z</time></trkpt><trkpt lat="54.7124633" lon="20.34157"><ele>8.0</ele><time>2026-05-02T16:31:57.877Z</time></trkpt><trkpt lat="54.7125183" lon="20.3418533"><ele>8.333333333333332</ele><time>2026-05-02T16:31:58.884Z</time></trkpt><trkpt lat="54.712575" lon="20.3421383"><ele>8.666666666666666</ele><time>2026-05-02T16:31:59.874Z</time></trkpt><trkpt lat="54.71263" lon="20.3424267"><ele>9.0</ele><time>2026-05-02T16:32:00.881Z</time></trkpt><trkpt lat="54.7126867" lon="20.3427117"><ele>9.333333333333334</ele><time>2026-05-02T16:32:01.879Z</time></trkpt><trkpt lat="54.7127367" lon="20.343"><ele>9.666666666666668</ele><time>2026-05-02T16:32:02.881Z</time></trkpt><trkpt lat="54.71279" lon="20.3432933"><ele>10.0</ele><time>2026-05-02T16:32:03.875Z</time></trkpt><trkpt lat="54.7128433" lon="20.3435967"><ele>11.333333333333334</ele><time>2026-05-02T16:32:04.88Z</time></trkpt><trkpt lat="54.7128917" lon="20.3439"><ele>12.666666666666668</ele><time>2026-05-02T16:32:05.875Z</time></trkpt><trkpt lat="54.712935" lon="20.3442117"><ele>14.0</ele><time>2026-05-02T16:32:06.873Z</time></trkpt><trkpt lat="54.7129717" lon="20.3445467"><ele>13.666666666666668</ele><time>2026-05-02T16:32:07.875Z</time></trkpt><trkpt lat="54.713005" lon="20.3448833"><ele>13.333333333333332</ele><time>2026-05-02T16:32:08.876Z</time></trkpt><trkpt lat="54.7130367" lon="20.3452283"><ele>13.0</ele><time>2026-05-02T16:32:09.881Z</time></trkpt><trkpt lat="54.7130683" lon="20.3455717"><ele>13.0</ele><time>2026-05-02T16:32:10.876Z</time></trkpt><trkpt lat="54.7130867" lon="20.345905"><ele>13.0</ele><time>2026-05-02T16:32:11.879Z</time></trkpt><trkpt lat="54.713105" lon="20.3462267"><ele>13.0</ele><time>2026-05-02T16:32:12.879Z</time></trkpt><trkpt lat="54.7131167" lon="20.3465417"><ele>13.0</ele><time>2026-05-02T16:32:13.875Z</time></trkpt><trkpt lat="54.7131183" lon="20.3468467"><ele>13.0</ele><time>2026-05-02T16:32:14.88Z</time></trkpt><trkpt lat="54.7131417" lon="20.3471333"><ele>13.0</ele><time>2026-05-02T16:32:15.881Z</time></trkpt><trkpt lat="54.7131467" lon="20.34743"><ele>13.0</ele><time>2026-05-02T16:32:16.881Z</time></trkpt><trkpt lat="54.7131617" lon="20.34773"><ele>13.0</ele><time>2026-05-02T16:32:17.876Z</time></trkpt><trkpt lat="54.7131783" lon="20.3480417"><ele>13.0</ele><time>2026-05-02T16:32:18.882Z</time></trkpt><trkpt lat="54.7131883" lon="20.348365"><ele>13.0</ele><time>2026-05-02T16:32:19.88Z</time></trkpt><trkpt lat="54.7132" lon="20.3486933"><ele>13.0</ele><time>2026-05-02T16:32:20.88Z</time></trkpt><trkpt lat="54.7132167" lon="20.3490317"><ele>13.0</ele><time>2026-05-02T16:32:21.877Z</time></trkpt><trkpt lat="54.71325" lon="20.3493667"><ele>12.666666666666666</ele><time>2026-05-02T16:32:22.874Z</time></trkpt><trkpt lat="54.713285" lon="20.3496983"><ele>12.333333333333332</ele><time>2026-05-02T16:32:23.881Z</time></trkpt><trkpt lat="54.7133233" lon="20.3500233"><ele>12.0</ele><time>2026-05-02T16:32:24.881Z</time></trkpt><trkpt lat="54.7133717" lon="20.3503317"><ele>12.333333333333332</ele><time>2026-05-02T16:32:25.879Z</time></trkpt><trkpt lat="54.71342" lon="20.3506333"><ele>12.666666666666666</ele><time>2026-05-02T16:32:26.883Z</time></trkpt><trkpt lat="54.7134717" lon="20.3509267"><ele>13.0</ele><time>2026-05-02T16:32:27.879Z</time></trkpt><trkpt lat="54.7135233" lon="20.35121"><ele>12.0</ele><time>2026-05-02T16:32:28.877Z</time></trkpt><trkpt lat="54.713575" lon="20.3514833"><ele>11.0</ele><time>2026-05-02T16:32:29.884Z</time></trkpt><trkpt lat="54.7136283" lon="20.3517633"><ele>10.0</ele><time>2026-05-02T16:32:30.881Z</time></trkpt><trkpt lat="54.71367" lon="20.35206"><ele>9.333333333333334</ele><time>2026-05-02T16:32:31.876Z</time></trkpt><trkpt lat="54.7137117" lon="20.3523567"><ele>8.666666666666666</ele><time>2026-05-02T16:32:32.88Z</time></trkpt><trkpt lat="54.7137533" lon="20.3526483"><ele>8.0</ele><time>2026-05-02T16:32:33.882Z</time></trkpt><trkpt lat="54.7137917" lon="20.3529267"><ele>8.0</ele><time>2026-05-02T16:32:34.88Z</time></trkpt><trkpt lat="54.7138317" lon="20.3531967"><ele>8.0</ele><time>2026-05-02T16:32:35.881Z</time></trkpt><trkpt lat="54.713875" lon="20.353455"><ele>8.0</ele><time>2026-05-02T16:32:36.878Z</time></trkpt><trkpt lat="54.713915" lon="20.3537067"><ele>8.25</ele><time>2026-05-02T16:32:37.881Z</time></trkpt><trkpt lat="54.7139533" lon="20.353955"><ele>8.5</ele><time>2026-05-02T16:32:38.882Z</time></trkpt><trkpt lat="54.7139967" lon="20.3542"><ele>8.75</ele><time>2026-05-02T16:32:39.881Z</time></trkpt><trkpt lat="54.714035" lon="20.3544483"><ele>9.0</ele><time>2026-05-02T16:32:40.878Z</time></trkpt><trkpt lat="54.7140717" lon="20.3546983"><ele>9.333333333333334</ele><time>2026-05-02T16:32:41.881Z</time></trkpt><trkpt lat="54.7141067" lon="20.3549517"><ele>9.666666666666668</ele><time>2026-05-02T16:32:42.884Z</time></trkpt><trkpt lat="54.714145" lon="20.355205"><ele>10.0</ele><time>2026-05-02T16:32:43.882Z</time></trkpt><trkpt lat="54.71418" lon="20.3554567"><ele>10.0</ele><time>2026-05-02T16:32:44.878Z</time></trkpt><trkpt lat="54.7142167" lon="20.355705"><ele>10.0</ele><time>2026-05-02T16:32:45.88Z</time></trkpt><trkpt lat="54.7142517" lon="20.3559533"><ele>10.0</ele><time>2026-05-02T16:32:46.883Z</time></trkpt><trkpt lat="54.7142867" lon="20.3561933"><ele>10.0</ele><time>2026-05-02T16:32:47.879Z</time></trkpt><trkpt lat="54.7143267" lon="20.356435"><ele>10.5</ele><time>2026-05-02T16:32:48.882Z</time></trkpt><trkpt lat="54.7143617" lon="20.3566817"><ele>11.0</ele><time>2026-05-02T16:32:49.88Z</time></trkpt><trkpt lat="54.7143967" lon="20.3569167"><ele>11.5</ele><time>2026-05-02T16:32:50.885Z</time></trkpt><trkpt lat="54.714425" lon="20.3571483"><ele>12.0</ele><time>2026-05-02T16:32:51.879Z</time></trkpt><trkpt lat="54.714455" lon="20.3573817"><ele>11.0</ele><time>2026-05-02T16:32:52.881Z</time></trkpt><trkpt lat="54.7144833" lon="20.3576267"><ele>10.0</ele><time>2026-05-02T16:32:53.883Z</time></trkpt><trkpt lat="54.7145067" lon="20.3578617"><ele>9.0</ele><time>2026-05-02T16:32:54.885Z</time></trkpt><trkpt lat="54.7145267" lon="20.3580983"><ele>8.0</ele><time>2026-05-02T16:32:55.878Z</time></trkpt><trkpt lat="54.7145417" lon="20.3583333"><ele>8.0</ele><time>2026-05-02T16:32:56.881Z</time></trkpt><trkpt lat="54.714555" lon="20.358555"><ele>8.0</ele><time>2026-05-02T16:32:57.882Z</time></trkpt><trkpt lat="54.7145717" lon="20.3587767"><ele>8.0</ele><time>2026-05-02T16:32:58.887Z</time></trkpt><trkpt lat="54.71459" lon="20.3589983"><ele>8.0</ele><time>2026-05-02T16:32:59.883Z</time></trkpt><trkpt lat="54.7146083" lon="20.3592167"><ele>8.25</ele><time>2026-05-02T16:33:00.882Z</time></trkpt><trkpt lat="54.7146267" lon="20.359425"><ele>8.5</ele><time>2026-05-02T16:33:01.88Z</time></trkpt><trkpt lat="54.71465" lon="20.359635"><ele>8.75</ele><time>2026-05-02T16:33:02.879Z</time></trkpt><trkpt lat="54.7146767" lon="20.359845"><ele>9.0</ele><time>2026-05-02T16:33:03.878Z</time></trkpt><trkpt lat="54.7147" lon="20.3600517"><ele>9.0</ele><time>2026-05-02T16:33:04.883Z</time></trkpt><trkpt lat="54.714715" lon="20.3602717"><ele>9.0</ele><time>2026-05-02T16:33:05.877Z</time></trkpt><trkpt lat="54.7147317" lon="20.3604933"><ele>9.0</ele><time>2026-05-02T16:33:06.879Z</time></trkpt><trkpt lat="54.7147517" lon="20.3607067"><ele>9.0</ele><time>2026-05-02T16:33:07.88Z</time></trkpt><trkpt lat="54.7147733" lon="20.36093"><ele>9.0</ele><time>2026-05-02T16:33:08.887Z</time></trkpt><trkpt lat="54.7147983" lon="20.3611533"><ele>9.0</ele><time>2026-05-02T16:33:09.88Z</time></trkpt><trkpt lat="54.7148283" lon="20.3613683"><ele>9.0</ele><time>2026-05-02T16:33:10.881Z</time></trkpt><trkpt lat="54.71485" lon="20.3615883"><ele>9.0</ele><time>2026-05-02T16:33:11.881Z</time></trkpt><trkpt lat="54.7148683" lon="20.3618233"><ele>9.0</ele><time>2026-05-02T16:33:12.879Z</time></trkpt><trkpt lat="54.7148817" lon="20.36205"><ele>9.0</ele><time>2026-05-02T16:33:13.88Z</time></trkpt><trkpt lat="54.7148933" lon="20.3622833"><ele>9.0</ele><time>2026-05-02T16:33:14.889Z</time></trkpt><trkpt lat="54.714905" lon="20.3625233"><ele>9.0</ele><time>2026-05-02T16:33:15.885Z</time></trkpt><trkpt lat="54.7149117" lon="20.3627733"><ele>9.5</ele><time>2026-05-02T16:33:16.873Z</time></trkpt><trkpt lat="54.7149133" lon="20.363015"><ele>10.0</ele><time>2026-05-02T16:33:17.876Z</time></trkpt><trkpt lat="54.7149167" lon="20.3632617"><ele>10.5</ele><time>2026-05-02T16:33:18.884Z</time></trkpt><trkpt lat="54.7149233" lon="20.363505"><ele>11.0</ele><time>2026-05-02T16:33:19.879Z</time></trkpt><trkpt lat="54.71493" lon="20.3637533"><ele>11.75</ele><time>2026-05-02T16:33:20.882Z</time></trkpt><trkpt lat="54.7149333" lon="20.3640067"><ele>12.5</ele><time>2026-05-02T16:33:21.882Z</time></trkpt><trkpt lat="54.7149267" lon="20.3642617"><ele>13.25</ele><time>2026-05-02T16:33:22.874Z</time></trkpt><trkpt lat="54.7149233" lon="20.3645183"><ele>14.0</ele><time>2026-05-02T16:33:23.88Z</time></trkpt><trkpt lat="54.7149183" lon="20.3647683"><ele>14.0</ele><time>2026-05-02T16:33:24.874Z</time></trkpt><trkpt lat="54.7149183" lon="20.3650117"><ele>14.0</ele><time>2026-05-02T16:33:25.883Z</time></trkpt><trkpt lat="54.7149167" lon="20.365265"><ele>14.0</ele><time>2026-05-02T16:33:26.888Z</time></trkpt><trkpt lat="54.7149217" lon="20.36551"><ele>14.0</ele><time>2026-05-02T16:33:27.884Z</time></trkpt><trkpt lat="54.7149233" lon="20.3657533"><ele>13.5</ele><time>2026-05-02T16:33:28.881Z</time></trkpt><trkpt lat="54.71492" lon="20.3659933"><ele>13.0</ele><time>2026-05-02T16:33:29.88Z</time></trkpt><trkpt lat="54.7149183" lon="20.3662267"><ele>12.5</ele><time>2026-05-02T16:33:30.876Z</time></trkpt><trkpt lat="54.7149233" lon="20.3664617"><ele>12.0</ele><time>2026-05-02T16:33:31.878Z</time></trkpt><trkpt lat="54.7149317" lon="20.3667"><ele>12.0</ele><time>2026-05-02T16:33:32.887Z</time></trkpt><trkpt lat="54.71493" lon="20.366945"><ele>12.0</ele><time>2026-05-02T16:33:33.881Z</time></trkpt><trkpt lat="54.7149317" lon="20.3671933"><ele>12.0</ele><time>2026-05-02T16:33:34.878Z</time></trkpt><trkpt lat="54.71493" lon="20.3674567"><ele>12.0</ele><time>2026-05-02T16:33:35.881Z</time></trkpt><trkpt lat="54.7149333" lon="20.36771"><ele>12.0</ele><time>2026-05-02T16:33:36.883Z</time></trkpt><trkpt lat="54.7149383" lon="20.36796"><ele>12.0</ele><time>2026-05-02T16:33:37.881Z</time></trkpt><trkpt lat="54.7149367" lon="20.3682"><ele>12.0</ele><time>2026-05-02T16:33:38.881Z</time></trkpt><trkpt lat="54.7149417" lon="20.3684283"><ele>12.0</ele><time>2026-05-02T16:33:39.88Z</time></trkpt><trkpt lat="54.7149467" lon="20.368645"><ele>11.6</ele><time>2026-05-02T16:33:40.885Z</time></trkpt><trkpt lat="54.714945" lon="20.3688533"><ele>11.2</ele><time>2026-05-02T16:33:41.882Z</time></trkpt><trkpt lat="54.7149467" lon="20.36905"><ele>10.8</ele><time>2026-05-02T16:33:42.881Z</time></trkpt><trkpt lat="54.7149467" lon="20.3692383"><ele>10.4</ele><time>2026-05-02T16:33:43.883Z</time></trkpt><trkpt lat="54.7149417" lon="20.36942"><ele>10.0</ele><time>2026-05-02T16:33:44.876Z</time></trkpt><trkpt lat="54.714945" lon="20.369585"><ele>10.0</ele><time>2026-05-02T16:33:45.884Z</time></trkpt><trkpt lat="54.71494" lon="20.3697333"><ele>10.0</ele><time>2026-05-02T16:33:46.88Z</time></trkpt><trkpt lat="54.7149367" lon="20.369875"><ele>10.0</ele><time>2026-05-02T16:33:47.876Z</time></trkpt><trkpt lat="54.714925" lon="20.370005"><ele>10.0</ele><time>2026-05-02T16:33:48.881Z</time></trkpt><trkpt lat="54.7149083" lon="20.370115"><ele>10.0</ele><time>2026-05-02T16:33:49.875Z</time></trkpt><trkpt lat="54.7149017" lon="20.3702667"><ele>10.0</ele><time>2026-05-02T16:33:51.88Z</time></trkpt><trkpt lat="54.714905" lon="20.3705017"><ele>10.0</ele><time>2026-05-02T16:34:18.881Z</time></trkpt><trkpt lat="54.7149017" lon="20.370665"><ele>10.0</ele><time>2026-05-02T16:34:20.884Z</time></trkpt><trkpt lat="54.714895" lon="20.3707833"><ele>10.0</ele><time>2026-05-02T16:34:21.881Z</time></trkpt><trkpt lat="54.714895" lon="20.370915"><ele>10.0</ele><time>2026-05-02T16:34:22.881Z</time></trkpt><trkpt lat="54.7148883" lon="20.3710633"><ele>10.0</ele><time>2026-05-02T16:34:23.879Z</time></trkpt><trkpt lat="54.7148883" lon="20.37122"><ele>10.0</ele><time>2026-05-02T16:34:24.883Z</time></trkpt><trkpt lat="54.7148867" lon="20.3714"><ele>9.25</ele><time>2026-05-02T16:34:25.873Z</time></trkpt><trkpt lat="54.71488" lon="20.3715967"><ele>8.5</ele><time>2026-05-02T16:34:26.889Z</time></trkpt><trkpt lat="54.7148717" lon="20.371815"><ele>7.75</ele><time>2026-05-02T16:34:27.878Z</time></trkpt><trkpt lat="54.714865" lon="20.37205"><ele>7.0</ele><time>2026-05-02T16:34:28.879Z</time></trkpt><trkpt lat="54.71486" lon="20.3723033"><ele>6.666666666666667</ele><time>2026-05-02T16:34:29.88Z</time></trkpt><trkpt lat="54.7148467" lon="20.3725717"><ele>6.333333333333334</ele><time>2026-05-02T16:34:30.881Z</time></trkpt><trkpt lat="54.7148383" lon="20.37285"><ele>6.0</ele><time>2026-05-02T16:34:31.877Z</time></trkpt><trkpt lat="54.7148317" lon="20.3731367"><ele>6.0</ele><time>2026-05-02T16:34:32.887Z</time></trkpt><trkpt lat="54.714825" lon="20.373425"><ele>6.0</ele><time>2026-05-02T16:34:33.878Z</time></trkpt><trkpt lat="54.7148183" lon="20.373715"><ele>6.0</ele><time>2026-05-02T16:34:34.884Z</time></trkpt><trkpt lat="54.714815" lon="20.3740033"><ele>5.666666666666667</ele><time>2026-05-02T16:34:35.884Z</time></trkpt><trkpt lat="54.7148117" lon="20.3743"><ele>5.333333333333334</ele><time>2026-05-02T16:34:36.883Z</time></trkpt><trkpt lat="54.7148233" lon="20.3745867"><ele>5.0</ele><time>2026-05-02T16:34:37.882Z</time></trkpt><trkpt lat="54.7148483" lon="20.3748533"><ele>5.0</ele><time>2026-05-02T16:34:38.884Z</time></trkpt><trkpt lat="54.7148817" lon="20.375115"><ele>5.0</ele><time>2026-05-02T16:34:39.882Z</time></trkpt><trkpt lat="54.7149283" lon="20.3753667"><ele>5.0</ele><time>2026-05-02T16:34:40.88Z</time></trkpt><trkpt lat="54.7149883" lon="20.3755983"><ele>5.0</ele><time>2026-05-02T16:34:41.882Z</time></trkpt><trkpt lat="54.71506" lon="20.3758283"><ele>5.0</ele><time>2026-05-02T16:34:42.881Z</time></trkpt><trkpt lat="54.71514" lon="20.3760517"><ele>5.0</ele><time>2026-05-02T16:34:43.88Z</time></trkpt><trkpt lat="54.7152267" lon="20.3762533"><ele>5.0</ele><time>2026-05-02T16:34:44.887Z</time></trkpt><trkpt lat="54.7153117" lon="20.3764533"><ele>4.75</ele><time>2026-05-02T16:34:45.884Z</time></trkpt><trkpt lat="54.7154" lon="20.3766517"><ele>4.5</ele><time>2026-05-02T16:34:46.88Z</time></trkpt><trkpt lat="54.715485" lon="20.3768483"><ele>4.25</ele><time>2026-05-02T16:34:47.881Z</time></trkpt><trkpt lat="54.7155717" lon="20.37705"><ele>4.0</ele><time>2026-05-02T16:34:48.887Z</time></trkpt><trkpt lat="54.7156617" lon="20.3772483"><ele>4.0</ele><time>2026-05-02T16:34:49.878Z</time></trkpt><trkpt lat="54.7157517" lon="20.3774517"><ele>4.0</ele><time>2026-05-02T16:34:50.88Z</time></trkpt><trkpt lat="54.7158417" lon="20.377655"><ele>4.0</ele><time>2026-05-02T16:34:51.88Z</time></trkpt><trkpt lat="54.7159283" lon="20.3778483"><ele>4.0</ele><time>2026-05-02T16:34:52.879Z</time></trkpt><trkpt lat="54.7160133" lon="20.3780367"><ele>4.5</ele><time>2026-05-02T16:34:53.881Z</time></trkpt><trkpt lat="54.7160933" lon="20.37822"><ele>5.0</ele><time>2026-05-02T16:34:54.887Z</time></trkpt><trkpt lat="54.71617" lon="20.3784"><ele>5.5</ele><time>2026-05-02T16:34:55.882Z</time></trkpt><trkpt lat="54.7162417" lon="20.378565"><ele>6.0</ele><time>2026-05-02T16:34:56.882Z</time></trkpt><trkpt lat="54.7163083" lon="20.37873"><ele>6.25</ele><time>2026-05-02T16:34:57.881Z</time></trkpt><trkpt lat="54.7163667" lon="20.3789017"><ele>6.5</ele><time>2026-05-02T16:34:58.882Z</time></trkpt><trkpt lat="54.7164267" lon="20.3790683"><ele>6.75</ele><time>2026-05-02T16:34:59.882Z</time></trkpt><trkpt lat="54.71649" lon="20.3792367"><ele>7.0</ele><time>2026-05-02T16:35:00.884Z</time></trkpt><trkpt lat="54.7165533" lon="20.37941"><ele>7.0</ele><time>2026-05-02T16:35:01.885Z</time></trkpt><trkpt lat="54.7166167" lon="20.379585"><ele>7.0</ele><time>2026-05-02T16:35:02.886Z</time></trkpt><trkpt lat="54.7166783" lon="20.379765"><ele>7.0</ele><time>2026-05-02T16:35:03.886Z</time></trkpt><trkpt lat="54.7167433" lon="20.3799483"><ele>7.0</ele><time>2026-05-02T16:35:04.881Z</time></trkpt><trkpt lat="54.7168083" lon="20.380135"><ele>6.75</ele><time>2026-05-02T16:35:05.877Z</time></trkpt><trkpt lat="54.71687" lon="20.38031"><ele>6.5</ele><time>2026-05-02T16:35:06.884Z</time></trkpt><trkpt lat="54.7169317" lon="20.3804833"><ele>6.25</ele><time>2026-05-02T16:35:07.883Z</time></trkpt><trkpt lat="54.7169867" lon="20.3806717"><ele>6.0</ele><time>2026-05-02T16:35:08.883Z</time></trkpt><trkpt lat="54.71704" lon="20.3808533"><ele>5.75</ele><time>2026-05-02T16:35:09.881Z</time></trkpt><trkpt lat="54.71709" lon="20.3810333"><ele>5.5</ele><time>2026-05-02T16:35:10.884Z</time></trkpt><trkpt lat="54.7171383" lon="20.3812167"><ele>5.25</ele><time>2026-05-02T16:35:11.881Z</time></trkpt><trkpt lat="54.7171867" lon="20.3814017"><ele>5.0</ele><time>2026-05-02T16:35:12.884Z</time></trkpt><trkpt lat="54.7172367" lon="20.381585"><ele>5.0</ele><time>2026-05-02T16:35:13.882Z</time></trkpt><trkpt lat="54.7172833" lon="20.38177"><ele>5.0</ele><time>2026-05-02T16:35:14.883Z</time></trkpt><trkpt lat="54.717325" lon="20.3819517"><ele>5.0</ele><time>2026-05-02T16:35:15.882Z</time></trkpt><trkpt lat="54.7173667" lon="20.38213"><ele>5.0</ele><time>2026-05-02T16:35:16.88Z</time></trkpt><trkpt lat="54.7174067" lon="20.3822983"><ele>5.0</ele><time>2026-05-02T16:35:17.88Z</time></trkpt><trkpt lat="54.7174483" lon="20.3824733"><ele>5.25</ele><time>2026-05-02T16:35:18.883Z</time></trkpt><trkpt lat="54.71749" lon="20.382665"><ele>5.5</ele><time>2026-05-02T16:35:19.882Z</time></trkpt><trkpt lat="54.7175367" lon="20.3828617"><ele>5.75</ele><time>2026-05-02T16:35:20.886Z</time></trkpt><trkpt lat="54.7175867" lon="20.38308"><ele>6.0</ele><time>2026-05-02T16:35:21.885Z</time></trkpt><trkpt lat="54.7176417" lon="20.3833233"><ele>5.333333333333333</ele><time>2026-05-02T16:35:22.882Z</time></trkpt><trkpt lat="54.7176967" lon="20.3835967"><ele>4.666666666666666</ele><time>2026-05-02T16:35:23.887Z</time></trkpt><trkpt lat="54.71776" lon="20.3838633"><ele>4.0</ele><time>2026-05-02T16:35:24.887Z</time></trkpt><trkpt lat="54.71783" lon="20.3841483"><ele>4.0</ele><time>2026-05-02T16:35:25.881Z</time></trkpt><trkpt lat="54.717905" lon="20.38443"><ele>4.0</ele><time>2026-05-02T16:35:26.879Z</time></trkpt><trkpt lat="54.7179817" lon="20.3847183"><ele>4.0</ele><time>2026-05-02T16:35:27.882Z</time></trkpt><trkpt lat="54.718065" lon="20.3850017"><ele>4.333333333333333</ele><time>2026-05-02T16:35:28.878Z</time></trkpt><trkpt lat="54.7181567" lon="20.3852783"><ele>4.666666666666667</ele><time>2026-05-02T16:35:29.879Z</time></trkpt><trkpt lat="54.71825" lon="20.3855567"><ele>5.0</ele><time>2026-05-02T16:35:30.877Z</time></trkpt><trkpt lat="54.718345" lon="20.3858283"><ele>5.0</ele><time>2026-05-02T16:35:31.879Z</time></trkpt><trkpt lat="54.718445" lon="20.386105"><ele>5.0</ele><time>2026-05-02T16:35:32.882Z</time></trkpt><trkpt lat="54.7185467" lon="20.3863733"><ele>5.0</ele><time>2026-05-02T16:35:33.873Z</time></trkpt><trkpt lat="54.7186517" lon="20.3866283"><ele>5.0</ele><time>2026-05-02T16:35:34.876Z</time></trkpt><trkpt lat="54.7187583" lon="20.386875"><ele>5.0</ele><time>2026-05-02T16:35:35.875Z</time></trkpt><trkpt lat="54.7188667" lon="20.3871183"><ele>5.0</ele><time>2026-05-02T16:35:36.882Z</time></trkpt><trkpt lat="54.7189683" lon="20.3873583"><ele>5.0</ele><time>2026-05-02T16:35:37.877Z</time></trkpt><trkpt lat="54.71907" lon="20.3875817"><ele>5.0</ele><time>2026-05-02T16:35:38.881Z</time></trkpt><trkpt lat="54.7191683" lon="20.387795"><ele>5.0</ele><time>2026-05-02T16:35:39.877Z</time></trkpt><trkpt lat="54.7192617" lon="20.3880033"><ele>4.75</ele><time>2026-05-02T16:35:40.876Z</time></trkpt><trkpt lat="54.7193517" lon="20.3882083"><ele>4.5</ele><time>2026-05-02T16:35:41.879Z</time></trkpt><trkpt lat="54.71944" lon="20.388415"><ele>4.25</ele><time>2026-05-02T16:35:42.88Z</time></trkpt><trkpt lat="54.7195283" lon="20.3886233"><ele>4.0</ele><time>2026-05-02T16:35:43.879Z</time></trkpt><trkpt lat="54.7196167" lon="20.3888283"><ele>3.0</ele><time>2026-05-02T16:35:44.886Z</time></trkpt><trkpt lat="54.7197033" lon="20.3890417"><ele>2.0</ele><time>2026-05-02T16:35:45.876Z</time></trkpt><trkpt lat="54.7197933" lon="20.38925"><ele>1.0</ele><time>2026-05-02T16:35:46.878Z</time></trkpt><trkpt lat="54.7198817" lon="20.3894583"><ele>1.0</ele><time>2026-05-02T16:35:47.878Z</time></trkpt><trkpt lat="54.7199717" lon="20.38966"><ele>1.0</ele><time>2026-05-02T16:35:48.878Z</time></trkpt><trkpt lat="54.7200617" lon="20.3898667"><ele>1.0</ele><time>2026-05-02T16:35:49.879Z</time></trkpt><trkpt lat="54.7201533" lon="20.3900717"><ele>1.0</ele><time>2026-05-02T16:35:50.885Z</time></trkpt><trkpt lat="54.7202417" lon="20.3902667"><ele>1.0</ele><time>2026-05-02T16:35:51.88Z</time></trkpt><trkpt lat="54.7203333" lon="20.3904617"><ele>1.0</ele><time>2026-05-02T16:35:52.882Z</time></trkpt><trkpt lat="54.720425" lon="20.39065"><ele>1.0</ele><time>2026-05-02T16:35:53.878Z</time></trkpt><trkpt lat="54.720515" lon="20.3908317"><ele>1.0</ele><time>2026-05-02T16:35:54.888Z</time></trkpt><trkpt lat="54.7206033" lon="20.391015"><ele>1.5</ele><time>2026-05-02T16:35:55.883Z</time></trkpt><trkpt lat="54.7206883" lon="20.391195"><ele>2.0</ele><time>2026-05-02T16:35:56.888Z</time></trkpt><trkpt lat="54.7207733" lon="20.391375"><ele>2.5</ele><time>2026-05-02T16:35:57.887Z</time></trkpt><trkpt lat="54.720855" lon="20.391555"><ele>3.0</ele><time>2026-05-02T16:35:58.882Z</time></trkpt><trkpt lat="54.7209383" lon="20.3917417"><ele>3.0</ele><time>2026-05-02T16:35:59.884Z</time></trkpt><trkpt lat="54.7210183" lon="20.3919317"><ele>3.0</ele><time>2026-05-02T16:36:00.88Z</time></trkpt><trkpt lat="54.7211" lon="20.3921167"><ele>3.0</ele><time>2026-05-02T16:36:01.887Z</time></trkpt><trkpt lat="54.721185" lon="20.392315"><ele>3.0</ele><time>2026-05-02T16:36:02.887Z</time></trkpt><trkpt lat="54.7212667" lon="20.3924917"><ele>3.0</ele><time>2026-05-02T16:36:03.881Z</time></trkpt><trkpt lat="54.7213467" lon="20.3926717"><ele>3.0</ele><time>2026-05-02T16:36:04.879Z</time></trkpt><trkpt lat="54.7214267" lon="20.3928467"><ele>3.0</ele><time>2026-05-02T16:36:05.88Z</time></trkpt><trkpt lat="54.721505" lon="20.39302"><ele>3.0</ele><time>2026-05-02T16:36:06.883Z</time></trkpt><trkpt lat="54.72158" lon="20.3931817"><ele>2.75</ele><time>2026-05-02T16:36:07.886Z</time></trkpt><trkpt lat="54.7216567" lon="20.3933517"><ele>2.5</ele><time>2026-05-02T16:36:08.882Z</time></trkpt><trkpt lat="54.72173" lon="20.3935083"><ele>2.25</ele><time>2026-05-02T16:36:09.878Z</time></trkpt><trkpt lat="54.721805" lon="20.39366"><ele>2.0</ele><time>2026-05-02T16:36:10.883Z</time></trkpt><trkpt lat="54.7218833" lon="20.3938133"><ele>2.25</ele><time>2026-05-02T16:36:11.882Z</time></trkpt><trkpt lat="54.7219633" lon="20.3939733"><ele>2.5</ele><time>2026-05-02T16:36:12.885Z</time></trkpt><trkpt lat="54.7220483" lon="20.3941383"><ele>2.75</ele><time>2026-05-02T16:36:13.882Z</time></trkpt><trkpt lat="54.72214" lon="20.3943067"><ele>3.0</ele><time>2026-05-02T16:36:14.884Z</time></trkpt><trkpt lat="54.722235" lon="20.3944767"><ele>3.0</ele><time>2026-05-02T16:36:15.885Z</time></trkpt><trkpt lat="54.7223317" lon="20.3946483"><ele>3.0</ele><time>2026-05-02T16:36:16.888Z</time></trkpt><trkpt lat="54.7224283" lon="20.394825"><ele>3.0</ele><time>2026-05-02T16:36:17.876Z</time></trkpt><trkpt lat="54.722525" lon="20.3950017"><ele>3.0</ele><time>2026-05-02T16:36:18.883Z</time></trkpt><trkpt lat="54.72262" lon="20.395185"><ele>3.25</ele><time>2026-05-02T16:36:19.887Z</time></trkpt><trkpt lat="54.7227133" lon="20.3953683"><ele>3.5</ele><time>2026-05-02T16:36:20.883Z</time></trkpt><trkpt lat="54.722805" lon="20.3955467"><ele>3.75</ele><time>2026-05-02T16:36:21.88Z</time></trkpt><trkpt lat="54.7228933" lon="20.39572"><ele>4.0</ele><time>2026-05-02T16:36:22.882Z</time></trkpt><trkpt lat="54.7229767" lon="20.39589"><ele>3.75</ele><time>2026-05-02T16:36:23.883Z</time></trkpt><trkpt lat="54.7230567" lon="20.39606"><ele>3.5</ele><time>2026-05-02T16:36:24.884Z</time></trkpt><trkpt lat="54.7231333" lon="20.3962283"><ele>3.25</ele><time>2026-05-02T16:36:25.881Z</time></trkpt><trkpt lat="54.7232067" lon="20.3963967"><ele>3.0</ele><time>2026-05-02T16:36:26.877Z</time></trkpt><trkpt lat="54.72328" lon="20.3965617"><ele>3.0</ele><time>2026-05-02T16:36:27.883Z</time></trkpt><trkpt lat="54.72335" lon="20.3967233"><ele>3.0</ele><time>2026-05-02T16:36:28.884Z</time></trkpt><trkpt lat="54.7234167" lon="20.3968917"><ele>3.0</ele><time>2026-05-02T16:36:29.879Z</time></trkpt><trkpt lat="54.72348" lon="20.3970567"><ele>3.0</ele><time>2026-05-02T16:36:30.884Z</time></trkpt><trkpt lat="54.723545" lon="20.397225"><ele>2.75</ele><time>2026-05-02T16:36:31.882Z</time></trkpt><trkpt lat="54.7236083" lon="20.3973983"><ele>2.5</ele><time>2026-05-02T16:36:32.889Z</time></trkpt><trkpt lat="54.7236683" lon="20.3975667"><ele>2.25</ele><time>2026-05-02T16:36:33.875Z</time></trkpt><trkpt lat="54.7237283" lon="20.397755"><ele>2.0</ele><time>2026-05-02T16:36:34.88Z</time></trkpt><trkpt lat="54.7237833" lon="20.3979267"><ele>2.25</ele><time>2026-05-02T16:36:35.883Z</time></trkpt><trkpt lat="54.7238367" lon="20.3980983"><ele>2.5</ele><time>2026-05-02T16:36:36.889Z</time></trkpt><trkpt lat="54.7238917" lon="20.3982767"><ele>2.75</ele><time>2026-05-02T16:36:37.886Z</time></trkpt><trkpt lat="54.7239483" lon="20.3984417"><ele>3.0</ele><time>2026-05-02T16:36:38.877Z</time></trkpt><trkpt lat="54.7240067" lon="20.398605"><ele>3.0</ele><time>2026-05-02T16:36:39.881Z</time></trkpt><trkpt lat="54.7240683" lon="20.3987817"><ele>3.0</ele><time>2026-05-02T16:36:40.876Z</time></trkpt><trkpt lat="54.7241317" lon="20.3989717"><ele>3.0</ele><time>2026-05-02T16:36:41.881Z</time></trkpt><trkpt lat="54.7241883" lon="20.3991783"><ele>3.0</ele><time>2026-05-02T16:36:42.877Z</time></trkpt><trkpt lat="54.7242533" lon="20.3993683"><ele>3.2</ele><time>2026-05-02T16:36:43.88Z</time></trkpt><trkpt lat="54.724315" lon="20.3995517"><ele>3.4</ele><time>2026-05-02T16:36:44.88Z</time></trkpt><trkpt lat="54.7243617" lon="20.3997267"><ele>3.6000000000000005</ele><time>2026-05-02T16:36:45.877Z</time></trkpt><trkpt lat="54.7244117" lon="20.399885"><ele>3.8000000000000003</ele><time>2026-05-02T16:36:46.884Z</time></trkpt><trkpt lat="54.72446" lon="20.400045"><ele>4.0</ele><time>2026-05-02T16:36:47.879Z</time></trkpt><trkpt lat="54.7245167" lon="20.4002133"><ele>4.75</ele><time>2026-05-02T16:36:48.879Z</time></trkpt><trkpt lat="54.7245833" lon="20.400375"><ele>5.5</ele><time>2026-05-02T16:36:49.886Z</time></trkpt><trkpt lat="54.724655" lon="20.4005417"><ele>6.25</ele><time>2026-05-02T16:36:50.884Z</time></trkpt><trkpt lat="54.7247283" lon="20.40071"><ele>7.0</ele><time>2026-05-02T16:36:51.879Z</time></trkpt><trkpt lat="54.7248033" lon="20.4008783"><ele>7.5</ele><time>2026-05-02T16:36:52.88Z</time></trkpt><trkpt lat="54.7248783" lon="20.40105"><ele>8.0</ele><time>2026-05-02T16:36:53.88Z</time></trkpt><trkpt lat="54.7249533" lon="20.4012167"><ele>8.5</ele><time>2026-05-02T16:36:54.887Z</time></trkpt><trkpt lat="54.72503" lon="20.4013717"><ele>9.0</ele><time>2026-05-02T16:36:55.883Z</time></trkpt><trkpt lat="54.7251033" lon="20.4015183"><ele>9.4</ele><time>2026-05-02T16:36:56.883Z</time></trkpt><trkpt lat="54.7251717" lon="20.4016583"><ele>9.8</ele><time>2026-05-02T16:36:57.883Z</time></trkpt><trkpt lat="54.725245" lon="20.4017933"><ele>10.200000000000001</ele><time>2026-05-02T16:36:58.884Z</time></trkpt><trkpt lat="54.7253167" lon="20.40193"><ele>10.600000000000001</ele><time>2026-05-02T16:36:59.885Z</time></trkpt><trkpt lat="54.7253917" lon="20.4020683"><ele>11.0</ele><time>2026-05-02T16:37:00.884Z</time></trkpt><trkpt lat="54.7254667" lon="20.4022067"><ele>11.75</ele><time>2026-05-02T16:37:01.883Z</time></trkpt><trkpt lat="54.7255433" lon="20.402355"><ele>12.5</ele><time>2026-05-02T16:37:02.883Z</time></trkpt><trkpt lat="54.7256217" lon="20.4025033"><ele>13.25</ele><time>2026-05-02T16:37:03.887Z</time></trkpt><trkpt lat="54.7257017" lon="20.402655"><ele>14.0</ele><time>2026-05-02T16:37:04.883Z</time></trkpt><trkpt lat="54.72578" lon="20.402805"><ele>14.0</ele><time>2026-05-02T16:37:05.883Z</time></trkpt><trkpt lat="54.72586" lon="20.4029483"><ele>14.0</ele><time>2026-05-02T16:37:06.883Z</time></trkpt><trkpt lat="54.7259433" lon="20.403105"><ele>14.0</ele><time>2026-05-02T16:37:07.882Z</time></trkpt><trkpt lat="54.72603" lon="20.40326"><ele>14.0</ele><time>2026-05-02T16:37:08.886Z</time></trkpt><trkpt lat="54.7261183" lon="20.40341"><ele>14.0</ele><time>2026-05-02T16:37:09.88Z</time></trkpt><trkpt lat="54.726215" lon="20.4035583"><ele>14.0</ele><time>2026-05-02T16:37:10.88Z</time></trkpt><trkpt lat="54.7263183" lon="20.403705"><ele>14.0</ele><time>2026-05-02T16:37:11.878Z</time></trkpt><trkpt lat="54.7264233" lon="20.4038467"><ele>14.0</ele><time>2026-05-02T16:37:12.882Z</time></trkpt><trkpt lat="54.7265267" lon="20.40398"><ele>14.0</ele><time>2026-05-02T16:37:13.88Z</time></trkpt><trkpt lat="54.72663" lon="20.404105"><ele>14.0</ele><time>2026-05-02T16:37:14.885Z</time></trkpt><trkpt lat="54.726735" lon="20.40422"><ele>14.0</ele><time>2026-05-02T16:37:15.884Z</time></trkpt><trkpt lat="54.7268433" lon="20.4043233"><ele>14.0</ele><time>2026-05-02T16:37:16.877Z</time></trkpt><trkpt lat="54.7269533" lon="20.4044233"><ele>14.5</ele><time>2026-05-02T16:37:17.878Z</time></trkpt><trkpt lat="54.727065" lon="20.40452"><ele>15.0</ele><time>2026-05-02T16:37:18.888Z</time></trkpt><trkpt lat="54.7271767" lon="20.4046083"><ele>15.5</ele><time>2026-05-02T16:37:19.88Z</time></trkpt><trkpt lat="54.7272783" lon="20.404685"><ele>16.0</ele><time>2026-05-02T16:37:20.883Z</time></trkpt><trkpt lat="54.7273617" lon="20.40475"><ele>15.999999999999998</ele><time>2026-05-02T16:37:21.88Z</time></trkpt><trkpt lat="54.72743" lon="20.4047983"><ele>16.0</ele><time>2026-05-02T16:37:22.882Z</time></trkpt><trkpt lat="54.72749" lon="20.4048483"><ele>16.0</ele><time>2026-05-02T16:37:23.883Z</time></trkpt><trkpt lat="54.7275533" lon="20.4048933"><ele>16.0</ele><time>2026-05-02T16:37:24.879Z</time></trkpt><trkpt lat="54.7276233" lon="20.40494"><ele>15.999999999999998</ele><time>2026-05-02T16:37:25.88Z</time></trkpt><trkpt lat="54.7277033" lon="20.4049933"><ele>16.0</ele><time>2026-05-02T16:37:26.888Z</time></trkpt><trkpt lat="54.7277883" lon="20.405055"><ele>16.2</ele><time>2026-05-02T16:37:27.887Z</time></trkpt><trkpt lat="54.7278783" lon="20.4051183"><ele>16.400000000000002</ele><time>2026-05-02T16:37:28.878Z</time></trkpt><trkpt lat="54.7279767" lon="20.4051783"><ele>16.6</ele><time>2026-05-02T16:37:29.884Z</time></trkpt><trkpt lat="54.72808" lon="20.405245"><ele>16.8</ele><time>2026-05-02T16:37:30.883Z</time></trkpt><trkpt lat="54.7281883" lon="20.405315"><ele>17.0</ele><time>2026-05-02T16:37:31.884Z</time></trkpt><trkpt lat="54.7283017" lon="20.4053883"><ele>17.0</ele><time>2026-05-02T16:37:32.883Z</time></trkpt><trkpt lat="54.7284217" lon="20.4054583"><ele>17.0</ele><time>2026-05-02T16:37:33.884Z</time></trkpt><trkpt lat="54.7285467" lon="20.405535"><ele>17.0</ele><time>2026-05-02T16:37:34.881Z</time></trkpt><trkpt lat="54.7286767" lon="20.40561"><ele>17.0</ele><time>2026-05-02T16:37:35.881Z</time></trkpt><trkpt lat="54.7288117" lon="20.4056883"><ele>17.25</ele><time>2026-05-02T16:37:36.879Z</time></trkpt><trkpt lat="54.72895" lon="20.405765"><ele>17.5</ele><time>2026-05-02T16:37:37.875Z</time></trkpt><trkpt lat="54.72909" lon="20.4058467"><ele>17.75</ele><time>2026-05-02T16:37:38.883Z</time></trkpt><trkpt lat="54.729235" lon="20.4059317"><ele>18.0</ele><time>2026-05-02T16:37:39.879Z</time></trkpt><trkpt lat="54.7293817" lon="20.4060167"><ele>18.0</ele><time>2026-05-02T16:37:40.887Z</time></trkpt><trkpt lat="54.72953" lon="20.406115"><ele>18.0</ele><time>2026-05-02T16:37:41.88Z</time></trkpt><trkpt lat="54.7296783" lon="20.4062117"><ele>18.0</ele><time>2026-05-02T16:37:42.878Z</time></trkpt><trkpt lat="54.729825" lon="20.4063117"><ele>18.0</ele><time>2026-05-02T16:37:43.885Z</time></trkpt><trkpt lat="54.7299633" lon="20.406415"><ele>18.0</ele><time>2026-05-02T16:37:44.89Z</time></trkpt><trkpt lat="54.7300983" lon="20.406515"><ele>18.0</ele><time>2026-05-02T16:37:45.884Z</time></trkpt><trkpt lat="54.7302317" lon="20.40663"><ele>18.0</ele><time>2026-05-02T16:37:46.88Z</time></trkpt><trkpt lat="54.7303583" lon="20.406745"><ele>17.5</ele><time>2026-05-02T16:37:47.878Z</time></trkpt><trkpt lat="54.7304817" lon="20.40687"><ele>17.0</ele><time>2026-05-02T16:37:48.884Z</time></trkpt><trkpt lat="54.7306033" lon="20.4070083"><ele>16.5</ele><time>2026-05-02T16:37:49.886Z</time></trkpt><trkpt lat="54.7307267" lon="20.4071583"><ele>16.0</ele><time>2026-05-02T16:37:50.881Z</time></trkpt><trkpt lat="54.7308483" lon="20.40732"><ele>16.0</ele><time>2026-05-02T16:37:51.883Z</time></trkpt><trkpt lat="54.7309683" lon="20.4074833"><ele>16.0</ele><time>2026-05-02T16:37:52.883Z</time></trkpt><trkpt lat="54.731085" lon="20.4076583"><ele>16.0</ele><time>2026-05-02T16:37:53.879Z</time></trkpt><trkpt lat="54.7311967" lon="20.4078317"><ele>16.0</ele><time>2026-05-02T16:37:54.884Z</time></trkpt><trkpt lat="54.731305" lon="20.4080083"><ele>16.0</ele><time>2026-05-02T16:37:55.879Z</time></trkpt><trkpt lat="54.7314083" lon="20.40819"><ele>16.0</ele><time>2026-05-02T16:37:56.886Z</time></trkpt><trkpt lat="54.7315083" lon="20.4083767"><ele>16.0</ele><time>2026-05-02T16:37:57.885Z</time></trkpt><trkpt lat="54.7316033" lon="20.408565"><ele>16.0</ele><time>2026-05-02T16:37:58.877Z</time></trkpt><trkpt lat="54.7316967" lon="20.4087517"><ele>16.0</ele><time>2026-05-02T16:37:59.881Z</time></trkpt><trkpt lat="54.7317933" lon="20.4089467"><ele>16.0</ele><time>2026-05-02T16:38:00.875Z</time></trkpt><trkpt lat="54.7318883" lon="20.4091533"><ele>16.0</ele><time>2026-05-02T16:38:01.883Z</time></trkpt><trkpt lat="54.7319817" lon="20.409365"><ele>16.0</ele><time>2026-05-02T16:38:02.887Z</time></trkpt><trkpt lat="54.732075" lon="20.4095833"><ele>16.0</ele><time>2026-05-02T16:38:03.88Z</time></trkpt><trkpt lat="54.732165" lon="20.4098117"><ele>16.0</ele><time>2026-05-02T16:38:04.883Z</time></trkpt><trkpt lat="54.7322533" lon="20.41004"><ele>16.333333333333332</ele><time>2026-05-02T16:38:05.886Z</time></trkpt><trkpt lat="54.7323383" lon="20.4102767"><ele>16.666666666666668</ele><time>2026-05-02T16:38:06.88Z</time></trkpt><trkpt lat="54.73242" lon="20.4105017"><ele>17.0</ele><time>2026-05-02T16:38:07.884Z</time></trkpt><trkpt lat="54.7325017" lon="20.4107333"><ele>17.333333333333336</ele><time>2026-05-02T16:38:08.882Z</time></trkpt><trkpt lat="54.7325817" lon="20.4109767"><ele>17.666666666666668</ele><time>2026-05-02T16:38:09.877Z</time></trkpt><trkpt lat="54.73266" lon="20.41122"><ele>18.0</ele><time>2026-05-02T16:38:10.888Z</time></trkpt><trkpt lat="54.73274" lon="20.4114717"><ele>18.0</ele><time>2026-05-02T16:38:11.885Z</time></trkpt><trkpt lat="54.73282" lon="20.41173"><ele>18.0</ele><time>2026-05-02T16:38:12.882Z</time></trkpt><trkpt lat="54.7329017" lon="20.4119883"><ele>18.0</ele><time>2026-05-02T16:38:13.879Z</time></trkpt><trkpt lat="54.7329817" lon="20.4122483"><ele>19.0</ele><time>2026-05-02T16:38:14.883Z</time></trkpt><trkpt lat="54.7330633" lon="20.4125083"><ele>20.0</ele><time>2026-05-02T16:38:15.882Z</time></trkpt><trkpt lat="54.733145" lon="20.4127783"><ele>21.0</ele><time>2026-05-02T16:38:16.877Z</time></trkpt><trkpt lat="54.73323" lon="20.4130417"><ele>21.666666666666668</ele><time>2026-05-02T16:38:17.884Z</time></trkpt><trkpt lat="54.7333217" lon="20.4133"><ele>22.333333333333336</ele><time>2026-05-02T16:38:18.881Z</time></trkpt><trkpt lat="54.7334167" lon="20.4135517"><ele>23.0</ele><time>2026-05-02T16:38:19.884Z</time></trkpt><trkpt lat="54.7335133" lon="20.4137883"><ele>22.0</ele><time>2026-05-02T16:38:20.882Z</time></trkpt><trkpt lat="54.7336183" lon="20.4140067"><ele>21.0</ele><time>2026-05-02T16:38:21.881Z</time></trkpt><trkpt lat="54.7337267" lon="20.4142167"><ele>20.0</ele><time>2026-05-02T16:38:22.882Z</time></trkpt><trkpt lat="54.7338367" lon="20.4144183"><ele>20.0</ele><time>2026-05-02T16:38:23.883Z</time></trkpt><trkpt lat="54.7339467" lon="20.4146117"><ele>20.0</ele><time>2026-05-02T16:38:24.877Z</time></trkpt><trkpt lat="54.7340583" lon="20.41481"><ele>20.0</ele><time>2026-05-02T16:38:25.881Z</time></trkpt><trkpt lat="54.73417" lon="20.4150033"><ele>20.333333333333336</ele><time>2026-05-02T16:38:26.88Z</time></trkpt><trkpt lat="54.7342867" lon="20.415195"><ele>20.666666666666668</ele><time>2026-05-02T16:38:27.878Z</time></trkpt><trkpt lat="54.7344033" lon="20.4153833"><ele>21.0</ele><time>2026-05-02T16:38:28.883Z</time></trkpt><trkpt lat="54.73452" lon="20.4155733"><ele>21.333333333333332</ele><time>2026-05-02T16:38:29.88Z</time></trkpt><trkpt lat="54.7346383" lon="20.41577"><ele>21.666666666666664</ele><time>2026-05-02T16:38:30.879Z</time></trkpt><trkpt lat="54.734755" lon="20.4159617"><ele>22.0</ele><time>2026-05-02T16:38:31.879Z</time></trkpt><trkpt lat="54.7348733" lon="20.4161583"><ele>22.0</ele><time>2026-05-02T16:38:32.888Z</time></trkpt><trkpt lat="54.73499" lon="20.4163517"><ele>22.0</ele><time>2026-05-02T16:38:33.884Z</time></trkpt><trkpt lat="54.7351067" lon="20.4165483"><ele>22.0</ele><time>2026-05-02T16:38:34.879Z</time></trkpt><trkpt lat="54.735225" lon="20.4167433"><ele>21.666666666666664</ele><time>2026-05-02T16:38:35.879Z</time></trkpt><trkpt lat="54.7353433" lon="20.4169417"><ele>21.333333333333332</ele><time>2026-05-02T16:38:36.88Z</time></trkpt><trkpt lat="54.7354633" lon="20.41714"><ele>21.0</ele><time>2026-05-02T16:38:37.879Z</time></trkpt><trkpt lat="54.7355833" lon="20.4173367"><ele>21.0</ele><time>2026-05-02T16:38:38.88Z</time></trkpt><trkpt lat="54.735705" lon="20.417535"><ele>21.0</ele><time>2026-05-02T16:38:39.885Z</time></trkpt><trkpt lat="54.735825" lon="20.4177333"><ele>21.0</ele><time>2026-05-02T16:38:40.875Z</time></trkpt><trkpt lat="54.7359467" lon="20.41793"><ele>21.0</ele><time>2026-05-02T16:38:41.88Z</time></trkpt><trkpt lat="54.7360683" lon="20.4181233"><ele>21.0</ele><time>2026-05-02T16:38:42.884Z</time></trkpt><trkpt lat="54.73619" lon="20.4183167"><ele>21.0</ele><time>2026-05-02T16:38:43.875Z</time></trkpt><trkpt lat="54.73631" lon="20.418515"><ele>21.0</ele><time>2026-05-02T16:38:44.878Z</time></trkpt><trkpt lat="54.7364283" lon="20.4187083"><ele>21.0</ele><time>2026-05-02T16:38:45.879Z</time></trkpt><trkpt lat="54.736545" lon="20.4188983"><ele>21.0</ele><time>2026-05-02T16:38:46.88Z</time></trkpt><trkpt lat="54.7366617" lon="20.4190883"><ele>21.0</ele><time>2026-05-02T16:38:47.886Z</time></trkpt><trkpt lat="54.7367767" lon="20.4192783"><ele>21.0</ele><time>2026-05-02T16:38:48.88Z</time></trkpt><trkpt lat="54.7368917" lon="20.4194667"><ele>21.0</ele><time>2026-05-02T16:38:49.879Z</time></trkpt><trkpt lat="54.7370067" lon="20.4196583"><ele>21.0</ele><time>2026-05-02T16:38:50.879Z</time></trkpt><trkpt lat="54.737125" lon="20.4198533"><ele>21.0</ele><time>2026-05-02T16:38:51.88Z</time></trkpt><trkpt lat="54.7372483" lon="20.4200483"><ele>21.0</ele><time>2026-05-02T16:38:52.875Z</time></trkpt><trkpt lat="54.737375" lon="20.4202483"><ele>21.0</ele><time>2026-05-02T16:38:53.887Z</time></trkpt><trkpt lat="54.737505" lon="20.4204583"><ele>21.0</ele><time>2026-05-02T16:38:54.876Z</time></trkpt><trkpt lat="54.7376417" lon="20.4206783"><ele>21.0</ele><time>2026-05-02T16:38:55.875Z</time></trkpt><trkpt lat="54.7377833" lon="20.4209033"><ele>21.666666666666668</ele><time>2026-05-02T16:38:56.885Z</time></trkpt><trkpt lat="54.7379233" lon="20.4211283"><ele>22.333333333333336</ele><time>2026-05-02T16:38:57.879Z</time></trkpt><trkpt lat="54.73806" lon="20.4213533"><ele>23.0</ele><time>2026-05-02T16:38:58.87Z</time></trkpt><trkpt lat="54.738195" lon="20.4215667"><ele>23.0</ele><time>2026-05-02T16:38:59.886Z</time></trkpt><trkpt lat="54.738325" lon="20.4217717"><ele>23.0</ele><time>2026-05-02T16:39:00.88Z</time></trkpt><trkpt lat="54.7384517" lon="20.4219767"><ele>23.0</ele><time>2026-05-02T16:39:01.878Z</time></trkpt><trkpt lat="54.7385783" lon="20.4221783"><ele>23.0</ele><time>2026-05-02T16:39:02.883Z</time></trkpt><trkpt lat="54.7387" lon="20.42238"><ele>23.0</ele><time>2026-05-02T16:39:03.879Z</time></trkpt><trkpt lat="54.73882" lon="20.4225733"><ele>23.0</ele><time>2026-05-02T16:39:04.877Z</time></trkpt><trkpt lat="54.7389367" lon="20.42276"><ele>23.0</ele><time>2026-05-02T16:39:05.886Z</time></trkpt><trkpt lat="54.7390517" lon="20.4229433"><ele>23.0</ele><time>2026-05-02T16:39:06.878Z</time></trkpt><trkpt lat="54.7391683" lon="20.42313"><ele>23.0</ele><time>2026-05-02T16:39:07.88Z</time></trkpt><trkpt lat="54.7392867" lon="20.4233167"><ele>23.0</ele><time>2026-05-02T16:39:08.887Z</time></trkpt><trkpt lat="54.739405" lon="20.4235083"><ele>23.0</ele><time>2026-05-02T16:39:09.884Z</time></trkpt><trkpt lat="54.739525" lon="20.4237033"><ele>23.0</ele><time>2026-05-02T16:39:10.876Z</time></trkpt><trkpt lat="54.739645" lon="20.4239017"><ele>23.333333333333336</ele><time>2026-05-02T16:39:11.885Z</time></trkpt><trkpt lat="54.7397683" lon="20.42409"><ele>23.666666666666668</ele><time>2026-05-02T16:39:12.892Z</time></trkpt><trkpt lat="54.7398933" lon="20.424275"><ele>24.0</ele><time>2026-05-02T16:39:13.878Z</time></trkpt><trkpt lat="54.740025" lon="20.4244517"><ele>24.0</ele><time>2026-05-02T16:39:14.889Z</time></trkpt><trkpt lat="54.7401517" lon="20.424625"><ele>24.0</ele><time>2026-05-02T16:39:15.876Z</time></trkpt><trkpt lat="54.7402717" lon="20.4247933"><ele>24.0</ele><time>2026-05-02T16:39:16.883Z</time></trkpt><trkpt lat="54.74039" lon="20.4249517"><ele>23.75</ele><time>2026-05-02T16:39:17.877Z</time></trkpt><trkpt lat="54.7405017" lon="20.4250967"><ele>23.5</ele><time>2026-05-02T16:39:18.877Z</time></trkpt><trkpt lat="54.7406067" lon="20.4252283"><ele>23.25</ele><time>2026-05-02T16:39:19.884Z</time></trkpt><trkpt lat="54.7407117" lon="20.4253333"><ele>23.0</ele><time>2026-05-02T16:39:20.881Z</time></trkpt><trkpt lat="54.7408183" lon="20.425415"><ele>23.0</ele><time>2026-05-02T16:39:21.88Z</time></trkpt><trkpt lat="54.7409267" lon="20.4254683"><ele>23.0</ele><time>2026-05-02T16:39:22.88Z</time></trkpt><trkpt lat="54.7410367" lon="20.4255033"><ele>23.0</ele><time>2026-05-02T16:39:23.875Z</time></trkpt><trkpt lat="54.741145" lon="20.42552"><ele>23.0</ele><time>2026-05-02T16:39:24.878Z</time></trkpt><trkpt lat="54.7412467" lon="20.42552"><ele>23.0</ele><time>2026-05-02T16:39:25.883Z</time></trkpt><trkpt lat="54.741345" lon="20.4255217"><ele>23.2</ele><time>2026-05-02T16:39:26.878Z</time></trkpt><trkpt lat="54.7414383" lon="20.425525"><ele>23.4</ele><time>2026-05-02T16:39:27.884Z</time></trkpt><trkpt lat="54.7415317" lon="20.425555"><ele>23.599999999999998</ele><time>2026-05-02T16:39:28.877Z</time></trkpt><trkpt lat="54.7416283" lon="20.4256233"><ele>23.799999999999997</ele><time>2026-05-02T16:39:29.877Z</time></trkpt><trkpt lat="54.741725" lon="20.4257217"><ele>24.0</ele><time>2026-05-02T16:39:30.877Z</time></trkpt><trkpt lat="54.741825" lon="20.4258367"><ele>24.0</ele><time>2026-05-02T16:39:31.881Z</time></trkpt><trkpt lat="54.741935" lon="20.42596"><ele>24.0</ele><time>2026-05-02T16:39:32.879Z</time></trkpt><trkpt lat="54.742055" lon="20.426085"><ele>24.0</ele><time>2026-05-02T16:39:33.881Z</time></trkpt><trkpt lat="54.7421783" lon="20.4262167"><ele>24.0</ele><time>2026-05-02T16:39:34.872Z</time></trkpt><trkpt lat="54.7423017" lon="20.426345"><ele>24.0</ele><time>2026-05-02T16:39:35.879Z</time></trkpt><trkpt lat="54.7424233" lon="20.4264667"><ele>24.0</ele><time>2026-05-02T16:39:36.88Z</time></trkpt><trkpt lat="54.7425433" lon="20.42659"><ele>24.0</ele><time>2026-05-02T16:39:37.877Z</time></trkpt><trkpt lat="54.7426633" lon="20.4267117"><ele>24.0</ele><time>2026-05-02T16:39:38.878Z</time></trkpt><trkpt lat="54.742785" lon="20.42684"><ele>24.0</ele><time>2026-05-02T16:39:39.874Z</time></trkpt><trkpt lat="54.74291" lon="20.4269733"><ele>24.0</ele><time>2026-05-02T16:39:40.881Z</time></trkpt><trkpt lat="54.7430383" lon="20.427105"><ele>24.0</ele><time>2026-05-02T16:39:41.879Z</time></trkpt><trkpt lat="54.7431667" lon="20.4272417"><ele>24.0</ele><time>2026-05-02T16:39:42.881Z</time></trkpt><trkpt lat="54.7433" lon="20.4273767"><ele>24.0</ele><time>2026-05-02T16:39:43.878Z</time></trkpt><trkpt lat="54.743435" lon="20.427515"><ele>24.0</ele><time>2026-05-02T16:39:44.881Z</time></trkpt><trkpt lat="54.7435733" lon="20.4276617"><ele>24.0</ele><time>2026-05-02T16:39:45.877Z</time></trkpt><trkpt lat="54.743715" lon="20.4278117"><ele>24.333333333333336</ele><time>2026-05-02T16:39:46.878Z</time></trkpt><trkpt lat="54.7438567" lon="20.4279583"><ele>24.666666666666668</ele><time>2026-05-02T16:39:47.887Z</time></trkpt><trkpt lat="54.7439983" lon="20.4281083"><ele>25.0</ele><time>2026-05-02T16:39:48.874Z</time></trkpt><trkpt lat="54.7441383" lon="20.42826"><ele>25.0</ele><time>2026-05-02T16:39:49.882Z</time></trkpt><trkpt lat="54.7442733" lon="20.4284033"><ele>25.0</ele><time>2026-05-02T16:39:50.886Z</time></trkpt><trkpt lat="54.7444033" lon="20.4285367"><ele>25.0</ele><time>2026-05-02T16:39:51.881Z</time></trkpt><trkpt lat="54.744525" lon="20.4286683"><ele>25.25</ele><time>2026-05-02T16:39:52.882Z</time></trkpt><trkpt lat="54.7446433" lon="20.4287917"><ele>25.5</ele><time>2026-05-02T16:39:53.881Z</time></trkpt><trkpt lat="54.7447667" lon="20.428915"><ele>25.75</ele><time>2026-05-02T16:39:54.875Z</time></trkpt><trkpt lat="54.744895" lon="20.4290433"><ele>26.0</ele><time>2026-05-02T16:39:55.881Z</time></trkpt><trkpt lat="54.745025" lon="20.429175"><ele>26.333333333333332</ele><time>2026-05-02T16:39:56.882Z</time></trkpt><trkpt lat="54.7451617" lon="20.429315"><ele>26.666666666666664</ele><time>2026-05-02T16:39:57.875Z</time></trkpt><trkpt lat="54.7453" lon="20.4294583"><ele>27.0</ele><time>2026-05-02T16:39:58.881Z</time></trkpt><trkpt lat="54.7454433" lon="20.4296083"><ele>27.0</ele><time>2026-05-02T16:39:59.88Z</time></trkpt><trkpt lat="54.7455883" lon="20.4297567"><ele>27.0</ele><time>2026-05-02T16:40:00.873Z</time></trkpt><trkpt lat="54.7457383" lon="20.4299067"><ele>27.0</ele><time>2026-05-02T16:40:01.883Z</time></trkpt><trkpt lat="54.7458883" lon="20.43005"><ele>27.0</ele><time>2026-05-02T16:40:02.882Z</time></trkpt><trkpt lat="54.7460383" lon="20.4301983"><ele>27.0</ele><time>2026-05-02T16:40:03.874Z</time></trkpt><trkpt lat="54.7461883" lon="20.4303467"><ele>27.0</ele><time>2026-05-02T16:40:04.879Z</time></trkpt><trkpt lat="54.7463383" lon="20.4304983"><ele>27.0</ele><time>2026-05-02T16:40:05.878Z</time></trkpt><trkpt lat="54.7464883" lon="20.43065"><ele>27.0</ele><time>2026-05-02T16:40:06.88Z</time></trkpt><trkpt lat="54.7466367" lon="20.4308"><ele>27.0</ele><time>2026-05-02T16:40:07.88Z</time></trkpt><trkpt lat="54.7467833" lon="20.4309467"><ele>26.666666666666664</ele><time>2026-05-02T16:40:08.889Z</time></trkpt><trkpt lat="54.7469283" lon="20.43109"><ele>26.333333333333332</ele><time>2026-05-02T16:40:09.882Z</time></trkpt><trkpt lat="54.7470717" lon="20.4312367"><ele>26.0</ele><time>2026-05-02T16:40:10.871Z</time></trkpt><trkpt lat="54.7472133" lon="20.43138"><ele>26.0</ele><time>2026-05-02T16:40:11.889Z</time></trkpt><trkpt lat="54.7473533" lon="20.4315233"><ele>26.0</ele><time>2026-05-02T16:40:12.881Z</time></trkpt><trkpt lat="54.747495" lon="20.43167"><ele>26.0</ele><time>2026-05-02T16:40:13.886Z</time></trkpt><trkpt lat="54.7476333" lon="20.4318217"><ele>26.333333333333332</ele><time>2026-05-02T16:40:14.889Z</time></trkpt><trkpt lat="54.7477717" lon="20.4319733"><ele>26.666666666666664</ele><time>2026-05-02T16:40:15.882Z</time></trkpt><trkpt lat="54.7479067" lon="20.4321167"><ele>27.0</ele><time>2026-05-02T16:40:16.882Z</time></trkpt><trkpt lat="54.7480417" lon="20.4322683"><ele>27.0</ele><time>2026-05-02T16:40:17.885Z</time></trkpt><trkpt lat="54.748175" lon="20.43242"><ele>27.0</ele><time>2026-05-02T16:40:18.883Z</time></trkpt><trkpt lat="54.7483117" lon="20.4325783"><ele>27.0</ele><time>2026-05-02T16:40:19.883Z</time></trkpt><trkpt lat="54.74845" lon="20.4327383"><ele>27.0</ele><time>2026-05-02T16:40:20.884Z</time></trkpt><trkpt lat="54.748595" lon="20.4329"><ele>27.0</ele><time>2026-05-02T16:40:21.884Z</time></trkpt><trkpt lat="54.7487417" lon="20.43307"><ele>27.0</ele><time>2026-05-02T16:40:22.88Z</time></trkpt><trkpt lat="54.74889" lon="20.4332483"><ele>27.0</ele><time>2026-05-02T16:40:23.883Z</time></trkpt><trkpt lat="54.7490383" lon="20.4334333"><ele>27.0</ele><time>2026-05-02T16:40:24.888Z</time></trkpt><trkpt lat="54.7491883" lon="20.4336167"><ele>27.0</ele><time>2026-05-02T16:40:25.882Z</time></trkpt><trkpt lat="54.74934" lon="20.4338067"><ele>27.0</ele><time>2026-05-02T16:40:26.887Z</time></trkpt><trkpt lat="54.7494883" lon="20.4339867"><ele>27.0</ele><time>2026-05-02T16:40:27.888Z</time></trkpt><trkpt lat="54.7496383" lon="20.43418"><ele>27.0</ele><time>2026-05-02T16:40:28.881Z</time></trkpt><trkpt lat="54.749785" lon="20.434365"><ele>27.0</ele><time>2026-05-02T16:40:29.885Z</time></trkpt><trkpt lat="54.74993" lon="20.43454"><ele>27.0</ele><time>2026-05-02T16:40:30.884Z</time></trkpt><trkpt lat="54.7500733" lon="20.434715"><ele>27.0</ele><time>2026-05-02T16:40:31.879Z</time></trkpt><trkpt lat="54.7502133" lon="20.4348867"><ele>26.666666666666664</ele><time>2026-05-02T16:40:32.889Z</time></trkpt><trkpt lat="54.7503517" lon="20.4350617"><ele>26.333333333333332</ele><time>2026-05-02T16:40:33.881Z</time></trkpt><trkpt lat="54.75049" lon="20.43523"><ele>26.0</ele><time>2026-05-02T16:40:34.883Z</time></trkpt><trkpt lat="54.7506267" lon="20.4354017"><ele>26.0</ele><time>2026-05-02T16:40:35.881Z</time></trkpt><trkpt lat="54.7507633" lon="20.4355767"><ele>26.0</ele><time>2026-05-02T16:40:36.879Z</time></trkpt><trkpt lat="54.7508983" lon="20.43575"><ele>26.0</ele><time>2026-05-02T16:40:37.885Z</time></trkpt><trkpt lat="54.7510333" lon="20.4359233"><ele>26.0</ele><time>2026-05-02T16:40:38.884Z</time></trkpt><trkpt lat="54.75117" lon="20.4360933"><ele>26.0</ele><time>2026-05-02T16:40:39.879Z</time></trkpt><trkpt lat="54.75131" lon="20.43626"><ele>26.0</ele><time>2026-05-02T16:40:40.883Z</time></trkpt><trkpt lat="54.75145" lon="20.4364283"><ele>26.0</ele><time>2026-05-02T16:40:41.887Z</time></trkpt><trkpt lat="54.7515917" lon="20.4365967"><ele>26.0</ele><time>2026-05-02T16:40:42.886Z</time></trkpt><trkpt lat="54.751735" lon="20.4367633"><ele>26.0</ele><time>2026-05-02T16:40:43.885Z</time></trkpt><trkpt lat="54.75188" lon="20.436935"><ele>26.333333333333332</ele><time>2026-05-02T16:40:44.883Z</time></trkpt><trkpt lat="54.752025" lon="20.4371033"><ele>26.666666666666664</ele><time>2026-05-02T16:40:45.889Z</time></trkpt><trkpt lat="54.75217" lon="20.437265"><ele>27.0</ele><time>2026-05-02T16:40:46.883Z</time></trkpt><trkpt lat="54.7523167" lon="20.43743"><ele>27.0</ele><time>2026-05-02T16:40:47.886Z</time></trkpt><trkpt lat="54.7524617" lon="20.437595"><ele>27.0</ele><time>2026-05-02T16:40:48.888Z</time></trkpt><trkpt lat="54.752605" lon="20.4377567"><ele>27.0</ele><time>2026-05-02T16:40:49.883Z</time></trkpt><trkpt lat="54.7527467" lon="20.4379183"><ele>27.0</ele><time>2026-05-02T16:40:50.877Z</time></trkpt><trkpt lat="54.7528883" lon="20.4380833"><ele>27.0</ele><time>2026-05-02T16:40:51.884Z</time></trkpt><trkpt lat="54.753025" lon="20.438245"><ele>27.0</ele><time>2026-05-02T16:40:52.879Z</time></trkpt><trkpt lat="54.7531633" lon="20.4383983"><ele>27.0</ele><time>2026-05-02T16:40:53.883Z</time></trkpt><trkpt lat="54.7533017" lon="20.4385617"><ele>27.0</ele><time>2026-05-02T16:40:54.879Z</time></trkpt><trkpt lat="54.7534383" lon="20.4387183"><ele>27.0</ele><time>2026-05-02T16:40:55.89Z</time></trkpt><trkpt lat="54.753575" lon="20.4388783"><ele>28.0</ele><time>2026-05-02T16:40:56.882Z</time></trkpt><trkpt lat="54.7537067" lon="20.43903"><ele>29.0</ele><time>2026-05-02T16:40:57.882Z</time></trkpt><trkpt lat="54.75384" lon="20.4391833"><ele>30.0</ele><time>2026-05-02T16:40:58.88Z</time></trkpt><trkpt lat="54.75397" lon="20.43934"><ele>30.0</ele><time>2026-05-02T16:40:59.879Z</time></trkpt><trkpt lat="54.7541" lon="20.4394933"><ele>30.0</ele><time>2026-05-02T16:41:00.881Z</time></trkpt><trkpt lat="54.75423" lon="20.4396483"><ele>30.0</ele><time>2026-05-02T16:41:01.888Z</time></trkpt><trkpt lat="54.7543583" lon="20.43981"><ele>29.75</ele><time>2026-05-02T16:41:02.882Z</time></trkpt><trkpt lat="54.754485" lon="20.4399683"><ele>29.5</ele><time>2026-05-02T16:41:03.887Z</time></trkpt><trkpt lat="54.7546067" lon="20.4401283"><ele>29.25</ele><time>2026-05-02T16:41:04.88Z</time></trkpt><trkpt lat="54.7547183" lon="20.4402733"><ele>29.0</ele><time>2026-05-02T16:41:05.885Z</time></trkpt><trkpt lat="54.7548233" lon="20.4404117"><ele>29.25</ele><time>2026-05-02T16:41:06.884Z</time></trkpt><trkpt lat="54.7549233" lon="20.4405533"><ele>29.5</ele><time>2026-05-02T16:41:07.882Z</time></trkpt><trkpt lat="54.7550217" lon="20.4406967"><ele>29.75</ele><time>2026-05-02T16:41:08.877Z</time></trkpt><trkpt lat="54.75512" lon="20.44083"><ele>30.0</ele><time>2026-05-02T16:41:09.885Z</time></trkpt><trkpt lat="54.7552167" lon="20.44097"><ele>30.0</ele><time>2026-05-02T16:41:10.88Z</time></trkpt><trkpt lat="54.7553067" lon="20.4411233"><ele>30.0</ele><time>2026-05-02T16:41:11.88Z</time></trkpt><trkpt lat="54.7553867" lon="20.441275"><ele>30.0</ele><time>2026-05-02T16:41:12.878Z</time></trkpt><trkpt lat="54.75546" lon="20.4414733"><ele>30.0</ele><time>2026-05-02T16:41:13.879Z</time></trkpt><trkpt lat="54.755535" lon="20.4416933"><ele>29.666666666666664</ele><time>2026-05-02T16:41:14.887Z</time></trkpt><trkpt lat="54.755625" lon="20.4419083"><ele>29.333333333333332</ele><time>2026-05-02T16:41:15.878Z</time></trkpt><trkpt lat="54.755735" lon="20.44212"><ele>29.0</ele><time>2026-05-02T16:41:16.881Z</time></trkpt><trkpt lat="54.7558667" lon="20.4423367"><ele>29.0</ele><time>2026-05-02T16:41:17.88Z</time></trkpt><trkpt lat="54.7560067" lon="20.44256"><ele>29.0</ele><time>2026-05-02T16:41:18.883Z</time></trkpt><trkpt lat="54.75615" lon="20.442795"><ele>29.0</ele><time>2026-05-02T16:41:19.882Z</time></trkpt><trkpt lat="54.7562933" lon="20.4430417"><ele>29.0</ele><time>2026-05-02T16:41:20.885Z</time></trkpt><trkpt lat="54.7564417" lon="20.4433"><ele>29.0</ele><time>2026-05-02T16:41:21.888Z</time></trkpt><trkpt lat="54.75659" lon="20.4435717"><ele>29.0</ele><time>2026-05-02T16:41:22.881Z</time></trkpt><trkpt lat="54.75674" lon="20.4438583"><ele>29.0</ele><time>2026-05-02T16:41:23.888Z</time></trkpt><trkpt lat="54.7568867" lon="20.4441417"><ele>29.0</ele><time>2026-05-02T16:41:24.888Z</time></trkpt><trkpt lat="54.7570367" lon="20.44443"><ele>29.0</ele><time>2026-05-02T16:41:25.881Z</time></trkpt><trkpt lat="54.7571833" lon="20.4447317"><ele>28.5</ele><time>2026-05-02T16:41:26.887Z</time></trkpt><trkpt lat="54.75733" lon="20.4450333"><ele>28.0</ele><time>2026-05-02T16:41:27.882Z</time></trkpt><trkpt lat="54.7574783" lon="20.445345"><ele>27.5</ele><time>2026-05-02T16:41:28.882Z</time></trkpt><trkpt lat="54.757625" lon="20.445665"><ele>27.0</ele><time>2026-05-02T16:41:29.883Z</time></trkpt><trkpt lat="54.75777" lon="20.44599"><ele>28.0</ele><time>2026-05-02T16:41:30.885Z</time></trkpt><trkpt lat="54.7579117" lon="20.44632"><ele>29.0</ele><time>2026-05-02T16:41:31.884Z</time></trkpt><trkpt lat="54.7580517" lon="20.44666"><ele>29.0</ele><time>2026-05-02T16:41:32.889Z</time></trkpt><trkpt lat="54.7581883" lon="20.4470083"><ele>29.0</ele><time>2026-05-02T16:41:33.888Z</time></trkpt><trkpt lat="54.758325" lon="20.4473567"><ele>29.0</ele><time>2026-05-02T16:41:34.882Z</time></trkpt><trkpt lat="54.7584617" lon="20.447705"><ele>29.0</ele><time>2026-05-02T16:41:35.881Z</time></trkpt><trkpt lat="54.7585967" lon="20.44807"><ele>29.0</ele><time>2026-05-02T16:41:36.881Z</time></trkpt><trkpt lat="54.7587283" lon="20.448435"><ele>29.0</ele><time>2026-05-02T16:41:37.879Z</time></trkpt><trkpt lat="54.75886" lon="20.4488083"><ele>29.0</ele><time>2026-05-02T16:41:38.887Z</time></trkpt><trkpt lat="54.7589883" lon="20.4491933"><ele>29.0</ele><time>2026-05-02T16:41:39.885Z</time></trkpt><trkpt lat="54.7591183" lon="20.4495767"><ele>29.0</ele><time>2026-05-02T16:41:40.877Z</time></trkpt><trkpt lat="54.7592433" lon="20.4499717"><ele>29.0</ele><time>2026-05-02T16:41:41.886Z</time></trkpt><trkpt lat="54.7593683" lon="20.4503683"><ele>28.5</ele><time>2026-05-02T16:41:42.882Z</time></trkpt><trkpt lat="54.7594883" lon="20.45077"><ele>28.0</ele><time>2026-05-02T16:41:43.881Z</time></trkpt><trkpt lat="54.759605" lon="20.4511783"><ele>27.5</ele><time>2026-05-02T16:41:44.884Z</time></trkpt><trkpt lat="54.7597183" lon="20.45159"><ele>27.0</ele><time>2026-05-02T16:41:45.879Z</time></trkpt><trkpt lat="54.7598283" lon="20.4520017"><ele>27.0</ele><time>2026-05-02T16:41:46.883Z</time></trkpt><trkpt lat="54.7599367" lon="20.4524183"><ele>27.0</ele><time>2026-05-02T16:41:47.883Z</time></trkpt><trkpt lat="54.7600433" lon="20.4528467"><ele>27.0</ele><time>2026-05-02T16:41:48.885Z</time></trkpt><trkpt lat="54.7601467" lon="20.45328"><ele>27.0</ele><time>2026-05-02T16:41:49.882Z</time></trkpt><trkpt lat="54.7602483" lon="20.45372"><ele>27.5</ele><time>2026-05-02T16:41:50.885Z</time></trkpt><trkpt lat="54.76035" lon="20.4541683"><ele>28.0</ele><time>2026-05-02T16:41:51.883Z</time></trkpt><trkpt lat="54.7604467" lon="20.454625"><ele>28.0</ele><time>2026-05-02T16:41:52.883Z</time></trkpt><trkpt lat="54.7605417" lon="20.45508"><ele>28.0</ele><time>2026-05-02T16:41:53.884Z</time></trkpt><trkpt lat="54.76063" lon="20.45554"><ele>28.0</ele><time>2026-05-02T16:41:54.88Z</time></trkpt><trkpt lat="54.7607133" lon="20.456005"><ele>28.0</ele><time>2026-05-02T16:41:55.879Z</time></trkpt><trkpt lat="54.7607917" lon="20.45647"><ele>28.0</ele><time>2026-05-02T16:41:56.881Z</time></trkpt><trkpt lat="54.7608633" lon="20.456935"><ele>28.0</ele><time>2026-05-02T16:41:57.885Z</time></trkpt><trkpt lat="54.7609333" lon="20.4573933"><ele>28.5</ele><time>2026-05-02T16:41:58.886Z</time></trkpt><trkpt lat="54.761" lon="20.45785"><ele>29.0</ele><time>2026-05-02T16:41:59.879Z</time></trkpt><trkpt lat="54.7610617" lon="20.4583067"><ele>29.0</ele><time>2026-05-02T16:42:00.888Z</time></trkpt><trkpt lat="54.7611217" lon="20.4587617"><ele>29.0</ele><time>2026-05-02T16:42:01.88Z</time></trkpt><trkpt lat="54.7611833" lon="20.459215"><ele>27.0</ele><time>2026-05-02T16:42:02.882Z</time></trkpt><trkpt lat="54.7612467" lon="20.4596667"><ele>25.0</ele><time>2026-05-02T16:42:03.883Z</time></trkpt><trkpt lat="54.7613117" lon="20.4601133"><ele>26.0</ele><time>2026-05-02T16:42:04.882Z</time></trkpt><trkpt lat="54.76138" lon="20.4605517"><ele>27.0</ele><time>2026-05-02T16:42:05.882Z</time></trkpt><trkpt lat="54.7614517" lon="20.46099"><ele>27.5</ele><time>2026-05-02T16:42:06.883Z</time></trkpt><trkpt lat="54.761525" lon="20.4614267"><ele>28.0</ele><time>2026-05-02T16:42:07.883Z</time></trkpt><trkpt lat="54.7615983" lon="20.4618567"><ele>28.5</ele><time>2026-05-02T16:42:08.882Z</time></trkpt><trkpt lat="54.761675" lon="20.462285"><ele>29.0</ele><time>2026-05-02T16:42:09.884Z</time></trkpt><trkpt lat="54.7617533" lon="20.462715"><ele>29.5</ele><time>2026-05-02T16:42:10.888Z</time></trkpt><trkpt lat="54.7618333" lon="20.463145"><ele>30.0</ele><time>2026-05-02T16:42:11.883Z</time></trkpt><trkpt lat="54.7619117" lon="20.4635733"><ele>30.5</ele><time>2026-05-02T16:42:12.878Z</time></trkpt><trkpt lat="54.7619883" lon="20.4640033"><ele>31.0</ele><time>2026-05-02T16:42:13.879Z</time></trkpt><trkpt lat="54.762065" lon="20.4644183"><ele>30.5</ele><time>2026-05-02T16:42:14.887Z</time></trkpt><trkpt lat="54.7621417" lon="20.464825"><ele>30.0</ele><time>2026-05-02T16:42:15.882Z</time></trkpt><trkpt lat="54.762215" lon="20.4652133"><ele>30.0</ele><time>2026-05-02T16:42:16.88Z</time></trkpt><trkpt lat="54.7622917" lon="20.4655833"><ele>30.0</ele><time>2026-05-02T16:42:17.892Z</time></trkpt><trkpt lat="54.7623667" lon="20.4659283"><ele>30.0</ele><time>2026-05-02T16:42:18.888Z</time></trkpt><trkpt lat="54.7624383" lon="20.4662533"><ele>30.333333333333336</ele><time>2026-05-02T16:42:19.878Z</time></trkpt><trkpt lat="54.76251" lon="20.4665667"><ele>30.666666666666668</ele><time>2026-05-02T16:42:20.884Z</time></trkpt><trkpt lat="54.762575" lon="20.4668617"><ele>31.0</ele><time>2026-05-02T16:42:21.885Z</time></trkpt><trkpt lat="54.7626383" lon="20.467145"><ele>31.0</ele><time>2026-05-02T16:42:22.877Z</time></trkpt><trkpt lat="54.7626967" lon="20.4673983"><ele>31.0</ele><time>2026-05-02T16:42:23.881Z</time></trkpt><trkpt lat="54.7627483" lon="20.46764"><ele>31.0</ele><time>2026-05-02T16:42:24.884Z</time></trkpt><trkpt lat="54.7627933" lon="20.467865"><ele>31.0</ele><time>2026-05-02T16:42:25.878Z</time></trkpt><trkpt lat="54.7628233" lon="20.468085"><ele>31.0</ele><time>2026-05-02T16:42:26.882Z</time></trkpt><trkpt lat="54.7628367" lon="20.4683"><ele>31.0</ele><time>2026-05-02T16:42:27.884Z</time></trkpt><trkpt lat="54.7628333" lon="20.46852"><ele>31.0</ele><time>2026-05-02T16:42:28.886Z</time></trkpt><trkpt lat="54.7628117" lon="20.46874"><ele>31.0</ele><time>2026-05-02T16:42:29.88Z</time></trkpt><trkpt lat="54.7627683" lon="20.468955"><ele>31.0</ele><time>2026-05-02T16:42:30.881Z</time></trkpt><trkpt lat="54.762705" lon="20.4691633"><ele>31.0</ele><time>2026-05-02T16:42:31.878Z</time></trkpt><trkpt lat="54.7626283" lon="20.4693567"><ele>31.0</ele><time>2026-05-02T16:42:32.887Z</time></trkpt><trkpt lat="54.762535" lon="20.4695317"><ele>31.0</ele><time>2026-05-02T16:42:33.886Z</time></trkpt><trkpt lat="54.7624233" lon="20.4696867"><ele>31.333333333333336</ele><time>2026-05-02T16:42:34.882Z</time></trkpt><trkpt lat="54.7622967" lon="20.469815"><ele>31.666666666666664</ele><time>2026-05-02T16:42:35.884Z</time></trkpt><trkpt lat="54.762155" lon="20.4699117"><ele>32.0</ele><time>2026-05-02T16:42:36.884Z</time></trkpt><trkpt lat="54.762" lon="20.469975"><ele>32.0</ele><time>2026-05-02T16:42:37.878Z</time></trkpt><trkpt lat="54.7618383" lon="20.470015"><ele>32.0</ele><time>2026-05-02T16:42:38.884Z</time></trkpt><trkpt lat="54.7616683" lon="20.4700433"><ele>32.0</ele><time>2026-05-02T16:42:39.873Z</time></trkpt><trkpt lat="54.76149" lon="20.470075"><ele>32.0</ele><time>2026-05-02T16:42:40.875Z</time></trkpt><trkpt lat="54.7613083" lon="20.4701083"><ele>32.0</ele><time>2026-05-02T16:42:41.888Z</time></trkpt><trkpt lat="54.7611167" lon="20.4701417"><ele>32.0</ele><time>2026-05-02T16:42:42.875Z</time></trkpt><trkpt lat="54.76092" lon="20.470175"><ele>32.33333333333333</ele><time>2026-05-02T16:42:43.882Z</time></trkpt><trkpt lat="54.7607167" lon="20.4702067"><ele>32.666666666666664</ele><time>2026-05-02T16:42:44.887Z</time></trkpt><trkpt lat="54.7605083" lon="20.4702383"><ele>33.0</ele><time>2026-05-02T16:42:45.882Z</time></trkpt><trkpt lat="54.7602933" lon="20.4702683"><ele>31.666666666666664</ele><time>2026-05-02T16:42:46.881Z</time></trkpt><trkpt lat="54.76008" lon="20.4703083"><ele>30.333333333333332</ele><time>2026-05-02T16:42:47.883Z</time></trkpt><trkpt lat="54.7598633" lon="20.4703483"><ele>29.0</ele><time>2026-05-02T16:42:48.883Z</time></trkpt><trkpt lat="54.7596517" lon="20.4704017"><ele>29.0</ele><time>2026-05-02T16:42:49.886Z</time></trkpt><trkpt lat="54.75944" lon="20.47046"><ele>29.0</ele><time>2026-05-02T16:42:50.886Z</time></trkpt><trkpt lat="54.7592317" lon="20.47053"><ele>29.0</ele><time>2026-05-02T16:42:51.885Z</time></trkpt><trkpt lat="54.75902" lon="20.4706017"><ele>28.666666666666664</ele><time>2026-05-02T16:42:52.88Z</time></trkpt><trkpt lat="54.75881" lon="20.4706867"><ele>28.333333333333336</ele><time>2026-05-02T16:42:53.882Z</time></trkpt><trkpt lat="54.7586" lon="20.4707767"><ele>28.0</ele><time>2026-05-02T16:42:54.878Z</time></trkpt><trkpt lat="54.758385" lon="20.47087"><ele>28.0</ele><time>2026-05-02T16:42:55.871Z</time></trkpt><trkpt lat="54.758175" lon="20.470975"><ele>28.0</ele><time>2026-05-02T16:42:56.88Z</time></trkpt><trkpt lat="54.75796" lon="20.4710833"><ele>28.0</ele><time>2026-05-02T16:42:57.874Z</time></trkpt><trkpt lat="54.75775" lon="20.4712033"><ele>29.666666666666668</ele><time>2026-05-02T16:42:58.873Z</time></trkpt><trkpt lat="54.7575433" lon="20.47133"><ele>31.333333333333336</ele><time>2026-05-02T16:42:59.873Z</time></trkpt><trkpt lat="54.7573383" lon="20.471465"><ele>33.0</ele><time>2026-05-02T16:43:00.876Z</time></trkpt><trkpt lat="54.757135" lon="20.47161"><ele>33.0</ele><time>2026-05-02T16:43:01.874Z</time></trkpt><trkpt lat="54.756935" lon="20.4717583"><ele>33.0</ele><time>2026-05-02T16:43:02.877Z</time></trkpt><trkpt lat="54.7567367" lon="20.47191"><ele>33.0</ele><time>2026-05-02T16:43:03.874Z</time></trkpt><trkpt lat="54.7565433" lon="20.47207"><ele>33.666666666666664</ele><time>2026-05-02T16:43:04.88Z</time></trkpt><trkpt lat="54.7563533" lon="20.47223"><ele>34.33333333333333</ele><time>2026-05-02T16:43:05.876Z</time></trkpt><trkpt lat="54.75616" lon="20.4723933"><ele>35.0</ele><time>2026-05-02T16:43:06.88Z</time></trkpt><trkpt lat="54.7559667" lon="20.47255"><ele>35.0</ele><time>2026-05-02T16:43:07.884Z</time></trkpt><trkpt lat="54.7557817" lon="20.4727133"><ele>35.0</ele><time>2026-05-02T16:43:08.885Z</time></trkpt><trkpt lat="54.7555983" lon="20.4728783"><ele>35.0</ele><time>2026-05-02T16:43:09.887Z</time></trkpt><trkpt lat="54.7554133" lon="20.47304"><ele>35.0</ele><time>2026-05-02T16:43:10.883Z</time></trkpt><trkpt lat="54.755235" lon="20.4732"><ele>35.0</ele><time>2026-05-02T16:43:11.876Z</time></trkpt><trkpt lat="54.7550567" lon="20.47336"><ele>35.0</ele><time>2026-05-02T16:43:12.889Z</time></trkpt><trkpt lat="54.7548717" lon="20.4735167"><ele>33.0</ele><time>2026-05-02T16:43:13.886Z</time></trkpt><trkpt lat="54.75469" lon="20.4736767"><ele>31.0</ele><time>2026-05-02T16:43:14.883Z</time></trkpt><trkpt lat="54.75451" lon="20.473835"><ele>29.0</ele><time>2026-05-02T16:43:15.877Z</time></trkpt><trkpt lat="54.7543283" lon="20.4739933"><ele>28.333333333333332</ele><time>2026-05-02T16:43:16.882Z</time></trkpt><trkpt lat="54.7541517" lon="20.474155"><ele>27.666666666666664</ele><time>2026-05-02T16:43:17.877Z</time></trkpt><trkpt lat="54.753975" lon="20.4743067"><ele>27.0</ele><time>2026-05-02T16:43:18.889Z</time></trkpt><trkpt lat="54.753795" lon="20.4744633"><ele>27.0</ele><time>2026-05-02T16:43:19.882Z</time></trkpt><trkpt lat="54.7536117" lon="20.47462"><ele>27.0</ele><time>2026-05-02T16:43:20.875Z</time></trkpt><trkpt lat="54.7534317" lon="20.47478"><ele>27.0</ele><time>2026-05-02T16:43:21.882Z</time></trkpt><trkpt lat="54.75325" lon="20.4749383"><ele>27.0</ele><time>2026-05-02T16:43:22.883Z</time></trkpt><trkpt lat="54.7530667" lon="20.475095"><ele>27.0</ele><time>2026-05-02T16:43:23.88Z</time></trkpt><trkpt lat="54.75289" lon="20.4752517"><ele>27.0</ele><time>2026-05-02T16:43:24.882Z</time></trkpt><trkpt lat="54.752705" lon="20.4754067"><ele>26.666666666666664</ele><time>2026-05-02T16:43:25.882Z</time></trkpt><trkpt lat="54.7525267" lon="20.4755633"><ele>26.333333333333332</ele><time>2026-05-02T16:43:26.881Z</time></trkpt><trkpt lat="54.7523367" lon="20.4757233"><ele>26.0</ele><time>2026-05-02T16:43:27.88Z</time></trkpt><trkpt lat="54.7521467" lon="20.4758883"><ele>26.0</ele><time>2026-05-02T16:43:28.882Z</time></trkpt><trkpt lat="54.7519533" lon="20.4760583"><ele>26.0</ele><time>2026-05-02T16:43:29.879Z</time></trkpt><trkpt lat="54.7517583" lon="20.4762267"><ele>26.0</ele><time>2026-05-02T16:43:30.884Z</time></trkpt><trkpt lat="54.75156" lon="20.476395"><ele>25.666666666666664</ele><time>2026-05-02T16:43:31.885Z</time></trkpt><trkpt lat="54.7513617" lon="20.4765667"><ele>25.333333333333336</ele><time>2026-05-02T16:43:32.883Z</time></trkpt><trkpt lat="54.7511633" lon="20.4767333"><ele>25.0</ele><time>2026-05-02T16:43:33.88Z</time></trkpt><trkpt lat="54.7509683" lon="20.4769"><ele>25.0</ele><time>2026-05-02T16:43:34.883Z</time></trkpt><trkpt lat="54.7507733" lon="20.477065"><ele>25.0</ele><time>2026-05-02T16:43:35.885Z</time></trkpt><trkpt lat="54.75058" lon="20.477225"><ele>25.0</ele><time>2026-05-02T16:43:36.884Z</time></trkpt><trkpt lat="54.75039" lon="20.4773817"><ele>25.333333333333336</ele><time>2026-05-02T16:43:37.884Z</time></trkpt><trkpt lat="54.7502017" lon="20.4775333"><ele>25.666666666666664</ele><time>2026-05-02T16:43:38.88Z</time></trkpt><trkpt lat="54.750015" lon="20.477685"><ele>26.0</ele><time>2026-05-02T16:43:39.887Z</time></trkpt><trkpt lat="54.7498367" lon="20.477835"><ele>25.666666666666664</ele><time>2026-05-02T16:43:40.881Z</time></trkpt><trkpt lat="54.7496517" lon="20.4779833"><ele>25.333333333333336</ele><time>2026-05-02T16:43:41.887Z</time></trkpt><trkpt lat="54.7494717" lon="20.4781317"><ele>25.0</ele><time>2026-05-02T16:43:42.882Z</time></trkpt><trkpt lat="54.7492933" lon="20.4782833"><ele>24.666666666666668</ele><time>2026-05-02T16:43:43.885Z</time></trkpt><trkpt lat="54.7491133" lon="20.47843"><ele>24.333333333333336</ele><time>2026-05-02T16:43:44.894Z</time></trkpt><trkpt lat="54.7489417" lon="20.478585"><ele>24.0</ele><time>2026-05-02T16:43:45.887Z</time></trkpt><trkpt lat="54.7487767" lon="20.478735"><ele>24.0</ele><time>2026-05-02T16:43:46.88Z</time></trkpt><trkpt lat="54.748615" lon="20.4788833"><ele>24.0</ele><time>2026-05-02T16:43:47.88Z</time></trkpt><trkpt lat="54.748455" lon="20.4790233"><ele>24.0</ele><time>2026-05-02T16:43:48.884Z</time></trkpt><trkpt lat="54.748305" lon="20.479155"><ele>24.0</ele><time>2026-05-02T16:43:49.884Z</time></trkpt><trkpt lat="54.748165" lon="20.4792833"><ele>24.0</ele><time>2026-05-02T16:43:50.889Z</time></trkpt><trkpt lat="54.7480283" lon="20.4794017"><ele>24.0</ele><time>2026-05-02T16:43:51.884Z</time></trkpt><trkpt lat="54.7479" lon="20.4795117"><ele>23.75</ele><time>2026-05-02T16:43:52.883Z</time></trkpt><trkpt lat="54.74778" lon="20.47962"><ele>23.5</ele><time>2026-05-02T16:43:53.886Z</time></trkpt><trkpt lat="54.7476667" lon="20.47972"><ele>23.25</ele><time>2026-05-02T16:43:54.885Z</time></trkpt><trkpt lat="54.7475583" lon="20.4798067"><ele>23.0</ele><time>2026-05-02T16:43:55.874Z</time></trkpt><trkpt lat="54.7474533" lon="20.4798933"><ele>23.0</ele><time>2026-05-02T16:43:56.876Z</time></trkpt><trkpt lat="54.7473467" lon="20.47997"><ele>23.0</ele><time>2026-05-02T16:43:57.881Z</time></trkpt><trkpt lat="54.7472333" lon="20.4800283"><ele>23.0</ele><time>2026-05-02T16:43:58.883Z</time></trkpt><trkpt lat="54.747125" lon="20.4800517"><ele>23.0</ele><time>2026-05-02T16:43:59.877Z</time></trkpt><trkpt lat="54.747025" lon="20.4800567"><ele>23.0</ele><time>2026-05-02T16:44:00.883Z</time></trkpt><trkpt lat="54.7469283" lon="20.4800633"><ele>23.0</ele><time>2026-05-02T16:44:01.88Z</time></trkpt><trkpt lat="54.7468283" lon="20.480095"><ele>23.0</ele><time>2026-05-02T16:44:02.887Z</time></trkpt><trkpt lat="54.7467483" lon="20.4801767"><ele>23.0</ele><time>2026-05-02T16:44:03.88Z</time></trkpt><trkpt lat="54.7466867" lon="20.4803033"><ele>23.0</ele><time>2026-05-02T16:44:04.881Z</time></trkpt><trkpt lat="54.7466433" lon="20.4804517"><ele>23.0</ele><time>2026-05-02T16:44:05.885Z</time></trkpt><trkpt lat="54.746605" lon="20.4806"><ele>23.0</ele><time>2026-05-02T16:44:06.882Z</time></trkpt><trkpt lat="54.7465417" lon="20.4807383"><ele>23.0</ele><time>2026-05-02T16:44:07.882Z</time></trkpt><trkpt lat="54.7464567" lon="20.4808583"><ele>23.0</ele><time>2026-05-02T16:44:08.884Z</time></trkpt><trkpt lat="54.7463683" lon="20.4809517"><ele>23.0</ele><time>2026-05-02T16:44:09.88Z</time></trkpt><trkpt lat="54.7462867" lon="20.4810333"><ele>23.0</ele><time>2026-05-02T16:44:10.879Z</time></trkpt><trkpt lat="54.7462067" lon="20.4811083"><ele>23.0</ele><time>2026-05-02T16:44:11.883Z</time></trkpt><trkpt lat="54.74613" lon="20.48119"><ele>23.0</ele><time>2026-05-02T16:44:12.878Z</time></trkpt><trkpt lat="54.7460483" lon="20.4812717"><ele>23.0</ele><time>2026-05-02T16:44:13.88Z</time></trkpt><trkpt lat="54.74595" lon="20.48137"><ele>23.0</ele><time>2026-05-02T16:44:14.881Z</time></trkpt><trkpt lat="54.7458433" lon="20.4814783"><ele>23.0</ele><time>2026-05-02T16:44:15.88Z</time></trkpt><trkpt lat="54.74573" lon="20.4815967"><ele>23.5</ele><time>2026-05-02T16:44:16.879Z</time></trkpt><trkpt lat="54.7456183" lon="20.4817167"><ele>24.0</ele><time>2026-05-02T16:44:17.88Z</time></trkpt><trkpt lat="54.7455067" lon="20.4818283"><ele>24.5</ele><time>2026-05-02T16:44:18.881Z</time></trkpt><trkpt lat="54.7453883" lon="20.4819317"><ele>25.0</ele><time>2026-05-02T16:44:19.884Z</time></trkpt><trkpt lat="54.7452817" lon="20.482045"><ele>25.0</ele><time>2026-05-02T16:44:20.89Z</time></trkpt><trkpt lat="54.74517" lon="20.4821533"><ele>25.0</ele><time>2026-05-02T16:44:21.889Z</time></trkpt><trkpt lat="54.745055" lon="20.48226"><ele>25.0</ele><time>2026-05-02T16:44:22.884Z</time></trkpt><trkpt lat="54.7449417" lon="20.4823683"><ele>25.0</ele><time>2026-05-02T16:44:23.887Z</time></trkpt><trkpt lat="54.7448333" lon="20.4824717"><ele>25.0</ele><time>2026-05-02T16:44:24.883Z</time></trkpt><trkpt lat="54.7447233" lon="20.4825767"><ele>25.0</ele><time>2026-05-02T16:44:25.885Z</time></trkpt><trkpt lat="54.7446117" lon="20.4826867"><ele>25.0</ele><time>2026-05-02T16:44:26.882Z</time></trkpt><trkpt lat="54.7444983" lon="20.4828"><ele>25.0</ele><time>2026-05-02T16:44:27.881Z</time></trkpt><trkpt lat="54.7443817" lon="20.4829133"><ele>25.0</ele><time>2026-05-02T16:44:28.879Z</time></trkpt><trkpt lat="54.7442667" lon="20.4830267"><ele>25.0</ele><time>2026-05-02T16:44:29.879Z</time></trkpt><trkpt lat="54.7441583" lon="20.4831333"><ele>25.0</ele><time>2026-05-02T16:44:30.877Z</time></trkpt><trkpt lat="54.7440483" lon="20.48324"><ele>25.0</ele><time>2026-05-02T16:44:31.88Z</time></trkpt><trkpt lat="54.74394" lon="20.483355"><ele>25.0</ele><time>2026-05-02T16:44:32.884Z</time></trkpt><trkpt lat="54.7438267" lon="20.4834667"><ele>25.0</ele><time>2026-05-02T16:44:33.884Z</time></trkpt><trkpt lat="54.7437083" lon="20.483575"><ele>25.0</ele><time>2026-05-02T16:44:34.879Z</time></trkpt><trkpt lat="54.7435917" lon="20.483685"><ele>25.0</ele><time>2026-05-02T16:44:35.884Z</time></trkpt><trkpt lat="54.743485" lon="20.4837967"><ele>25.25</ele><time>2026-05-02T16:44:36.883Z</time></trkpt><trkpt lat="54.7433733" lon="20.48391"><ele>25.5</ele><time>2026-05-02T16:44:37.88Z</time></trkpt><trkpt lat="54.7432683" lon="20.4840183"><ele>25.75</ele><time>2026-05-02T16:44:38.884Z</time></trkpt><trkpt lat="54.7431633" lon="20.4841283"><ele>26.0</ele><time>2026-05-02T16:44:39.883Z</time></trkpt><trkpt lat="54.743045" lon="20.48424"><ele>26.0</ele><time>2026-05-02T16:44:40.879Z</time></trkpt><trkpt lat="54.74293" lon="20.48435"><ele>26.0</ele><time>2026-05-02T16:44:41.887Z</time></trkpt><trkpt lat="54.7428133" lon="20.4844633"><ele>26.0</ele><time>2026-05-02T16:44:42.879Z</time></trkpt><trkpt lat="54.742685" lon="20.48458"><ele>26.0</ele><time>2026-05-02T16:44:43.879Z</time></trkpt><trkpt lat="54.74255" lon="20.4846967"><ele>25.0</ele><time>2026-05-02T16:44:44.887Z</time></trkpt><trkpt lat="54.7424117" lon="20.484815"><ele>24.0</ele><time>2026-05-02T16:44:45.886Z</time></trkpt><trkpt lat="54.742275" lon="20.4849433"><ele>23.0</ele><time>2026-05-02T16:44:46.884Z</time></trkpt><trkpt lat="54.7421433" lon="20.4850733"><ele>23.0</ele><time>2026-05-02T16:44:47.884Z</time></trkpt><trkpt lat="54.742015" lon="20.4852"><ele>23.0</ele><time>2026-05-02T16:44:48.887Z</time></trkpt><trkpt lat="54.7418867" lon="20.4853233"><ele>23.0</ele><time>2026-05-02T16:44:49.878Z</time></trkpt><trkpt lat="54.741755" lon="20.4854367"><ele>23.0</ele><time>2026-05-02T16:44:50.884Z</time></trkpt><trkpt lat="54.7416233" lon="20.485535"><ele>23.0</ele><time>2026-05-02T16:44:51.883Z</time></trkpt><trkpt lat="54.7414933" lon="20.48562"><ele>23.0</ele><time>2026-05-02T16:44:52.88Z</time></trkpt><trkpt lat="54.7413517" lon="20.4856933"><ele>23.0</ele><time>2026-05-02T16:44:53.88Z</time></trkpt><trkpt lat="54.7412067" lon="20.48575"><ele>23.0</ele><time>2026-05-02T16:44:54.878Z</time></trkpt><trkpt lat="54.7410567" lon="20.4857883"><ele>23.666666666666668</ele><time>2026-05-02T16:44:55.881Z</time></trkpt><trkpt lat="54.7409017" lon="20.485825"><ele>24.333333333333336</ele><time>2026-05-02T16:44:56.889Z</time></trkpt><trkpt lat="54.7407467" lon="20.4858533"><ele>25.0</ele><time>2026-05-02T16:44:57.88Z</time></trkpt><trkpt lat="54.7405933" lon="20.4858817"><ele>25.0</ele><time>2026-05-02T16:44:58.886Z</time></trkpt><trkpt lat="54.7404383" lon="20.48591"><ele>25.0</ele><time>2026-05-02T16:44:59.884Z</time></trkpt><trkpt lat="54.740285" lon="20.4859233"><ele>25.0</ele><time>2026-05-02T16:45:00.886Z</time></trkpt><trkpt lat="54.7401317" lon="20.48594"><ele>25.25</ele><time>2026-05-02T16:45:01.884Z</time></trkpt><trkpt lat="54.7399783" lon="20.4859467"><ele>25.5</ele><time>2026-05-02T16:45:02.885Z</time></trkpt><trkpt lat="54.7398267" lon="20.4859533"><ele>25.75</ele><time>2026-05-02T16:45:03.876Z</time></trkpt><trkpt lat="54.739685" lon="20.48597"><ele>26.0</ele><time>2026-05-02T16:45:04.879Z</time></trkpt><trkpt lat="54.7395583" lon="20.4859783"><ele>26.0</ele><time>2026-05-02T16:45:05.885Z</time></trkpt><trkpt lat="54.7394433" lon="20.4859817"><ele>26.0</ele><time>2026-05-02T16:45:06.881Z</time></trkpt><trkpt lat="54.7393333" lon="20.486"><ele>26.0</ele><time>2026-05-02T16:45:07.881Z</time></trkpt><trkpt lat="54.7392383" lon="20.4860233"><ele>26.0</ele><time>2026-05-02T16:45:08.883Z</time></trkpt><trkpt lat="54.7391533" lon="20.486035"><ele>26.0</ele><time>2026-05-02T16:45:09.886Z</time></trkpt><trkpt lat="54.73908" lon="20.486045"><ele>25.8</ele><time>2026-05-02T16:45:10.879Z</time></trkpt><trkpt lat="54.7389767" lon="20.4860617"><ele>25.6</ele><time>2026-05-02T16:45:12.876Z</time></trkpt><trkpt lat="54.738895" lon="20.4860733"><ele>25.4</ele><time>2026-05-02T16:45:14.88Z</time></trkpt><trkpt lat="54.738815" lon="20.4860667"><ele>25.2</ele><time>2026-05-02T16:45:26.878Z</time></trkpt><trkpt lat="54.7387483" lon="20.48609"><ele>25.0</ele><time>2026-05-02T16:45:28.88Z</time></trkpt><trkpt lat="54.738615" lon="20.4861083"><ele>24.8</ele><time>2026-05-02T16:45:30.886Z</time></trkpt><trkpt lat="54.738515" lon="20.4860933"><ele>24.6</ele><time>2026-05-02T16:45:31.881Z</time></trkpt><trkpt lat="54.7384483" lon="20.4861517"><ele>24.4</ele><time>2026-05-02T16:45:32.887Z</time></trkpt><trkpt lat="54.73838" lon="20.486235"><ele>24.2</ele><time>2026-05-02T16:45:33.883Z</time></trkpt><trkpt lat="54.7383133" lon="20.4863433"><ele>24.0</ele><time>2026-05-02T16:45:34.883Z</time></trkpt><trkpt lat="54.738245" lon="20.4864833"><ele>24.0</ele><time>2026-05-02T16:45:35.883Z</time></trkpt><trkpt lat="54.7381717" lon="20.4866133"><ele>24.0</ele><time>2026-05-02T16:45:36.881Z</time></trkpt><trkpt lat="54.7381083" lon="20.4867317"><ele>24.0</ele><time>2026-05-02T16:45:37.881Z</time></trkpt><trkpt lat="54.7380533" lon="20.4868467"><ele>24.0</ele><time>2026-05-02T16:45:38.878Z</time></trkpt><trkpt lat="54.737995" lon="20.4869783"><ele>24.0</ele><time>2026-05-02T16:45:39.881Z</time></trkpt><trkpt lat="54.7379367" lon="20.487105"><ele>23.833333333333332</ele><time>2026-05-02T16:45:40.882Z</time></trkpt><trkpt lat="54.7378933" lon="20.487235"><ele>23.666666666666668</ele><time>2026-05-02T16:45:41.884Z</time></trkpt><trkpt lat="54.7378533" lon="20.48737"><ele>23.5</ele><time>2026-05-02T16:45:42.887Z</time></trkpt><trkpt lat="54.73782" lon="20.4874967"><ele>23.333333333333336</ele><time>2026-05-02T16:45:43.881Z</time></trkpt><trkpt lat="54.7377967" lon="20.4876117"><ele>23.166666666666668</ele><time>2026-05-02T16:45:44.884Z</time></trkpt><trkpt lat="54.737775" lon="20.4877183"><ele>23.0</ele><time>2026-05-02T16:45:45.888Z</time></trkpt><trkpt lat="54.7377383" lon="20.487905"><ele>23.2</ele><time>2026-05-02T16:45:47.88Z</time></trkpt><trkpt lat="54.7377133" lon="20.488025"><ele>23.4</ele><time>2026-05-02T16:45:49.888Z</time></trkpt><trkpt lat="54.7376917" lon="20.4881583"><ele>23.599999999999998</ele><time>2026-05-02T16:45:52.883Z</time></trkpt><trkpt lat="54.7376633" lon="20.4883167"><ele>23.799999999999997</ele><time>2026-05-02T16:45:54.881Z</time></trkpt><trkpt lat="54.737615" lon="20.4885267"><ele>24.0</ele><time>2026-05-02T16:45:56.89Z</time></trkpt><trkpt lat="54.7375883" lon="20.48866"><ele>24.2</ele><time>2026-05-02T16:45:57.882Z</time></trkpt><trkpt lat="54.73757" lon="20.4887983"><ele>24.4</ele><time>2026-05-02T16:45:58.884Z</time></trkpt><trkpt lat="54.7375483" lon="20.48896"><ele>24.6</ele><time>2026-05-02T16:45:59.886Z</time></trkpt><trkpt lat="54.737515" lon="20.4891467"><ele>24.8</ele><time>2026-05-02T16:46:00.879Z</time></trkpt><trkpt lat="54.7374767" lon="20.4893567"><ele>25.0</ele><time>2026-05-02T16:46:01.881Z</time></trkpt><trkpt lat="54.73743" lon="20.4895933"><ele>25.0</ele><time>2026-05-02T16:46:02.881Z</time></trkpt><trkpt lat="54.7373817" lon="20.489855"><ele>25.0</ele><time>2026-05-02T16:46:03.882Z</time></trkpt><trkpt lat="54.7373283" lon="20.4901333"><ele>25.0</ele><time>2026-05-02T16:46:04.886Z</time></trkpt><trkpt lat="54.7372683" lon="20.4904417"><ele>24.333333333333336</ele><time>2026-05-02T16:46:05.884Z</time></trkpt><trkpt lat="54.7372083" lon="20.4907417"><ele>23.666666666666668</ele><time>2026-05-02T16:46:06.883Z</time></trkpt><trkpt lat="54.73715" lon="20.4910433"><ele>23.0</ele><time>2026-05-02T16:46:07.883Z</time></trkpt><trkpt lat="54.7371" lon="20.4913267"><ele>22.666666666666668</ele><time>2026-05-02T16:46:08.887Z</time></trkpt><trkpt lat="54.7370483" lon="20.4916"><ele>22.333333333333332</ele><time>2026-05-02T16:46:09.882Z</time></trkpt><trkpt lat="54.7370033" lon="20.49186"><ele>22.0</ele><time>2026-05-02T16:46:10.887Z</time></trkpt><trkpt lat="54.7369583" lon="20.492095"><ele>22.0</ele><time>2026-05-02T16:46:11.886Z</time></trkpt><trkpt lat="54.7369233" lon="20.4923"><ele>22.0</ele><time>2026-05-02T16:46:12.884Z</time></trkpt><trkpt lat="54.736895" lon="20.492465"><ele>22.0</ele><time>2026-05-02T16:46:13.886Z</time></trkpt><trkpt lat="54.736875" lon="20.4925883"><ele>22.0</ele><time>2026-05-02T16:46:14.89Z</time></trkpt><trkpt lat="54.7368433" lon="20.49275"><ele>22.0</ele><time>2026-05-02T16:46:16.882Z</time></trkpt><trkpt lat="54.7367933" lon="20.4928683"><ele>22.0</ele><time>2026-05-02T16:46:20.887Z</time></trkpt><trkpt lat="54.7367133" lon="20.492985"><ele>22.0</ele><time>2026-05-02T16:46:22.88Z</time></trkpt><trkpt lat="54.7366567" lon="20.4930433"><ele>22.0</ele><time>2026-05-02T16:46:23.883Z</time></trkpt><trkpt lat="54.7365833" lon="20.4930933"><ele>22.0</ele><time>2026-05-02T16:46:24.872Z</time></trkpt><trkpt lat="54.7365" lon="20.4931233"><ele>22.0</ele><time>2026-05-02T16:46:25.876Z</time></trkpt><trkpt lat="54.7364167" lon="20.493125"><ele>22.0</ele><time>2026-05-02T16:46:26.885Z</time></trkpt><trkpt lat="54.73632" lon="20.4930933"><ele>22.0</ele><time>2026-05-02T16:46:27.883Z</time></trkpt><trkpt lat="54.7362217" lon="20.4930467"><ele>22.0</ele><time>2026-05-02T16:46:28.88Z</time></trkpt><trkpt lat="54.7361217" lon="20.4929933"><ele>22.0</ele><time>2026-05-02T16:46:29.885Z</time></trkpt><trkpt lat="54.7360283" lon="20.4929483"><ele>22.0</ele><time>2026-05-02T16:46:30.876Z</time></trkpt><trkpt lat="54.73593" lon="20.4928983"><ele>22.0</ele><time>2026-05-02T16:46:31.888Z</time></trkpt><trkpt lat="54.7358267" lon="20.492845"><ele>22.0</ele><time>2026-05-02T16:46:32.874Z</time></trkpt><trkpt lat="54.7357183" lon="20.4927833"><ele>22.0</ele><time>2026-05-02T16:46:33.873Z</time></trkpt><trkpt lat="54.7356033" lon="20.49272"><ele>22.0</ele><time>2026-05-02T16:46:34.88Z</time></trkpt><trkpt lat="54.7354867" lon="20.4926517"><ele>22.0</ele><time>2026-05-02T16:46:35.883Z</time></trkpt><trkpt lat="54.7353683" lon="20.4925867"><ele>22.0</ele><time>2026-05-02T16:46:36.885Z</time></trkpt><trkpt lat="54.73525" lon="20.4925233"><ele>22.0</ele><time>2026-05-02T16:46:37.882Z</time></trkpt><trkpt lat="54.7351283" lon="20.4924567"><ele>22.0</ele><time>2026-05-02T16:46:38.89Z</time></trkpt><trkpt lat="54.73501" lon="20.4923917"><ele>22.0</ele><time>2026-05-02T16:46:39.88Z</time></trkpt><trkpt lat="54.7348933" lon="20.492325"><ele>22.0</ele><time>2026-05-02T16:46:40.885Z</time></trkpt><trkpt lat="54.7347883" lon="20.49227"><ele>22.0</ele><time>2026-05-02T16:46:41.879Z</time></trkpt><trkpt lat="54.7346833" lon="20.4922133"><ele>22.0</ele><time>2026-05-02T16:46:42.886Z</time></trkpt><trkpt lat="54.7345783" lon="20.4921567"><ele>22.0</ele><time>2026-05-02T16:46:43.882Z</time></trkpt><trkpt lat="54.73448" lon="20.492105"><ele>22.0</ele><time>2026-05-02T16:46:44.88Z</time></trkpt><trkpt lat="54.7343817" lon="20.49205"><ele>22.166666666666664</ele><time>2026-05-02T16:46:45.881Z</time></trkpt><trkpt lat="54.7342883" lon="20.4919983"><ele>22.333333333333332</ele><time>2026-05-02T16:46:46.879Z</time></trkpt><trkpt lat="54.7341983" lon="20.4919483"><ele>22.5</ele><time>2026-05-02T16:46:47.876Z</time></trkpt><trkpt lat="54.7341183" lon="20.491905"><ele>22.666666666666668</ele><time>2026-05-02T16:46:48.881Z</time></trkpt><trkpt lat="54.734045" lon="20.4918667"><ele>22.833333333333336</ele><time>2026-05-02T16:46:49.877Z</time></trkpt><trkpt lat="54.73398" lon="20.4918333"><ele>23.0</ele><time>2026-05-02T16:46:50.885Z</time></trkpt><trkpt lat="54.7339183" lon="20.4918067"><ele>23.0</ele><time>2026-05-02T16:46:51.883Z</time></trkpt><trkpt lat="54.7338117" lon="20.49175"><ele>23.0</ele><time>2026-05-02T16:46:53.877Z</time></trkpt><trkpt lat="54.73372" lon="20.49171"><ele>23.0</ele><time>2026-05-02T16:46:55.88Z</time></trkpt><trkpt lat="54.7336267" lon="20.4916733"><ele>23.0</ele><time>2026-05-02T16:46:57.881Z</time></trkpt><trkpt lat="54.73356" lon="20.4916433"><ele>23.0</ele><time>2026-05-02T16:46:59.88Z</time></trkpt><trkpt lat="54.7334883" lon="20.4916117"><ele>23.0</ele><time>2026-05-02T16:47:02.88Z</time></trkpt><trkpt lat="54.733415" lon="20.4915683"><ele>23.2</ele><time>2026-05-02T16:47:06.88Z</time></trkpt><trkpt lat="54.733345" lon="20.4915283"><ele>23.4</ele><time>2026-05-02T16:47:10.878Z</time></trkpt><trkpt lat="54.7332683" lon="20.49149"><ele>23.599999999999998</ele><time>2026-05-02T16:47:12.887Z</time></trkpt><trkpt lat="54.733165" lon="20.49144"><ele>23.799999999999997</ele><time>2026-05-02T16:47:14.879Z</time></trkpt><trkpt lat="54.7330383" lon="20.4913667"><ele>24.0</ele><time>2026-05-02T16:47:16.883Z</time></trkpt><trkpt lat="54.732965" lon="20.49132"><ele>24.0</ele><time>2026-05-02T16:47:17.881Z</time></trkpt><trkpt lat="54.732885" lon="20.4912733"><ele>24.0</ele><time>2026-05-02T16:47:18.88Z</time></trkpt><trkpt lat="54.7328033" lon="20.491225"><ele>24.0</ele><time>2026-05-02T16:47:19.879Z</time></trkpt><trkpt lat="54.7327183" lon="20.4911683"><ele>24.0</ele><time>2026-05-02T16:47:20.885Z</time></trkpt><trkpt lat="54.7326317" lon="20.4911017"><ele>24.0</ele><time>2026-05-02T16:47:21.88Z</time></trkpt><trkpt lat="54.73254" lon="20.4910333"><ele>24.0</ele><time>2026-05-02T16:47:22.882Z</time></trkpt><trkpt lat="54.7324467" lon="20.49096"><ele>24.0</ele><time>2026-05-02T16:47:23.884Z</time></trkpt><trkpt lat="54.732355" lon="20.4908833"><ele>24.0</ele><time>2026-05-02T16:47:24.885Z</time></trkpt><trkpt lat="54.7322583" lon="20.4907967"><ele>24.0</ele><time>2026-05-02T16:47:25.882Z</time></trkpt><trkpt lat="54.7321683" lon="20.4907183"><ele>24.0</ele><time>2026-05-02T16:47:26.89Z</time></trkpt><trkpt lat="54.7320833" lon="20.49065"><ele>24.0</ele><time>2026-05-02T16:47:27.885Z</time></trkpt><trkpt lat="54.732" lon="20.4905817"><ele>24.0</ele><time>2026-05-02T16:47:28.88Z</time></trkpt><trkpt lat="54.73192" lon="20.4905083"><ele>24.0</ele><time>2026-05-02T16:47:29.881Z</time></trkpt><trkpt lat="54.7318517" lon="20.4904633"><ele>24.0</ele><time>2026-05-02T16:47:30.884Z</time></trkpt><trkpt lat="54.731745" lon="20.4903917"><ele>24.0</ele><time>2026-05-02T16:47:32.88Z</time></trkpt><trkpt lat="54.7316533" lon="20.490345"><ele>24.0</ele><time>2026-05-02T16:47:34.876Z</time></trkpt><trkpt lat="54.731575" lon="20.4903167"><ele>24.0</ele><time>2026-05-02T16:47:36.871Z</time></trkpt><trkpt lat="54.7315017" lon="20.49029"><ele>24.0</ele><time>2026-05-02T16:47:38.879Z</time></trkpt><trkpt lat="54.73143" lon="20.4902467"><ele>24.0</ele><time>2026-05-02T16:47:39.877Z</time></trkpt><trkpt lat="54.731315" lon="20.4901933"><ele>24.0</ele><time>2026-05-02T16:47:41.877Z</time></trkpt><trkpt lat="54.73124" lon="20.4901817"><ele>24.0</ele><time>2026-05-02T16:47:42.88Z</time></trkpt><trkpt lat="54.731175" lon="20.4901667"><ele>24.0</ele><time>2026-05-02T16:47:43.877Z</time></trkpt><trkpt lat="54.73108" lon="20.4901483"><ele>24.0</ele><time>2026-05-02T16:47:45.879Z</time></trkpt><trkpt lat="54.730995" lon="20.49008"><ele>24.0</ele><time>2026-05-02T16:47:48.882Z</time></trkpt><trkpt lat="54.730905" lon="20.4900383"><ele>24.0</ele><time>2026-05-02T16:47:51.881Z</time></trkpt><trkpt lat="54.7308133" lon="20.4899833"><ele>24.0</ele><time>2026-05-02T16:47:53.883Z</time></trkpt><trkpt lat="54.7307" lon="20.489955"><ele>24.0</ele><time>2026-05-02T16:47:55.883Z</time></trkpt><trkpt lat="54.73062" lon="20.4899283"><ele>24.0</ele><time>2026-05-02T16:47:56.884Z</time></trkpt><trkpt lat="54.7305367" lon="20.4898983"><ele>24.0</ele><time>2026-05-02T16:47:57.88Z</time></trkpt><trkpt lat="54.7304517" lon="20.4898333"><ele>24.0</ele><time>2026-05-02T16:47:58.882Z</time></trkpt><trkpt lat="54.7303867" lon="20.4897433"><ele>24.0</ele><time>2026-05-02T16:47:59.879Z</time></trkpt><trkpt lat="54.73033" lon="20.48961"><ele>24.0</ele><time>2026-05-02T16:48:00.884Z</time></trkpt><trkpt lat="54.730285" lon="20.4894417"><ele>24.0</ele><time>2026-05-02T16:48:01.881Z</time></trkpt><trkpt lat="54.7302433" lon="20.4892433"><ele>24.0</ele><time>2026-05-02T16:48:02.881Z</time></trkpt><trkpt lat="54.7301967" lon="20.4890367"><ele>24.0</ele><time>2026-05-02T16:48:03.881Z</time></trkpt><trkpt lat="54.730145" lon="20.4888167"><ele>24.0</ele><time>2026-05-02T16:48:04.883Z</time></trkpt><trkpt lat="54.7301" lon="20.4886017"><ele>24.0</ele><time>2026-05-02T16:48:05.878Z</time></trkpt><trkpt lat="54.7300517" lon="20.4883817"><ele>24.0</ele><time>2026-05-02T16:48:06.887Z</time></trkpt><trkpt lat="54.7300083" lon="20.4881483"><ele>24.0</ele><time>2026-05-02T16:48:07.884Z</time></trkpt><trkpt lat="54.729975" lon="20.4879183"><ele>24.0</ele><time>2026-05-02T16:48:08.88Z</time></trkpt><trkpt lat="54.7299483" lon="20.487685"><ele>23.75</ele><time>2026-05-02T16:48:09.885Z</time></trkpt><trkpt lat="54.7299317" lon="20.4874567"><ele>23.5</ele><time>2026-05-02T16:48:10.887Z</time></trkpt><trkpt lat="54.7299217" lon="20.4872367"><ele>23.25</ele><time>2026-05-02T16:48:11.876Z</time></trkpt><trkpt lat="54.7299167" lon="20.48703"><ele>23.0</ele><time>2026-05-02T16:48:12.883Z</time></trkpt><trkpt lat="54.72991" lon="20.4868317"><ele>23.0</ele><time>2026-05-02T16:48:13.884Z</time></trkpt><trkpt lat="54.7299083" lon="20.4866533"><ele>23.0</ele><time>2026-05-02T16:48:14.88Z</time></trkpt><trkpt lat="54.729905" lon="20.48651"><ele>23.0</ele><time>2026-05-02T16:48:15.886Z</time></trkpt><trkpt lat="54.7299067" lon="20.48639"><ele>23.0</ele><time>2026-05-02T16:48:16.882Z</time></trkpt><trkpt lat="54.7298983" lon="20.486255"><ele>23.0</ele><time>2026-05-02T16:48:18.89Z</time></trkpt><trkpt lat="54.729885" lon="20.486145"><ele>23.0</ele><time>2026-05-02T16:48:20.872Z</time></trkpt><trkpt lat="54.729825" lon="20.4860383"><ele>23.2</ele><time>2026-05-02T16:48:22.881Z</time></trkpt><trkpt lat="54.72973" lon="20.4860017"><ele>23.4</ele><time>2026-05-02T16:48:24.882Z</time></trkpt><trkpt lat="54.7296283" lon="20.48601"><ele>23.599999999999998</ele><time>2026-05-02T16:48:26.881Z</time></trkpt><trkpt lat="54.72954" lon="20.4860133"><ele>23.799999999999997</ele><time>2026-05-02T16:48:28.88Z</time></trkpt><trkpt lat="54.7294533" lon="20.486035"><ele>24.0</ele><time>2026-05-02T16:48:30.881Z</time></trkpt><trkpt lat="54.72935" lon="20.4860533"><ele>23.6</ele><time>2026-05-02T16:48:32.886Z</time></trkpt><trkpt lat="54.7292567" lon="20.4860483"><ele>23.2</ele><time>2026-05-02T16:48:34.88Z</time></trkpt><trkpt lat="54.72918" lon="20.486055"><ele>22.8</ele><time>2026-05-02T16:48:38.883Z</time></trkpt><trkpt lat="54.729085" lon="20.4860183"><ele>22.400000000000002</ele><time>2026-05-02T16:48:40.885Z</time></trkpt><trkpt lat="54.729025" lon="20.485865"><ele>22.0</ele><time>2026-05-02T16:48:42.881Z</time></trkpt><trkpt lat="54.7289867" lon="20.48568"><ele>22.0</ele><time>2026-05-02T16:48:44.884Z</time></trkpt><trkpt lat="54.7289467" lon="20.4854683"><ele>22.0</ele><time>2026-05-02T16:48:46.88Z</time></trkpt><trkpt lat="54.7289217" lon="20.4853433"><ele>22.0</ele><time>2026-05-02T16:48:47.885Z</time></trkpt><trkpt lat="54.7289017" lon="20.48522"><ele>22.0</ele><time>2026-05-02T16:48:48.881Z</time></trkpt><trkpt lat="54.728875" lon="20.4850883"><ele>22.0</ele><time>2026-05-02T16:48:49.88Z</time></trkpt><trkpt lat="54.7288567" lon="20.4849767"><ele>22.0</ele><time>2026-05-02T16:48:50.883Z</time></trkpt><trkpt lat="54.728825" lon="20.4847783"><ele>22.0</ele><time>2026-05-02T16:48:52.88Z</time></trkpt><trkpt lat="54.7287933" lon="20.4846333"><ele>22.0</ele><time>2026-05-02T16:48:54.882Z</time></trkpt><trkpt lat="54.72876" lon="20.48452"><ele>22.0</ele><time>2026-05-02T16:48:57.879Z</time></trkpt><trkpt lat="54.7287083" lon="20.4844333"><ele>22.0</ele><time>2026-05-02T16:48:59.875Z</time></trkpt><trkpt lat="54.7286733" lon="20.4842717"><ele>22.0</ele><time>2026-05-02T16:49:01.889Z</time></trkpt><trkpt lat="54.72865" lon="20.484125"><ele>22.0</ele><time>2026-05-02T16:49:03.88Z</time></trkpt><trkpt lat="54.7286283" lon="20.4840167"><ele>21.833333333333332</ele><time>2026-05-02T16:49:05.88Z</time></trkpt><trkpt lat="54.728595" lon="20.4838517"><ele>21.666666666666664</ele><time>2026-05-02T16:49:07.88Z</time></trkpt><trkpt lat="54.728575" lon="20.4837483"><ele>21.5</ele><time>2026-05-02T16:49:08.89Z</time></trkpt><trkpt lat="54.7285517" lon="20.48364"><ele>21.333333333333332</ele><time>2026-05-02T16:49:09.884Z</time></trkpt><trkpt lat="54.7285167" lon="20.4834467"><ele>21.166666666666668</ele><time>2026-05-02T16:49:11.884Z</time></trkpt><trkpt lat="54.7284883" lon="20.483305"><ele>21.0</ele><time>2026-05-02T16:49:13.884Z</time></trkpt><trkpt lat="54.728465" lon="20.4832033"><ele>21.333333333333332</ele><time>2026-05-02T16:49:15.881Z</time></trkpt><trkpt lat="54.728435" lon="20.4830883"><ele>21.666666666666668</ele><time>2026-05-02T16:49:17.884Z</time></trkpt><trkpt lat="54.7284083" lon="20.4829867"><ele>22.0</ele><time>2026-05-02T16:49:19.879Z</time></trkpt><trkpt lat="54.72838" lon="20.4828817"><ele>22.333333333333336</ele><time>2026-05-02T16:49:22.887Z</time></trkpt><trkpt lat="54.7283483" lon="20.482765"><ele>22.666666666666668</ele><time>2026-05-02T16:49:26.891Z</time></trkpt><trkpt lat="54.728325" lon="20.482585"><ele>23.0</ele><time>2026-05-02T16:49:36.881Z</time></trkpt><trkpt lat="54.7283267" lon="20.48244"><ele>23.166666666666668</ele><time>2026-05-02T16:49:39.88Z</time></trkpt><trkpt lat="54.7283217" lon="20.4822783"><ele>23.333333333333336</ele><time>2026-05-02T16:49:42.879Z</time></trkpt><trkpt lat="54.7283083" lon="20.4821483"><ele>23.5</ele><time>2026-05-02T16:49:44.883Z</time></trkpt><trkpt lat="54.728285" lon="20.4819917"><ele>23.666666666666668</ele><time>2026-05-02T16:49:46.885Z</time></trkpt><trkpt lat="54.72825" lon="20.4818117"><ele>23.833333333333332</ele><time>2026-05-02T16:49:48.887Z</time></trkpt><trkpt lat="54.7282283" lon="20.4816933"><ele>24.0</ele><time>2026-05-02T16:49:49.886Z</time></trkpt><trkpt lat="54.7281867" lon="20.48158"><ele>24.0</ele><time>2026-05-02T16:49:50.885Z</time></trkpt><trkpt lat="54.72816" lon="20.48144"><ele>24.0</ele><time>2026-05-02T16:49:51.879Z</time></trkpt><trkpt lat="54.728135" lon="20.481315"><ele>24.0</ele><time>2026-05-02T16:49:52.879Z</time></trkpt><trkpt lat="54.7280933" lon="20.481115"><ele>24.0</ele><time>2026-05-02T16:49:54.885Z</time></trkpt><trkpt lat="54.7280467" lon="20.4809117"><ele>24.0</ele><time>2026-05-02T16:49:56.881Z</time></trkpt><trkpt lat="54.7280183" lon="20.4808067"><ele>24.0</ele><time>2026-05-02T16:49:57.884Z</time></trkpt><trkpt lat="54.7279933" lon="20.4806917"><ele>24.0</ele><time>2026-05-02T16:49:58.881Z</time></trkpt><trkpt lat="54.7279467" lon="20.4804883"><ele>24.0</ele><time>2026-05-02T16:50:00.877Z</time></trkpt><trkpt lat="54.72789" lon="20.4802967"><ele>24.0</ele><time>2026-05-02T16:50:02.891Z</time></trkpt><trkpt lat="54.727855" lon="20.4801983"><ele>24.0</ele><time>2026-05-02T16:50:03.878Z</time></trkpt><trkpt lat="54.7278233" lon="20.48007"><ele>24.0</ele><time>2026-05-02T16:50:04.88Z</time></trkpt><trkpt lat="54.7277817" lon="20.4799467"><ele>24.0</ele><time>2026-05-02T16:50:05.884Z</time></trkpt><trkpt lat="54.7277417" lon="20.4798117"><ele>24.0</ele><time>2026-05-02T16:50:06.888Z</time></trkpt><trkpt lat="54.7277017" lon="20.4796667"><ele>24.0</ele><time>2026-05-02T16:50:07.887Z</time></trkpt><trkpt lat="54.72767" lon="20.47953"><ele>24.0</ele><time>2026-05-02T16:50:08.878Z</time></trkpt><trkpt lat="54.7276433" lon="20.479405"><ele>24.0</ele><time>2026-05-02T16:50:09.883Z</time></trkpt><trkpt lat="54.72762" lon="20.4793"><ele>24.0</ele><time>2026-05-02T16:50:10.88Z</time></trkpt><trkpt lat="54.7275817" lon="20.4791467"><ele>24.0</ele><time>2026-05-02T16:50:12.883Z</time></trkpt><trkpt lat="54.7275483" lon="20.4790167"><ele>24.0</ele><time>2026-05-02T16:50:14.883Z</time></trkpt><trkpt lat="54.727485" lon="20.478875"><ele>24.0</ele><time>2026-05-02T16:50:16.879Z</time></trkpt><trkpt lat="54.727385" lon="20.4788233"><ele>24.0</ele><time>2026-05-02T16:50:18.878Z</time></trkpt><trkpt lat="54.72732" lon="20.47884"><ele>24.0</ele><time>2026-05-02T16:50:19.882Z</time></trkpt><trkpt lat="54.7272467" lon="20.4788467"><ele>24.0</ele><time>2026-05-02T16:50:20.882Z</time></trkpt><trkpt lat="54.7271633" lon="20.4788433"><ele>24.0</ele><time>2026-05-02T16:50:21.886Z</time></trkpt><trkpt lat="54.7270667" lon="20.4788483"><ele>24.0</ele><time>2026-05-02T16:50:22.878Z</time></trkpt><trkpt lat="54.726965" lon="20.478855"><ele>24.0</ele><time>2026-05-02T16:50:23.88Z</time></trkpt><trkpt lat="54.7268683" lon="20.4788567"><ele>24.6</ele><time>2026-05-02T16:50:24.885Z</time></trkpt><trkpt lat="54.7267667" lon="20.4788517"><ele>25.2</ele><time>2026-05-02T16:50:25.879Z</time></trkpt><trkpt lat="54.726665" lon="20.4788533"><ele>25.800000000000004</ele><time>2026-05-02T16:50:26.882Z</time></trkpt><trkpt lat="54.7265633" lon="20.4788483"><ele>26.400000000000002</ele><time>2026-05-02T16:50:27.881Z</time></trkpt><trkpt lat="54.726455" lon="20.4788517"><ele>27.0</ele><time>2026-05-02T16:50:28.878Z</time></trkpt><trkpt lat="54.7263433" lon="20.4788567"><ele>27.0</ele><time>2026-05-02T16:50:29.88Z</time></trkpt><trkpt lat="54.7262283" lon="20.4788567"><ele>27.000000000000004</ele><time>2026-05-02T16:50:30.887Z</time></trkpt><trkpt lat="54.7261183" lon="20.4788567"><ele>27.000000000000004</ele><time>2026-05-02T16:50:31.881Z</time></trkpt><trkpt lat="54.7260117" lon="20.4788633"><ele>27.0</ele><time>2026-05-02T16:50:32.887Z</time></trkpt><trkpt lat="54.7259117" lon="20.4788733"><ele>27.0</ele><time>2026-05-02T16:50:33.881Z</time></trkpt><trkpt lat="54.7258283" lon="20.478895"><ele>26.833333333333332</ele><time>2026-05-02T16:50:34.879Z</time></trkpt><trkpt lat="54.7257567" lon="20.4788983"><ele>26.666666666666664</ele><time>2026-05-02T16:50:35.881Z</time></trkpt><trkpt lat="54.725665" lon="20.4788967"><ele>26.5</ele><time>2026-05-02T16:50:37.879Z</time></trkpt><trkpt lat="54.7256" lon="20.4789033"><ele>26.333333333333332</ele><time>2026-05-02T16:50:39.881Z</time></trkpt><trkpt lat="54.7255233" lon="20.478915"><ele>26.166666666666664</ele><time>2026-05-02T16:50:42.879Z</time></trkpt><trkpt lat="54.72546" lon="20.4790083"><ele>26.0</ele><time>2026-05-02T16:50:48.881Z</time></trkpt><trkpt lat="54.72542" lon="20.47915"><ele>25.999999999999996</ele><time>2026-05-02T16:50:51.88Z</time></trkpt><trkpt lat="54.7254033" lon="20.47928"><ele>26.0</ele><time>2026-05-02T16:50:53.879Z</time></trkpt><trkpt lat="54.7253783" lon="20.479395"><ele>26.0</ele><time>2026-05-02T16:50:55.88Z</time></trkpt><trkpt lat="54.7253467" lon="20.47953"><ele>26.0</ele><time>2026-05-02T16:50:57.88Z</time></trkpt><trkpt lat="54.7253267" lon="20.479665"><ele>25.999999999999996</ele><time>2026-05-02T16:50:59.882Z</time></trkpt><trkpt lat="54.7253033" lon="20.4798017"><ele>26.0</ele><time>2026-05-02T16:51:01.884Z</time></trkpt><trkpt lat="54.7252717" lon="20.479955"><ele>26.0</ele><time>2026-05-02T16:51:03.885Z</time></trkpt><trkpt lat="54.7252483" lon="20.48012"><ele>26.0</ele><time>2026-05-02T16:51:05.879Z</time></trkpt><trkpt lat="54.7252" lon="20.4803067"><ele>26.0</ele><time>2026-05-02T16:51:07.882Z</time></trkpt><trkpt lat="54.7251833" lon="20.480415"><ele>26.0</ele><time>2026-05-02T16:51:08.88Z</time></trkpt><trkpt lat="54.72515" lon="20.4806017"><ele>26.0</ele><time>2026-05-02T16:51:10.88Z</time></trkpt><trkpt lat="54.725125" lon="20.480775"><ele>26.200000000000003</ele><time>2026-05-02T16:51:12.888Z</time></trkpt><trkpt lat="54.7250867" lon="20.480955"><ele>26.400000000000002</ele><time>2026-05-02T16:51:14.887Z</time></trkpt><trkpt lat="54.725055" lon="20.481105"><ele>26.6</ele><time>2026-05-02T16:51:16.884Z</time></trkpt><trkpt lat="54.725015" lon="20.4811933"><ele>26.8</ele><time>2026-05-02T16:51:18.882Z</time></trkpt><trkpt lat="54.7249217" lon="20.4813417"><ele>27.0</ele><time>2026-05-02T16:51:40.887Z</time></trkpt><trkpt lat="54.7249533" lon="20.4814402"><ele>26.714285714285715</ele><time>2026-05-02T16:55:26.964Z</time></trkpt><trkpt lat="54.7249068" lon="20.4815311"><ele>26.428571428571427</ele><time>2026-05-02T16:55:30.969Z</time></trkpt><trkpt lat="54.7248824" lon="20.4816463"><ele>26.142857142857146</ele><time>2026-05-02T16:55:37.879Z</time></trkpt><trkpt lat="54.7248484" lon="20.4817403"><ele>25.857142857142858</ele><time>2026-05-02T16:55:43.951Z</time></trkpt><trkpt lat="54.724787" lon="20.4817709"><ele>25.571428571428573</ele><time>2026-05-02T16:55:50.903Z</time></trkpt><trkpt lat="54.7247559" lon="20.481878"><ele>25.28571428571429</ele><time>2026-05-02T16:55:57.88Z</time></trkpt><trkpt lat="54.7247141" lon="20.4819639"><ele>25.0</ele><time>2026-05-02T16:56:03.878Z</time></trkpt><trkpt lat="54.7246595" lon="20.4820236"><ele>25.000000000000004</ele><time>2026-05-02T16:56:09.805Z</time></trkpt><trkpt lat="54.7245869" lon="20.482044"><ele>25.0</ele><time>2026-05-02T16:56:15.954Z</time></trkpt><trkpt lat="54.7245201" lon="20.4820685"><ele>25.0</ele><time>2026-05-02T16:56:22.906Z</time></trkpt><trkpt lat="54.7244546" lon="20.4820738"><ele>25.0</ele><time>2026-05-02T16:56:29.882Z</time></trkpt><trkpt lat="54.7243872" lon="20.4820739"><ele>25.0</ele><time>2026-05-02T16:56:35.883Z</time></trkpt><trkpt lat="54.7243246" lon="20.4821013"><ele>25.000000000000004</ele><time>2026-05-02T16:56:40.889Z</time></trkpt><trkpt lat="54.7242552" lon="20.4821395"><ele>25.0</ele><time>2026-05-02T16:56:46.881Z</time></trkpt><trkpt lat="54.7241902" lon="20.4821543"><ele>24.857142857142858</ele><time>2026-05-02T16:56:51.912Z</time></trkpt><trkpt lat="54.7241231" lon="20.4821426"><ele>24.714285714285715</ele><time>2026-05-02T16:56:56.946Z</time></trkpt><trkpt lat="54.7240499" lon="20.4821225"><ele>24.57142857142857</ele><time>2026-05-02T16:57:02.939Z</time></trkpt><trkpt lat="54.723976" lon="20.4821197"><ele>24.42857142857143</ele><time>2026-05-02T16:57:08.924Z</time></trkpt><trkpt lat="54.7239079" lon="20.4821216"><ele>24.285714285714285</ele><time>2026-05-02T16:57:14.925Z</time></trkpt><trkpt lat="54.7238441" lon="20.4821308"><ele>24.142857142857142</ele><time>2026-05-02T16:57:20.843Z</time></trkpt><trkpt lat="54.7237756" lon="20.4821594"><ele>24.0</ele><time>2026-05-02T16:57:26.912Z</time></trkpt><trkpt lat="54.7237044" lon="20.4821934"><ele>23.999999999999996</ele><time>2026-05-02T16:57:32.848Z</time></trkpt><trkpt lat="54.7236291" lon="20.4822147"><ele>24.0</ele><time>2026-05-02T16:57:38.897Z</time></trkpt><trkpt lat="54.7235552" lon="20.4822123"><ele>24.0</ele><time>2026-05-02T16:57:44.89Z</time></trkpt><trkpt lat="54.7234883" lon="20.4822239"><ele>24.0</ele><time>2026-05-02T16:57:50.889Z</time></trkpt><trkpt lat="54.7234219" lon="20.482255"><ele>24.0</ele><time>2026-05-02T16:57:57.789Z</time></trkpt><trkpt lat="54.7233583" lon="20.4822739"><ele>23.999999999999996</ele><time>2026-05-02T16:58:03.948Z</time></trkpt><trkpt lat="54.7232937" lon="20.482309"><ele>24.0</ele><time>2026-05-02T16:58:10.899Z</time></trkpt><trkpt lat="54.7232883" lon="20.4824257"><ele>21.0</ele><time>2026-05-02T16:58:19.874Z</time></trkpt><trkpt lat="54.7232549" lon="20.4825183"><ele>21.0</ele><time>2026-05-02T16:58:28.881Z</time></trkpt><trkpt lat="54.723218" lon="20.4826184"><ele>21.0</ele><time>2026-05-02T16:59:24.139Z</time></trkpt></trkseg></trk></gpx>